<?xml version='1.0' encoding='utf-8'?>
<gpx xmlns="http://www.topografix.com/GPX/1/1" xmlns:xsi="http://www.w3.org/2001/XMLSchema-instance" version="v1.1.5" creator="iTravel Tech Inc. - http://www.itravel-tech.com" xsi:schemaLocation="http://www.topografix.com/GPX/1/1 http://www.topografix.com/GPX/1/1/gpx.xsd http://www.topografix.com/GPX/gpx_overlay/0/3 http://www.topografix.com/GPX/gpx_overlay/0/3/gpx_overlay.xsd http://www.topografix.com/GPX/gpx_modified/0/1 http://www.topografix.com/GPX/gpx_modified/0/1/gpx_modified.xsd">
<trk>
<name>Holux2011/04/30_01:06</name>
<trkseg>
<trkpt lat="21.028149" lon="105.778038">
<ele>9.3</ele>
<time>2011-04-29T22:06:05Z</time>
<desc>lat.=21.028149, lon.=105.778038, Alt.=28.883560m. Speed=0.180000m/h.</desc>
<speed>0.050000</speed>
</trkpt>
<trkpt lat="21.028187" lon="105.777924">
<ele>9.4</ele>
<time>2011-04-29T22:26:30Z</time>
<desc>lat.=21.028187, lon.=105.777924, Alt.=18.138931m. Speed=1.512000m/h.</desc>
<speed>0.420000</speed>
</trkpt>
<trkpt lat="21.027990" lon="105.777840">
<ele>8.9</ele>
<time>2011-04-29T22:27:50Z</time>
<desc>lat.=21.027990, lon.=105.777840, Alt.=17.765884m. Speed=1.332000m/h.</desc>
<speed>0.370000</speed>
</trkpt>
<trkpt lat="21.027573" lon="105.777901">
<ele>11.3</ele>
<time>2011-04-29T22:29:00Z</time>
<desc>lat.=21.027573, lon.=105.777901, Alt.=9.035042m. Speed=2.160000m/h.</desc>
<speed>0.600000</speed>
</trkpt>
<trkpt lat="21.027386" lon="105.778778">
<ele>11.7</ele>
<time>2011-04-29T22:30:45Z</time>
<desc>lat.=21.027386, lon.=105.778778, Alt.=-5.266544m. Speed=8.352000m/h.</desc>
<speed>2.320000</speed>
</trkpt>
<trkpt lat="21.025068" lon="105.778465">
<ele>9.1</ele>
<time>2011-04-29T22:31:25Z</time>
<desc>lat.=21.025068, lon.=105.778465, Alt.=5.142521m. Speed=28.980000m/h.</desc>
<speed>8.050000</speed>
</trkpt>
<trkpt lat="21.024025" lon="105.778465">
<ele>9.5</ele>
<time>2011-04-29T22:31:40Z</time>
<desc>lat.=21.024025, lon.=105.778465, Alt.=9.237190m. Speed=26.964001m/h.</desc>
<speed>7.490000</speed>
</trkpt>
<trkpt lat="21.022768" lon="105.778664">
<ele>9.7</ele>
<time>2011-04-29T22:32:00Z</time>
<desc>lat.=21.022768, lon.=105.778664, Alt.=12.966438m. Speed=21.096001m/h.</desc>
<speed>5.860000</speed>
</trkpt>
<trkpt lat="21.021719" lon="105.779129">
<ele>9.3</ele>
<time>2011-04-29T22:32:50Z</time>
<desc>lat.=21.021719, lon.=105.779129, Alt.=0.393376m. Speed=6.696000m/h.</desc>
<speed>1.860000</speed>
</trkpt>
<trkpt lat="21.021971" lon="105.779282">
<ele>9.2</ele>
<time>2011-04-29T22:33:05Z</time>
<desc>lat.=21.021971, lon.=105.779282, Alt.=1.853135m. Speed=14.004000m/h.</desc>
<speed>3.890000</speed>
</trkpt>
<trkpt lat="21.023153" lon="105.778969">
<ele>11.1</ele>
<time>2011-04-29T22:33:30Z</time>
<desc>lat.=21.023153, lon.=105.778969, Alt.=9.172005m. Speed=19.440001m/h.</desc>
<speed>5.400000</speed>
</trkpt>
<trkpt lat="21.024908" lon="105.778847">
<ele>10.0</ele>
<time>2011-04-29T22:34:05Z</time>
<desc>lat.=21.024908, lon.=105.778847, Alt.=19.995865m. Speed=20.591999m/h.</desc>
<speed>5.720000</speed>
</trkpt>
<trkpt lat="21.028128" lon="105.779358">
<ele>9.4</ele>
<time>2011-04-29T22:35:40Z</time>
<desc>lat.=21.028128, lon.=105.779358, Alt.=18.530045m. Speed=15.228000m/h.</desc>
<speed>4.230000</speed>
</trkpt>
<trkpt lat="21.029198" lon="105.779327">
<ele>13.1</ele>
<time>2011-04-29T22:36:10Z</time>
<desc>lat.=21.029198, lon.=105.779327, Alt.=49.347198m. Speed=1.080000m/h.</desc>
<speed>0.300000</speed>
</trkpt>
<trkpt lat="21.031677" lon="105.779930">
<ele>9.3</ele>
<time>2011-04-29T22:37:00Z</time>
<desc>lat.=21.031677, lon.=105.779930, Alt.=28.526138m. Speed=31.572001m/h.</desc>
<speed>8.770000</speed>
</trkpt>
<trkpt lat="21.037132" lon="105.780678">
<ele>8.5</ele>
<time>2011-04-29T22:37:55Z</time>
<desc>lat.=21.037132, lon.=105.780678, Alt.=23.241959m. Speed=37.368000m/h.</desc>
<speed>10.380000</speed>
</trkpt>
<trkpt lat="21.042175" lon="105.781067">
<ele>12.1</ele>
<time>2011-04-29T22:39:05Z</time>
<desc>lat.=21.042175, lon.=105.781067, Alt.=11.349007m. Speed=17.459999m/h.</desc>
<speed>4.850000</speed>
</trkpt>
<trkpt lat="21.042768" lon="105.780991">
<ele>14.7</ele>
<time>2011-04-29T22:39:20Z</time>
<desc>lat.=21.042768, lon.=105.780991, Alt.=21.289322m. Speed=16.524000m/h.</desc>
<speed>4.590000</speed>
</trkpt>
<trkpt lat="21.046177" lon="105.781387">
<ele>10.7</ele>
<time>2011-04-29T22:40:20Z</time>
<desc>lat.=21.046177, lon.=105.781387, Alt.=3.771273m. Speed=16.308001m/h.</desc>
<speed>4.530000</speed>
</trkpt>
<trkpt lat="21.053606" lon="105.781738">
<ele>9.1</ele>
<time>2011-04-29T22:42:30Z</time>
<desc>lat.=21.053606, lon.=105.781738, Alt.=65.971741m. Speed=39.528000m/h.</desc>
<speed>10.980000</speed>
</trkpt>
<trkpt lat="21.059574" lon="105.782913">
<ele>12.4</ele>
<time>2011-04-29T22:44:05Z</time>
<desc>lat.=21.059574, lon.=105.782913, Alt.=136.275513m. Speed=30.167999m/h.</desc>
<speed>8.380000</speed>
</trkpt>
<trkpt lat="21.064983" lon="105.784485">
<ele>13.9</ele>
<time>2011-04-29T22:44:55Z</time>
<desc>lat.=21.064983, lon.=105.784485, Alt.=96.073303m. Speed=49.212002m/h.</desc>
<speed>13.670001</speed>
</trkpt>
<trkpt lat="21.068478" lon="105.785294">
<ele>9.7</ele>
<time>2011-04-29T22:45:25Z</time>
<desc>lat.=21.068478, lon.=105.785294, Alt.=60.458527m. Speed=30.240000m/h.</desc>
<speed>8.400000</speed>
</trkpt>
<trkpt lat="21.075954" lon="105.785988">
<ele>13.7</ele>
<time>2011-04-29T22:47:45Z</time>
<desc>lat.=21.075954, lon.=105.785988, Alt.=52.724152m. Speed=35.748001m/h.</desc>
<speed>9.930000</speed>
</trkpt>
<trkpt lat="21.076363" lon="105.786133">
<ele>13.3</ele>
<time>2011-04-29T22:47:50Z</time>
<desc>lat.=21.076363, lon.=105.786133, Alt.=52.201691m. Speed=28.260000m/h.</desc>
<speed>7.850000</speed>
</trkpt>
<trkpt lat="21.079094" lon="105.787979">
<ele>12.8</ele>
<time>2011-04-29T22:49:40Z</time>
<desc>lat.=21.079094, lon.=105.787979, Alt.=22.531021m. Speed=1.080000m/h.</desc>
<speed>0.300000</speed>
</trkpt>
<trkpt lat="21.080854" lon="105.788467">
<ele>11.4</ele>
<time>2011-04-29T22:50:05Z</time>
<desc>lat.=21.080854, lon.=105.788467, Alt.=16.823502m. Speed=43.200001m/h.</desc>
<speed>12.000000</speed>
</trkpt>
<trkpt lat="21.082640" lon="105.788208">
<ele>11.1</ele>
<time>2011-04-29T22:50:20Z</time>
<desc>lat.=21.082640, lon.=105.788208, Alt.=15.898811m. Speed=50.220001m/h.</desc>
<speed>13.950000</speed>
</trkpt>
<trkpt lat="21.089874" lon="105.785889">
<ele>13.4</ele>
<time>2011-04-29T22:51:15Z</time>
<desc>lat.=21.089874, lon.=105.785889, Alt.=29.468033m. Speed=51.335999m/h.</desc>
<speed>14.260000</speed>
</trkpt>
<trkpt lat="21.106878" lon="105.787132">
<ele>13.8</ele>
<time>2011-04-29T22:53:10Z</time>
<desc>lat.=21.106878, lon.=105.787132, Alt.=22.300064m. Speed=58.967999m/h.</desc>
<speed>16.380000</speed>
</trkpt>
<trkpt lat="21.108084" lon="105.787102">
<ele>13.2</ele>
<time>2011-04-29T22:53:20Z</time>
<desc>lat.=21.108084, lon.=105.787102, Alt.=23.948990m. Speed=44.568001m/h.</desc>
<speed>12.380000</speed>
</trkpt>
<trkpt lat="21.131157" lon="105.779396">
<ele>11.8</ele>
<time>2011-04-29T22:56:40Z</time>
<desc>lat.=21.131157, lon.=105.779396, Alt.=13.746468m. Speed=44.675999m/h.</desc>
<speed>12.410000</speed>
</trkpt>
<trkpt lat="21.133532" lon="105.778679">
<ele>11.6</ele>
<time>2011-04-29T22:57:05Z</time>
<desc>lat.=21.133532, lon.=105.778679, Alt.=16.010513m. Speed=53.855999m/h.</desc>
<speed>14.960000</speed>
</trkpt>
<trkpt lat="21.135080" lon="105.778427">
<ele>10.5</ele>
<time>2011-04-29T22:57:15Z</time>
<desc>lat.=21.135080, lon.=105.778427, Alt.=12.980110m. Speed=62.928001m/h.</desc>
<speed>17.480000</speed>
</trkpt>
<trkpt lat="21.140472" lon="105.778542">
<ele>10.6</ele>
<time>2011-04-29T22:57:55Z</time>
<desc>lat.=21.140472, lon.=105.778542, Alt.=13.311653m. Speed=66.132004m/h.</desc>
<speed>18.370001</speed>
</trkpt>
<trkpt lat="21.192181" lon="105.780785">
<ele>12.8</ele>
<time>2011-04-29T23:04:45Z</time>
<desc>lat.=21.192181, lon.=105.780785, Alt.=17.289322m. Speed=11.412000m/h.</desc>
<speed>3.170000</speed>
</trkpt>
<trkpt lat="21.195702" lon="105.780769">
<ele>13.3</ele>
<time>2011-04-29T23:05:35Z</time>
<desc>lat.=21.195702, lon.=105.780769, Alt.=12.770882m. Speed=50.436001m/h.</desc>
<speed>14.010000</speed>
</trkpt>
<trkpt lat="21.201132" lon="105.780167">
<ele>10.9</ele>
<time>2011-04-29T23:06:10Z</time>
<desc>lat.=21.201132, lon.=105.780167, Alt.=16.602798m. Speed=60.408001m/h.</desc>
<speed>16.780000</speed>
</trkpt>
<trkpt lat="21.204384" lon="105.780022">
<ele>12.6</ele>
<time>2011-04-29T23:07:40Z</time>
<desc>lat.=21.204384, lon.=105.780022, Alt.=14.919807m. Speed=25.020000m/h.</desc>
<speed>6.950000</speed>
</trkpt>
<trkpt lat="21.204823" lon="105.780472">
<ele>12.7</ele>
<time>2011-04-29T23:07:50Z</time>
<desc>lat.=21.204823, lon.=105.780472, Alt.=17.079849m. Speed=30.780001m/h.</desc>
<speed>8.550000</speed>
</trkpt>
<trkpt lat="21.204924" lon="105.780930">
<ele>11.7</ele>
<time>2011-04-29T23:07:55Z</time>
<desc>lat.=21.204924, lon.=105.780930, Alt.=14.614388m. Speed=41.220001m/h.</desc>
<speed>11.450000</speed>
</trkpt>
<trkpt lat="21.204485" lon="105.783020">
<ele>10.7</ele>
<time>2011-04-29T23:08:10Z</time>
<desc>lat.=21.204485, lon.=105.783020, Alt.=10.929573m. Speed=53.388000m/h.</desc>
<speed>14.830000</speed>
</trkpt>
<trkpt lat="21.204569" lon="105.783607">
<ele>10.0</ele>
<time>2011-04-29T23:08:15Z</time>
<desc>lat.=21.204569, lon.=105.783607, Alt.=14.162971m. Speed=40.824001m/h.</desc>
<speed>11.340000</speed>
</trkpt>
<trkpt lat="21.205118" lon="105.784592">
<ele>9.9</ele>
<time>2011-04-29T23:08:25Z</time>
<desc>lat.=21.205118, lon.=105.784592, Alt.=17.607681m. Speed=38.807999m/h.</desc>
<speed>10.780000</speed>
</trkpt>
<trkpt lat="21.204983" lon="105.785263">
<ele>12.3</ele>
<time>2011-04-29T23:08:40Z</time>
<desc>lat.=21.204983, lon.=105.785263, Alt.=12.979622m. Speed=25.992001m/h.</desc>
<speed>7.220000</speed>
</trkpt>
<trkpt lat="21.203726" lon="105.787331">
<ele>13.1</ele>
<time>2011-04-29T23:09:00Z</time>
<desc>lat.=21.203726, lon.=105.787331, Alt.=14.756233m. Speed=58.931999m/h.</desc>
<speed>16.370000</speed>
</trkpt>
<trkpt lat="21.199732" lon="105.792763">
<ele>12.3</ele>
<time>2011-04-29T23:09:35Z</time>
<desc>lat.=21.199732, lon.=105.792763, Alt.=13.512337m. Speed=79.632004m/h.</desc>
<speed>22.120001</speed>
</trkpt>
<trkpt lat="21.197367" lon="105.796295">
<ele>13.3</ele>
<time>2011-04-29T23:09:55Z</time>
<desc>lat.=21.197367, lon.=105.796295, Alt.=14.018929m. Speed=81.216003m/h.</desc>
<speed>22.560001</speed>
</trkpt>
<trkpt lat="21.195940" lon="105.799171">
<ele>11.8</ele>
<time>2011-04-29T23:10:10Z</time>
<desc>lat.=21.195940, lon.=105.799171, Alt.=15.505257m. Speed=81.972000m/h.</desc>
<speed>22.770000</speed>
</trkpt>
<trkpt lat="21.195177" lon="105.801208">
<ele>12.0</ele>
<time>2011-04-29T23:10:20Z</time>
<desc>lat.=21.195177, lon.=105.801208, Alt.=13.826546m. Speed=80.064003m/h.</desc>
<speed>22.240001</speed>
</trkpt>
<trkpt lat="21.194632" lon="105.803200">
<ele>13.3</ele>
<time>2011-04-29T23:10:30Z</time>
<desc>lat.=21.194632, lon.=105.803200, Alt.=10.593147m. Speed=78.552002m/h.</desc>
<speed>21.820001</speed>
</trkpt>
<trkpt lat="21.194111" lon="105.806366">
<ele>13.3</ele>
<time>2011-04-29T23:10:45Z</time>
<desc>lat.=21.194111, lon.=105.806366, Alt.=5.512394m. Speed=81.216003m/h.</desc>
<speed>22.560001</speed>
</trkpt>
<trkpt lat="21.193975" lon="105.809479">
<ele>14.8</ele>
<time>2011-04-29T23:11:00Z</time>
<desc>lat.=21.193975, lon.=105.809479, Alt.=11.578255m. Speed=80.171997m/h.</desc>
<speed>22.269999</speed>
</trkpt>
<trkpt lat="21.194483" lon="105.823982">
<ele>14.1</ele>
<time>2011-04-29T23:12:00Z</time>
<desc>lat.=21.194483, lon.=105.823982, Alt.=3.550936m. Speed=75.671997m/h.</desc>
<speed>21.019999</speed>
</trkpt>
<trkpt lat="21.194778" lon="105.825523">
<ele>13.5</ele>
<time>2011-04-29T23:12:25Z</time>
<desc>lat.=21.194778, lon.=105.825523, Alt.=13.653694m. Speed=25.236000m/h.</desc>
<speed>7.010000</speed>
</trkpt>
<trkpt lat="21.195509" lon="105.827652">
<ele>12.7</ele>
<time>2011-04-29T23:12:45Z</time>
<desc>lat.=21.195509, lon.=105.827652, Alt.=13.645882m. Speed=58.248001m/h.</desc>
<speed>16.180000</speed>
</trkpt>
<trkpt lat="21.196270" lon="105.829170">
<ele>13.0</ele>
<time>2011-04-29T23:12:55Z</time>
<desc>lat.=21.196270, lon.=105.829170, Alt.=11.524788m. Speed=68.652000m/h.</desc>
<speed>19.070000</speed>
</trkpt>
<trkpt lat="21.197292" lon="105.830757">
<ele>13.3</ele>
<time>2011-04-29T23:13:05Z</time>
<desc>lat.=21.197292, lon.=105.830757, Alt.=15.466194m. Speed=74.124001m/h.</desc>
<speed>20.590000</speed>
</trkpt>
<trkpt lat="21.199387" lon="105.832993">
<ele>16.2</ele>
<time>2011-04-29T23:13:20Z</time>
<desc>lat.=21.199387, lon.=105.832993, Alt.=24.651627m. Speed=81.000000m/h.</desc>
<speed>22.500000</speed>
</trkpt>
<trkpt lat="21.203873" lon="105.836235">
<ele>13.8</ele>
<time>2011-04-29T23:13:50Z</time>
<desc>lat.=21.203873, lon.=105.836235, Alt.=24.996841m. Speed=75.851997m/h.</desc>
<speed>21.069999</speed>
</trkpt>
<trkpt lat="21.206099" lon="105.838379">
<ele>14.1</ele>
<time>2011-04-29T23:14:05Z</time>
<desc>lat.=21.206099, lon.=105.838379, Alt.=23.823990m. Speed=78.732002m/h.</desc>
<speed>21.870001</speed>
</trkpt>
<trkpt lat="21.207830" lon="105.840691">
<ele>13.3</ele>
<time>2011-04-29T23:14:20Z</time>
<desc>lat.=21.207830, lon.=105.840691, Alt.=23.750259m. Speed=68.795998m/h.</desc>
<speed>19.109999</speed>
</trkpt>
<trkpt lat="21.209057" lon="105.842773">
<ele>13.5</ele>
<time>2011-04-29T23:14:35Z</time>
<desc>lat.=21.209057, lon.=105.842773, Alt.=19.085709m. Speed=56.124001m/h.</desc>
<speed>15.590000</speed>
</trkpt>
<trkpt lat="21.209972" lon="105.844803">
<ele>13.7</ele>
<time>2011-04-29T23:15:15Z</time>
<desc>lat.=21.209972, lon.=105.844803, Alt.=15.810188m. Speed=34.992001m/h.</desc>
<speed>9.720000</speed>
</trkpt>
<trkpt lat="21.210897" lon="105.848015">
<ele>16.1</ele>
<time>2011-04-29T23:15:40Z</time>
<desc>lat.=21.210897, lon.=105.848015, Alt.=13.407112m. Speed=59.652000m/h.</desc>
<speed>16.570000</speed>
</trkpt>
<trkpt lat="21.211319" lon="105.851501">
<ele>13.4</ele>
<time>2011-04-29T23:16:00Z</time>
<desc>lat.=21.211319, lon.=105.851501, Alt.=13.916634m. Speed=74.087997m/h.</desc>
<speed>20.579999</speed>
</trkpt>
<trkpt lat="21.211344" lon="105.852531">
<ele>12.7</ele>
<time>2011-04-29T23:16:05Z</time>
<desc>lat.=21.211344, lon.=105.852531, Alt.=15.352180m. Speed=79.127998m/h.</desc>
<speed>21.980000</speed>
</trkpt>
<trkpt lat="21.210587" lon="105.861099">
<ele>12.6</ele>
<time>2011-04-29T23:16:45Z</time>
<desc>lat.=21.210587, lon.=105.861099, Alt.=16.861588m. Speed=84.348000m/h.</desc>
<speed>23.430000</speed>
</trkpt>
<trkpt lat="21.210625" lon="105.863396">
<ele>12.3</ele>
<time>2011-04-29T23:16:55Z</time>
<desc>lat.=21.210625, lon.=105.863396, Alt.=7.176579m. Speed=82.403999m/h.</desc>
<speed>22.890000</speed>
</trkpt>
<trkpt lat="21.210871" lon="105.865471">
<ele>11.1</ele>
<time>2011-04-29T23:17:05Z</time>
<desc>lat.=21.210871, lon.=105.865471, Alt.=6.789249m. Speed=69.912003m/h.</desc>
<speed>19.420001</speed>
</trkpt>
<trkpt lat="21.211296" lon="105.867355">
<ele>11.3</ele>
<time>2011-04-29T23:17:15Z</time>
<desc>lat.=21.211296, lon.=105.867355, Alt.=7.951115m. Speed=76.283997m/h.</desc>
<speed>21.189999</speed>
</trkpt>
<trkpt lat="21.211935" lon="105.869270">
<ele>13.8</ele>
<time>2011-04-29T23:17:25Z</time>
<desc>lat.=21.211935, lon.=105.869270, Alt.=10.522835m. Speed=72.216003m/h.</desc>
<speed>20.060001</speed>
</trkpt>
<trkpt lat="21.212713" lon="105.871048">
<ele>16.0</ele>
<time>2011-04-29T23:17:35Z</time>
<desc>lat.=21.212713, lon.=105.871048, Alt.=10.925179m. Speed=71.028000m/h.</desc>
<speed>19.730000</speed>
</trkpt>
<trkpt lat="21.214655" lon="105.874702">
<ele>12.7</ele>
<time>2011-04-29T23:17:55Z</time>
<desc>lat.=21.214655, lon.=105.874702, Alt.=10.974251m. Speed=83.160004m/h.</desc>
<speed>23.100001</speed>
</trkpt>
<trkpt lat="21.215841" lon="105.877762">
<ele>13.1</ele>
<time>2011-04-29T23:18:10Z</time>
<desc>lat.=21.215841, lon.=105.877762, Alt.=16.344986m. Speed=80.279999m/h.</desc>
<speed>22.300000</speed>
</trkpt>
<trkpt lat="21.216505" lon="105.880951">
<ele>9.9</ele>
<time>2011-04-29T23:18:25Z</time>
<desc>lat.=21.216505, lon.=105.880951, Alt.=11.035042m. Speed=81.360001m/h.</desc>
<speed>22.600000</speed>
</trkpt>
<trkpt lat="21.216660" lon="105.884193">
<ele>11.5</ele>
<time>2011-04-29T23:18:40Z</time>
<desc>lat.=21.216660, lon.=105.884193, Alt.=11.879768m. Speed=77.435997m/h.</desc>
<speed>21.509999</speed>
</trkpt>
<trkpt lat="21.216120" lon="105.888168">
<ele>9.4</ele>
<time>2011-04-29T23:19:00Z</time>
<desc>lat.=21.216120, lon.=105.888168, Alt.=13.357307m. Speed=82.403999m/h.</desc>
<speed>22.890000</speed>
</trkpt>
<trkpt lat="21.212828" lon="105.900749">
<ele>10.0</ele>
<time>2011-04-29T23:20:00Z</time>
<desc>lat.=21.212828, lon.=105.900749, Alt.=7.831608m. Speed=80.244003m/h.</desc>
<speed>22.290001</speed>
</trkpt>
<trkpt lat="21.212214" lon="105.903862">
<ele>9.4</ele>
<time>2011-04-29T23:20:15Z</time>
<desc>lat.=21.212214, lon.=105.903862, Alt.=11.673225m. Speed=77.760002m/h.</desc>
<speed>21.600001</speed>
</trkpt>
<trkpt lat="21.212008" lon="105.906929">
<ele>8.7</ele>
<time>2011-04-29T23:20:30Z</time>
<desc>lat.=21.212008, lon.=105.906929, Alt.=9.078987m. Speed=78.120003m/h.</desc>
<speed>21.700001</speed>
</trkpt>
<trkpt lat="21.212172" lon="105.913063">
<ele>10.3</ele>
<time>2011-04-29T23:21:00Z</time>
<desc>lat.=21.212172, lon.=105.913063, Alt.=15.014290m. Speed=71.099998m/h.</desc>
<speed>19.750000</speed>
</trkpt>
<trkpt lat="21.211948" lon="105.922180">
<ele>9.0</ele>
<time>2011-04-29T23:21:50Z</time>
<desc>lat.=21.211948, lon.=105.922180, Alt.=16.359634m. Speed=81.071999m/h.</desc>
<speed>22.520000</speed>
</trkpt>
<trkpt lat="21.211706" lon="105.925682">
<ele>8.2</ele>
<time>2011-04-29T23:22:05Z</time>
<desc>lat.=21.211706, lon.=105.925682, Alt.=12.618782m. Speed=89.603996m/h.</desc>
<speed>24.889999</speed>
</trkpt>
<trkpt lat="21.211355" lon="105.928070">
<ele>8.5</ele>
<time>2011-04-29T23:22:15Z</time>
<desc>lat.=21.211355, lon.=105.928070, Alt.=14.959114m. Speed=91.547997m/h.</desc>
<speed>25.429999</speed>
</trkpt>
<trkpt lat="21.210411" lon="105.931763">
<ele>8.2</ele>
<time>2011-04-29T23:22:30Z</time>
<desc>lat.=21.210411, lon.=105.931763, Alt.=6.627506m. Speed=94.716003m/h.</desc>
<speed>26.310001</speed>
</trkpt>
<trkpt lat="21.206415" lon="105.944687">
<ele>7.0</ele>
<time>2011-04-29T23:23:25Z</time>
<desc>lat.=21.206415, lon.=105.944687, Alt.=9.401741m. Speed=91.475998m/h.</desc>
<speed>25.409999</speed>
</trkpt>
<trkpt lat="21.202782" lon="105.958237">
<ele>6.9</ele>
<time>2011-04-29T23:24:50Z</time>
<desc>lat.=21.202782, lon.=105.958237, Alt.=-0.952950m. Speed=0.216000m/h.</desc>
<speed>0.060000</speed>
</trkpt>
<trkpt lat="21.198851" lon="105.973709">
<ele>6.9</ele>
<time>2011-04-29T23:26:25Z</time>
<desc>lat.=21.198851, lon.=105.973709, Alt.=0.584084m. Speed=81.360001m/h.</desc>
<speed>22.600000</speed>
</trkpt>
<trkpt lat="21.198114" lon="105.977959">
<ele>7.1</ele>
<time>2011-04-29T23:26:45Z</time>
<desc>lat.=21.198114, lon.=105.977959, Alt.=2.517672m. Speed=80.316002m/h.</desc>
<speed>22.310001</speed>
</trkpt>
<trkpt lat="21.196714" lon="105.990166">
<ele>6.4</ele>
<time>2011-04-29T23:27:40Z</time>
<desc>lat.=21.196714, lon.=105.990166, Alt.=3.878450m. Speed=71.136002m/h.</desc>
<speed>19.760000</speed>
</trkpt>
<trkpt lat="21.196070" lon="105.993088">
<ele>6.2</ele>
<time>2011-04-29T23:28:00Z</time>
<desc>lat.=21.196070, lon.=105.993088, Alt.=7.637882m. Speed=31.896000m/h.</desc>
<speed>8.860000</speed>
</trkpt>
<trkpt lat="21.195545" lon="105.994682">
<ele>7.5</ele>
<time>2011-04-29T23:28:25Z</time>
<desc>lat.=21.195545, lon.=105.994682, Alt.=8.624153m. Speed=40.535999m/h.</desc>
<speed>11.260000</speed>
</trkpt>
<trkpt lat="21.193991" lon="105.998245">
<ele>6.5</ele>
<time>2011-04-29T23:28:50Z</time>
<desc>lat.=21.193991, lon.=105.998245, Alt.=-3.086641m. Speed=68.112000m/h.</desc>
<speed>18.920000</speed>
</trkpt>
<trkpt lat="21.192169" lon="106.001114">
<ele>7.8</ele>
<time>2011-04-29T23:29:10Z</time>
<desc>lat.=21.192169, lon.=106.001114, Alt.=1.615952m. Speed=63.180000m/h.</desc>
<speed>17.550000</speed>
</trkpt>
<trkpt lat="21.190065" lon="106.003593">
<ele>8.5</ele>
<time>2011-04-29T23:29:30Z</time>
<desc>lat.=21.190065, lon.=106.003593, Alt.=7.529606m. Speed=65.807999m/h.</desc>
<speed>18.280000</speed>
</trkpt>
<trkpt lat="21.185699" lon="106.007767">
<ele>7.3</ele>
<time>2011-04-29T23:30:05Z</time>
<desc>lat.=21.185699, lon.=106.007767, Alt.=3.747164m. Speed=69.984001m/h.</desc>
<speed>19.440000</speed>
</trkpt>
<trkpt lat="21.184540" lon="106.009201">
<ele>7.7</ele>
<time>2011-04-29T23:30:15Z</time>
<desc>lat.=21.184540, lon.=106.009201, Alt.=6.823551m. Speed=73.152000m/h.</desc>
<speed>20.320000</speed>
</trkpt>
<trkpt lat="21.182926" lon="106.011803">
<ele>8.1</ele>
<time>2011-04-29T23:30:30Z</time>
<desc>lat.=21.182926, lon.=106.011803, Alt.=4.030216m. Speed=79.019997m/h.</desc>
<speed>21.949999</speed>
</trkpt>
<trkpt lat="21.181683" lon="106.014565">
<ele>6.2</ele>
<time>2011-04-29T23:30:45Z</time>
<desc>lat.=21.181683, lon.=106.014565, Alt.=0.873375m. Speed=71.424004m/h.</desc>
<speed>19.840001</speed>
</trkpt>
<trkpt lat="21.175444" lon="106.030655">
<ele>6.5</ele>
<time>2011-04-29T23:32:05Z</time>
<desc>lat.=21.175444, lon.=106.030655, Alt.=3.123934m. Speed=86.400002m/h.</desc>
<speed>24.000000</speed>
</trkpt>
<trkpt lat="21.174091" lon="106.033684">
<ele>6.8</ele>
<time>2011-04-29T23:32:20Z</time>
<desc>lat.=21.174091, lon.=106.033684, Alt.=2.929171m. Speed=79.667999m/h.</desc>
<speed>22.130000</speed>
</trkpt>
<trkpt lat="21.172398" lon="106.036659">
<ele>9.8</ele>
<time>2011-04-29T23:32:40Z</time>
<desc>lat.=21.172398, lon.=106.036659, Alt.=5.509953m. Speed=48.203999m/h.</desc>
<speed>13.390000</speed>
</trkpt>
<trkpt lat="21.170897" lon="106.038597">
<ele>5.9</ele>
<time>2011-04-29T23:32:55Z</time>
<desc>lat.=21.170897, lon.=106.038597, Alt.=3.857088m. Speed=74.519997m/h.</desc>
<speed>20.699999</speed>
</trkpt>
<trkpt lat="21.168808" lon="106.040710">
<ele>7.7</ele>
<time>2011-04-29T23:33:10Z</time>
<desc>lat.=21.168808, lon.=106.040710, Alt.=9.556282m. Speed=76.896004m/h.</desc>
<speed>21.360001</speed>
</trkpt>
<trkpt lat="21.167236" lon="106.041962">
<ele>8.2</ele>
<time>2011-04-29T23:33:20Z</time>
<desc>lat.=21.167236, lon.=106.041962, Alt.=14.817024m. Speed=79.776001m/h.</desc>
<speed>22.160000</speed>
</trkpt>
<trkpt lat="21.163851" lon="106.044258">
<ele>10.1</ele>
<time>2011-04-29T23:33:40Z</time>
<desc>lat.=21.163851, lon.=106.044258, Alt.=7.959293m. Speed=86.580002m/h.</desc>
<speed>24.050001</speed>
</trkpt>
<trkpt lat="21.161425" lon="106.046555">
<ele>9.4</ele>
<time>2011-04-29T23:33:55Z</time>
<desc>lat.=21.161425, lon.=106.046555, Alt.=7.516666m. Speed=81.251999m/h.</desc>
<speed>22.570000</speed>
</trkpt>
<trkpt lat="21.159168" lon="106.049522">
<ele>6.2</ele>
<time>2011-04-29T23:34:15Z</time>
<desc>lat.=21.159168, lon.=106.049522, Alt.=8.756966m. Speed=48.636002m/h.</desc>
<speed>13.510000</speed>
</trkpt>
<trkpt lat="21.158596" lon="106.050484">
<ele>5.7</ele>
<time>2011-04-29T23:34:25Z</time>
<desc>lat.=21.158596, lon.=106.050484, Alt.=4.850773m. Speed=45.647999m/h.</desc>
<speed>12.680000</speed>
</trkpt>
<trkpt lat="21.158398" lon="106.051056">
<ele>5.4</ele>
<time>2011-04-29T23:34:30Z</time>
<desc>lat.=21.158398, lon.=106.051056, Alt.=2.573885m. Speed=47.987999m/h.</desc>
<speed>13.330000</speed>
</trkpt>
<trkpt lat="21.158503" lon="106.051666">
<ele>5.5</ele>
<time>2011-04-29T23:34:35Z</time>
<desc>lat.=21.158503, lon.=106.051666, Alt.=1.359757m. Speed=46.584000m/h.</desc>
<speed>12.940000</speed>
</trkpt>
<trkpt lat="21.159063" lon="106.052734">
<ele>5.1</ele>
<time>2011-04-29T23:34:45Z</time>
<desc>lat.=21.159063, lon.=106.052734, Alt.=1.422746m. Speed=46.944000m/h.</desc>
<speed>13.040000</speed>
</trkpt>
<trkpt lat="21.159103" lon="106.053360">
<ele>5.2</ele>
<time>2011-04-29T23:34:50Z</time>
<desc>lat.=21.159103, lon.=106.053360, Alt.=1.890031m. Speed=46.152000m/h.</desc>
<speed>12.820000</speed>
</trkpt>
<trkpt lat="21.158831" lon="106.053947">
<ele>5.2</ele>
<time>2011-04-29T23:34:55Z</time>
<desc>lat.=21.158831, lon.=106.053947, Alt.=4.003971m. Speed=51.012001m/h.</desc>
<speed>14.170000</speed>
</trkpt>
<trkpt lat="21.154720" lon="106.056999">
<ele>9.1</ele>
<time>2011-04-29T23:35:35Z</time>
<desc>lat.=21.154720, lon.=106.056999, Alt.=14.442513m. Speed=35.099998m/h.</desc>
<speed>9.750000</speed>
</trkpt>
<trkpt lat="21.154364" lon="106.057312">
<ele>8.0</ele>
<time>2011-04-29T23:35:40Z</time>
<desc>lat.=21.154364, lon.=106.057312, Alt.=11.312386m. Speed=38.807999m/h.</desc>
<speed>10.780000</speed>
</trkpt>
<trkpt lat="21.154198" lon="106.057831">
<ele>6.4</ele>
<time>2011-04-29T23:35:45Z</time>
<desc>lat.=21.154198, lon.=106.057831, Alt.=10.596565m. Speed=45.647999m/h.</desc>
<speed>12.680000</speed>
</trkpt>
<trkpt lat="21.154440" lon="106.058365">
<ele>5.6</ele>
<time>2011-04-29T23:35:50Z</time>
<desc>lat.=21.154440, lon.=106.058365, Alt.=10.770393m. Speed=46.944000m/h.</desc>
<speed>13.040000</speed>
</trkpt>
<trkpt lat="21.155689" lon="106.058502">
<ele>6.1</ele>
<time>2011-04-29T23:36:00Z</time>
<desc>lat.=21.155689, lon.=106.058502, Alt.=4.686222m. Speed=49.535999m/h.</desc>
<speed>13.760000</speed>
</trkpt>
<trkpt lat="21.156260" lon="106.058708">
<ele>6.6</ele>
<time>2011-04-29T23:36:05Z</time>
<desc>lat.=21.156260, lon.=106.058708, Alt.=4.740543m. Speed=48.456001m/h.</desc>
<speed>13.460000</speed>
</trkpt>
<trkpt lat="21.156738" lon="106.059219">
<ele>8.3</ele>
<time>2011-04-29T23:36:10Z</time>
<desc>lat.=21.156738, lon.=106.059219, Alt.=5.483952m. Speed=56.736000m/h.</desc>
<speed>15.760000</speed>
</trkpt>
<trkpt lat="21.162256" lon="106.068077">
<ele>7.4</ele>
<time>2011-04-29T23:37:10Z</time>
<desc>lat.=21.162256, lon.=106.068077, Alt.=6.356998m. Speed=58.500000m/h.</desc>
<speed>16.250000</speed>
</trkpt>
<trkpt lat="21.163965" lon="106.072403">
<ele>5.2</ele>
<time>2011-04-29T23:37:35Z</time>
<desc>lat.=21.163965, lon.=106.072403, Alt.=6.843937m. Speed=72.755997m/h.</desc>
<speed>20.209999</speed>
</trkpt>
<trkpt lat="21.165676" lon="106.079300">
<ele>5.8</ele>
<time>2011-04-29T23:38:10Z</time>
<desc>lat.=21.165676, lon.=106.079300, Alt.=10.778206m. Speed=78.192001m/h.</desc>
<speed>21.720000</speed>
</trkpt>
<trkpt lat="21.166729" lon="106.082146">
<ele>5.5</ele>
<time>2011-04-29T23:38:25Z</time>
<desc>lat.=21.166729, lon.=106.082146, Alt.=6.402164m. Speed=72.828003m/h.</desc>
<speed>20.230001</speed>
</trkpt>
<trkpt lat="21.168568" lon="106.085403">
<ele>6.1</ele>
<time>2011-04-29T23:38:45Z</time>
<desc>lat.=21.168568, lon.=106.085403, Alt.=6.536808m. Speed=68.435997m/h.</desc>
<speed>19.009999</speed>
</trkpt>
<trkpt lat="21.170902" lon="106.088249">
<ele>5.4</ele>
<time>2011-04-29T23:39:10Z</time>
<desc>lat.=21.170902, lon.=106.088249, Alt.=13.270882m. Speed=33.264000m/h.</desc>
<speed>9.240000</speed>
</trkpt>
<trkpt lat="21.171335" lon="106.089066">
<ele>6.1</ele>
<time>2011-04-29T23:39:20Z</time>
<desc>lat.=21.171335, lon.=106.089066, Alt.=9.615608m. Speed=39.167999m/h.</desc>
<speed>10.880000</speed>
</trkpt>
<trkpt lat="21.171022" lon="106.091370">
<ele>5.5</ele>
<time>2011-04-29T23:39:40Z</time>
<desc>lat.=21.171022, lon.=106.091370, Alt.=3.504366m. Speed=42.299999m/h.</desc>
<speed>11.750000</speed>
</trkpt>
<trkpt lat="21.171219" lon="106.091866">
<ele>5.2</ele>
<time>2011-04-29T23:39:45Z</time>
<desc>lat.=21.171219, lon.=106.091866, Alt.=4.045231m. Speed=36.396000m/h.</desc>
<speed>10.110000</speed>
</trkpt>
<trkpt lat="21.171785" lon="106.092361">
<ele>6.3</ele>
<time>2011-04-29T23:39:55Z</time>
<desc>lat.=21.171785, lon.=106.092361, Alt.=6.419132m. Speed=20.304001m/h.</desc>
<speed>5.640000</speed>
</trkpt>
<trkpt lat="21.171785" lon="106.093124">
<ele>6.1</ele>
<time>2011-04-29T23:41:10Z</time>
<desc>lat.=21.171785, lon.=106.093124, Alt.=12.286018m. Speed=0.216000m/h.</desc>
<speed>0.060000</speed>
</trkpt>
<trkpt lat="21.169809" lon="106.101326">
<ele>7.1</ele>
<time>2011-04-29T23:43:25Z</time>
<desc>lat.=21.169809, lon.=106.101326, Alt.=15.350471m. Speed=35.855999m/h.</desc>
<speed>9.960000</speed>
</trkpt>
<trkpt lat="21.164492" lon="106.108727">
<ele>6.3</ele>
<time>2011-04-29T23:44:35Z</time>
<desc>lat.=21.164492, lon.=106.108727, Alt.=8.586800m. Speed=38.448002m/h.</desc>
<speed>10.680001</speed>
</trkpt>
<trkpt lat="21.160664" lon="106.112442">
<ele>6.3</ele>
<time>2011-04-29T23:45:25Z</time>
<desc>lat.=21.160664, lon.=106.112442, Alt.=7.607365m. Speed=36.216000m/h.</desc>
<speed>10.060000</speed>
</trkpt>
<trkpt lat="21.159904" lon="106.113663">
<ele>5.9</ele>
<time>2011-04-29T23:45:40Z</time>
<desc>lat.=21.159904, lon.=106.113663, Alt.=10.666389m. Speed=44.604000m/h.</desc>
<speed>12.390000</speed>
</trkpt>
<trkpt lat="21.159222" lon="106.115280">
<ele>6.2</ele>
<time>2011-04-29T23:45:55Z</time>
<desc>lat.=21.159222, lon.=106.115280, Alt.=18.302505m. Speed=41.256001m/h.</desc>
<speed>11.460000</speed>
</trkpt>
<trkpt lat="21.153004" lon="106.153122">
<ele>8.5</ele>
<time>2011-04-29T23:50:20Z</time>
<desc>lat.=21.153004, lon.=106.153122, Alt.=17.037857m. Speed=43.667999m/h.</desc>
<speed>12.130000</speed>
</trkpt>
<trkpt lat="21.152397" lon="106.158058">
<ele>8.9</ele>
<time>2011-04-29T23:50:55Z</time>
<desc>lat.=21.152397, lon.=106.158058, Alt.=9.023323m. Speed=58.608002m/h.</desc>
<speed>16.280000</speed>
</trkpt>
<trkpt lat="21.151955" lon="106.160599">
<ele>7.9</ele>
<time>2011-04-29T23:51:10Z</time>
<desc>lat.=21.151955, lon.=106.160599, Alt.=12.690559m. Speed=62.243999m/h.</desc>
<speed>17.290000</speed>
</trkpt>
<trkpt lat="21.151506" lon="106.162277">
<ele>8.2</ele>
<time>2011-04-29T23:51:20Z</time>
<desc>lat.=21.151506, lon.=106.162277, Alt.=17.864517m. Speed=61.523998m/h.</desc>
<speed>17.090000</speed>
</trkpt>
<trkpt lat="21.150854" lon="106.163673">
<ele>8.6</ele>
<time>2011-04-29T23:51:30Z</time>
<desc>lat.=21.150854, lon.=106.163673, Alt.=17.334244m. Speed=45.071999m/h.</desc>
<speed>12.520000</speed>
</trkpt>
<trkpt lat="21.148476" lon="106.166725">
<ele>8.1</ele>
<time>2011-04-29T23:51:55Z</time>
<desc>lat.=21.148476, lon.=106.166725, Alt.=18.866959m. Speed=65.879997m/h.</desc>
<speed>18.299999</speed>
</trkpt>
<trkpt lat="21.141794" lon="106.173927">
<ele>6.4</ele>
<time>2011-04-29T23:52:45Z</time>
<desc>lat.=21.141794, lon.=106.173927, Alt.=17.266861m. Speed=78.480003m/h.</desc>
<speed>21.800001</speed>
</trkpt>
<trkpt lat="21.139635" lon="106.175911">
<ele>5.4</ele>
<time>2011-04-29T23:53:00Z</time>
<desc>lat.=21.139635, lon.=106.175911, Alt.=13.162727m. Speed=74.987999m/h.</desc>
<speed>20.830000</speed>
</trkpt>
<trkpt lat="21.138418" lon="106.177414">
<ele>5.1</ele>
<time>2011-04-29T23:53:10Z</time>
<desc>lat.=21.138418, lon.=106.177414, Alt.=14.479378m. Speed=72.071999m/h.</desc>
<speed>20.020000</speed>
</trkpt>
<trkpt lat="21.136929" lon="106.180779">
<ele>7.8</ele>
<time>2011-04-29T23:53:30Z</time>
<desc>lat.=21.136929, lon.=106.180779, Alt.=8.560921m. Speed=74.772003m/h.</desc>
<speed>20.770001</speed>
</trkpt>
<trkpt lat="21.132874" lon="106.187759">
<ele>9.7</ele>
<time>2011-04-29T23:54:15Z</time>
<desc>lat.=21.132874, lon.=106.187759, Alt.=8.139290m. Speed=58.104000m/h.</desc>
<speed>16.140000</speed>
</trkpt>
<trkpt lat="21.130074" lon="106.194786">
<ele>3.8</ele>
<time>2011-04-29T23:54:55Z</time>
<desc>lat.=21.130074, lon.=106.194786, Alt.=13.801399m. Speed=70.416000m/h.</desc>
<speed>19.560000</speed>
</trkpt>
<trkpt lat="21.126518" lon="106.201218">
<ele>11.7</ele>
<time>2011-04-29T23:56:35Z</time>
<desc>lat.=21.126518, lon.=106.201218, Alt.=9.761848m. Speed=48.023998m/h.</desc>
<speed>13.340000</speed>
</trkpt>
<trkpt lat="21.125610" lon="106.203804">
<ele>6.3</ele>
<time>2011-04-29T23:56:55Z</time>
<desc>lat.=21.125610, lon.=106.203804, Alt.=3.113192m. Speed=57.456001m/h.</desc>
<speed>15.960000</speed>
</trkpt>
<trkpt lat="21.121584" lon="106.234261">
<ele>5.8</ele>
<time>2011-04-29T23:59:40Z</time>
<desc>lat.=21.121584, lon.=106.234261, Alt.=8.442024m. Speed=71.351997m/h.</desc>
<speed>19.819999</speed>
</trkpt>
<trkpt lat="21.119658" lon="106.250900">
<ele>8.8</ele>
<time>2011-04-30T00:02:30Z</time>
<desc>lat.=21.119658, lon.=106.250900, Alt.=5.223698m. Speed=46.043999m/h.</desc>
<speed>12.790000</speed>
</trkpt>
<trkpt lat="21.118605" lon="106.258492">
<ele>6.8</ele>
<time>2011-04-30T00:03:15Z</time>
<desc>lat.=21.118605, lon.=106.258492, Alt.=7.433537m. Speed=71.424004m/h.</desc>
<speed>19.840001</speed>
</trkpt>
<trkpt lat="21.116493" lon="106.276154">
<ele>9.8</ele>
<time>2011-04-30T00:05:05Z</time>
<desc>lat.=21.116493, lon.=106.276154, Alt.=3.741854m. Speed=20.879999m/h.</desc>
<speed>5.800000</speed>
</trkpt>
<trkpt lat="21.116587" lon="106.279045">
<ele>6.5</ele>
<time>2011-04-30T00:05:55Z</time>
<desc>lat.=21.116587, lon.=106.279045, Alt.=-0.669182m. Speed=53.495998m/h.</desc>
<speed>14.860000</speed>
</trkpt>
<trkpt lat="21.117723" lon="106.283791">
<ele>6.0</ele>
<time>2011-04-30T00:06:25Z</time>
<desc>lat.=21.117723, lon.=106.283791, Alt.=2.607210m. Speed=57.888000m/h.</desc>
<speed>16.080000</speed>
</trkpt>
<trkpt lat="21.117723" lon="106.285431">
<ele>5.4</ele>
<time>2011-04-30T00:06:35Z</time>
<desc>lat.=21.117723, lon.=106.285431, Alt.=2.637972m. Speed=61.883999m/h.</desc>
<speed>17.190000</speed>
</trkpt>
<trkpt lat="21.117252" lon="106.287132">
<ele>5.8</ele>
<time>2011-04-30T00:06:45Z</time>
<desc>lat.=21.117252, lon.=106.287132, Alt.=3.532503m. Speed=69.264000m/h.</desc>
<speed>19.240000</speed>
</trkpt>
<trkpt lat="21.113049" lon="106.299210">
<ele>6.3</ele>
<time>2011-04-30T00:08:05Z</time>
<desc>lat.=21.113049, lon.=106.299210, Alt.=8.924934m. Speed=41.939999m/h.</desc>
<speed>11.650000</speed>
</trkpt>
<trkpt lat="21.112900" lon="106.300369">
<ele>9.9</ele>
<time>2011-04-30T00:08:15Z</time>
<desc>lat.=21.112900, lon.=106.300369, Alt.=4.415226m. Speed=44.964001m/h.</desc>
<speed>12.490000</speed>
</trkpt>
<trkpt lat="21.113226" lon="106.303093">
<ele>13.9</ele>
<time>2011-04-30T00:08:40Z</time>
<desc>lat.=21.113226, lon.=106.303093, Alt.=0.542092m. Speed=37.908001m/h.</desc>
<speed>10.530000</speed>
</trkpt>
<trkpt lat="21.113232" lon="106.304482">
<ele>13.2</ele>
<time>2011-04-30T00:08:55Z</time>
<desc>lat.=21.113232, lon.=106.304482, Alt.=3.457247m. Speed=41.796001m/h.</desc>
<speed>11.610000</speed>
</trkpt>
<trkpt lat="21.112724" lon="106.311378">
<ele>5.9</ele>
<time>2011-04-30T00:09:55Z</time>
<desc>lat.=21.112724, lon.=106.311378, Alt.=9.268684m. Speed=38.627998m/h.</desc>
<speed>10.730000</speed>
</trkpt>
<trkpt lat="21.112375" lon="106.319298">
<ele>7.4</ele>
<time>2011-04-30T00:11:00Z</time>
<desc>lat.=21.112375, lon.=106.319298, Alt.=-5.151188m. Speed=52.236000m/h.</desc>
<speed>14.510000</speed>
</trkpt>
<trkpt lat="21.112072" lon="106.322060">
<ele>11.3</ele>
<time>2011-04-30T00:11:25Z</time>
<desc>lat.=21.112072, lon.=106.322060, Alt.=-3.652742m. Speed=43.056000m/h.</desc>
<speed>11.960000</speed>
</trkpt>
<trkpt lat="21.111355" lon="106.324387">
<ele>11.8</ele>
<time>2011-04-30T00:11:45Z</time>
<desc>lat.=21.111355, lon.=106.324387, Alt.=-0.603112m. Speed=41.256001m/h.</desc>
<speed>11.460000</speed>
</trkpt>
<trkpt lat="21.109526" lon="106.334663">
<ele>6.5</ele>
<time>2011-04-30T00:12:50Z</time>
<desc>lat.=21.109526, lon.=106.334663, Alt.=3.418245m. Speed=69.480003m/h.</desc>
<speed>19.300001</speed>
</trkpt>
<trkpt lat="21.108212" lon="106.341095">
<ele>8.1</ele>
<time>2011-04-30T00:13:25Z</time>
<desc>lat.=21.108212, lon.=106.341095, Alt.=4.260075m. Speed=46.980000m/h.</desc>
<speed>13.050000</speed>
</trkpt>
<trkpt lat="21.107449" lon="106.342766">
<ele>8.6</ele>
<time>2011-04-30T00:13:40Z</time>
<desc>lat.=21.107449, lon.=106.342766, Alt.=6.611393m. Speed=39.132000m/h.</desc>
<speed>10.870000</speed>
</trkpt>
<trkpt lat="21.107098" lon="106.345512">
<ele>5.9</ele>
<time>2011-04-30T00:14:05Z</time>
<desc>lat.=21.107098, lon.=106.345512, Alt.=9.859505m. Speed=48.096001m/h.</desc>
<speed>13.360000</speed>
</trkpt>
<trkpt lat="21.105940" lon="106.348320">
<ele>5.3</ele>
<time>2011-04-30T00:14:25Z</time>
<desc>lat.=21.105940, lon.=106.348320, Alt.=7.083195m. Speed=61.919998m/h.</desc>
<speed>17.199999</speed>
</trkpt>
<trkpt lat="21.103123" lon="106.358292">
<ele>4.7</ele>
<time>2011-04-30T00:15:30Z</time>
<desc>lat.=21.103123, lon.=106.358292, Alt.=13.108528m. Speed=60.911999m/h.</desc>
<speed>16.920000</speed>
</trkpt>
<trkpt lat="21.102863" lon="106.360016">
<ele>5.3</ele>
<time>2011-04-30T00:15:40Z</time>
<desc>lat.=21.102863, lon.=106.360016, Alt.=11.620979m. Speed=65.627998m/h.</desc>
<speed>18.230000</speed>
</trkpt>
<trkpt lat="21.102707" lon="106.363976">
<ele>5.4</ele>
<time>2011-04-30T00:16:05Z</time>
<desc>lat.=21.102707, lon.=106.363976, Alt.=3.131685m. Speed=45.792000m/h.</desc>
<speed>12.720000</speed>
</trkpt>
<trkpt lat="21.102467" lon="106.365746">
<ele>5.3</ele>
<time>2011-04-30T00:16:20Z</time>
<desc>lat.=21.102467, lon.=106.365746, Alt.=3.549471m. Speed=50.220001m/h.</desc>
<speed>13.950000</speed>
</trkpt>
<trkpt lat="21.102053" lon="106.367104">
<ele>6.9</ele>
<time>2011-04-30T00:16:30Z</time>
<desc>lat.=21.102053, lon.=106.367104, Alt.=1.731004m. Speed=60.155998m/h.</desc>
<speed>16.710000</speed>
</trkpt>
<trkpt lat="21.100727" lon="106.370079">
<ele>4.9</ele>
<time>2011-04-30T00:16:50Z</time>
<desc>lat.=21.100727, lon.=106.370079, Alt.=1.905808m. Speed=63.216000m/h.</desc>
<speed>17.560000</speed>
</trkpt>
<trkpt lat="21.100210" lon="106.371628">
<ele>5.9</ele>
<time>2011-04-30T00:17:00Z</time>
<desc>lat.=21.100210, lon.=106.371628, Alt.=2.662874m. Speed=57.816002m/h.</desc>
<speed>16.060001</speed>
</trkpt>
<trkpt lat="21.099268" lon="106.376335">
<ele>6.3</ele>
<time>2011-04-30T00:17:35Z</time>
<desc>lat.=21.099268, lon.=106.376335, Alt.=15.842415m. Speed=55.476002m/h.</desc>
<speed>15.410000</speed>
</trkpt>
<trkpt lat="21.099258" lon="106.377762">
<ele>6.3</ele>
<time>2011-04-30T00:17:45Z</time>
<desc>lat.=21.099258, lon.=106.377762, Alt.=14.117073m. Speed=48.599998m/h.</desc>
<speed>13.500000</speed>
</trkpt>
<trkpt lat="21.099901" lon="106.379082">
<ele>7.0</ele>
<time>2011-04-30T00:18:00Z</time>
<desc>lat.=21.099901, lon.=106.379082, Alt.=9.359016m. Speed=35.388000m/h.</desc>
<speed>9.830000</speed>
</trkpt>
<trkpt lat="21.106499" lon="106.384048">
<ele>18.4</ele>
<time>2011-04-30T00:19:30Z</time>
<desc>lat.=21.106499, lon.=106.384048, Alt.=18.326431m. Speed=42.551998m/h.</desc>
<speed>11.819999</speed>
</trkpt>
<trkpt lat="21.107458" lon="106.385017">
<ele>10.0</ele>
<time>2011-04-30T00:19:45Z</time>
<desc>lat.=21.107458, lon.=106.385017, Alt.=18.654556m. Speed=30.708000m/h.</desc>
<speed>8.530000</speed>
</trkpt>
<trkpt lat="21.111519" lon="106.390396">
<ele>17.0</ele>
<time>2011-04-30T00:20:55Z</time>
<desc>lat.=21.111519, lon.=106.390396, Alt.=8.687874m. Speed=18.756001m/h.</desc>
<speed>5.210000</speed>
</trkpt>
<trkpt lat="21.111786" lon="106.390572">
<ele>18.0</ele>
<time>2011-04-30T00:21:50Z</time>
<desc>lat.=21.111786, lon.=106.390572, Alt.=10.094124m. Speed=10.296000m/h.</desc>
<speed>2.860000</speed>
</trkpt>
<trkpt lat="21.114874" lon="106.394890">
<ele>14.3</ele>
<time>2011-04-30T00:23:55Z</time>
<desc>lat.=21.114874, lon.=106.394890, Alt.=19.907486m. Speed=21.348000m/h.</desc>
<speed>5.930000</speed>
</trkpt>
<trkpt lat="21.117472" lon="106.399208">
<ele>11.3</ele>
<time>2011-04-30T00:25:10Z</time>
<desc>lat.=21.117472, lon.=106.399208, Alt.=18.667252m. Speed=25.524000m/h.</desc>
<speed>7.090000</speed>
</trkpt>
<trkpt lat="21.119656" lon="106.401260">
<ele>8.0</ele>
<time>2011-04-30T00:25:40Z</time>
<desc>lat.=21.119656, lon.=106.401260, Alt.=15.989143m. Speed=44.316002m/h.</desc>
<speed>12.310001</speed>
</trkpt>
<trkpt lat="21.124355" lon="106.408295">
<ele>6.5</ele>
<time>2011-04-30T00:26:45Z</time>
<desc>lat.=21.124355, lon.=106.408295, Alt.=7.433781m. Speed=50.327999m/h.</desc>
<speed>13.980000</speed>
</trkpt>
<trkpt lat="21.126328" lon="106.410622">
<ele>4.3</ele>
<time>2011-04-30T00:27:05Z</time>
<desc>lat.=21.126328, lon.=106.410622, Alt.=10.273567m. Speed=60.264000m/h.</desc>
<speed>16.740000</speed>
</trkpt>
<trkpt lat="21.128780" lon="106.414314">
<ele>11.2</ele>
<time>2011-04-30T00:27:40Z</time>
<desc>lat.=21.128780, lon.=106.414314, Alt.=12.271126m. Speed=42.155998m/h.</desc>
<speed>11.710000</speed>
</trkpt>
<trkpt lat="21.130857" lon="106.418381">
<ele>5.2</ele>
<time>2011-04-30T00:28:20Z</time>
<desc>lat.=21.130857, lon.=106.418381, Alt.=5.423649m. Speed=23.903999m/h.</desc>
<speed>6.640000</speed>
</trkpt>
<trkpt lat="21.131102" lon="106.418510">
<ele>5.6</ele>
<time>2011-04-30T00:28:25Z</time>
<desc>lat.=21.131102, lon.=106.418510, Alt.=2.931368m. Speed=21.492001m/h.</desc>
<speed>5.970000</speed>
</trkpt>
<trkpt lat="21.131317" lon="106.418434">
<ele>6.9</ele>
<time>2011-04-30T00:28:35Z</time>
<desc>lat.=21.131317, lon.=106.418434, Alt.=1.757096m. Speed=0.900000m/h.</desc>
<speed>0.250000</speed>
</trkpt>
<trkpt lat="21.131329" lon="106.418556">
<ele>6.7</ele>
<time>2011-04-30T00:31:45Z</time>
<desc>lat.=21.131329, lon.=106.418556, Alt.=1.691575m. Speed=0.612000m/h.</desc>
<speed>0.170000</speed>
</trkpt>
<trkpt lat="21.131235" lon="106.418404">
<ele>6.7</ele>
<time>2011-04-30T00:33:35Z</time>
<desc>lat.=21.131235, lon.=106.418404, Alt.=-0.475834m. Speed=0.288000m/h.</desc>
<speed>0.080000</speed>
</trkpt>
<trkpt lat="21.131336" lon="106.418411">
<ele>7.0</ele>
<time>2011-04-30T00:36:20Z</time>
<desc>lat.=21.131336, lon.=106.418411, Alt.=-5.620670m. Speed=0.684000m/h.</desc>
<speed>0.190000</speed>
</trkpt>
<trkpt lat="21.131176" lon="106.418587">
<ele>5.9</ele>
<time>2011-04-30T00:48:35Z</time>
<desc>lat.=21.131176, lon.=106.418587, Alt.=-5.109806m. Speed=8.604000m/h.</desc>
<speed>2.390000</speed>
</trkpt>
<trkpt lat="21.131166" lon="106.418961">
<ele>4.6</ele>
<time>2011-04-30T00:48:50Z</time>
<desc>lat.=21.131166, lon.=106.418961, Alt.=-3.188143m. Speed=22.427999m/h.</desc>
<speed>6.230000</speed>
</trkpt>
<trkpt lat="21.133144" lon="106.422989">
<ele>6.0</ele>
<time>2011-04-30T00:49:30Z</time>
<desc>lat.=21.133144, lon.=106.422989, Alt.=-2.871798m. Speed=43.703999m/h.</desc>
<speed>12.140000</speed>
</trkpt>
<trkpt lat="21.133478" lon="106.424225">
<ele>5.6</ele>
<time>2011-04-30T00:49:40Z</time>
<desc>lat.=21.133478, lon.=106.424225, Alt.=-5.165104m. Speed=55.368000m/h.</desc>
<speed>15.380000</speed>
</trkpt>
<trkpt lat="21.133217" lon="106.427635">
<ele>7.4</ele>
<time>2011-04-30T00:50:00Z</time>
<desc>lat.=21.133217, lon.=106.427635, Alt.=-5.097721m. Speed=71.099998m/h.</desc>
<speed>19.750000</speed>
</trkpt>
<trkpt lat="21.132668" lon="106.431763">
<ele>8.3</ele>
<time>2011-04-30T00:50:25Z</time>
<desc>lat.=21.132668, lon.=106.431763, Alt.=-10.737923m. Speed=44.568001m/h.</desc>
<speed>12.380000</speed>
</trkpt>
<trkpt lat="21.132843" lon="106.434036">
<ele>3.4</ele>
<time>2011-04-30T00:51:00Z</time>
<desc>lat.=21.132843, lon.=106.434036, Alt.=-4.996403m. Speed=36.972000m/h.</desc>
<speed>10.270000</speed>
</trkpt>
<trkpt lat="21.132658" lon="106.434990">
<ele>3.1</ele>
<time>2011-04-30T00:51:10Z</time>
<desc>lat.=21.132658, lon.=106.434990, Alt.=-3.696016m. Speed=32.147999m/h.</desc>
<speed>8.930000</speed>
</trkpt>
<trkpt lat="21.129213" lon="106.446770">
<ele>5.1</ele>
<time>2011-04-30T00:52:50Z</time>
<desc>lat.=21.129213, lon.=106.446770, Alt.=-4.404240m. Speed=67.931999m/h.</desc>
<speed>18.870000</speed>
</trkpt>
<trkpt lat="21.125664" lon="106.455559">
<ele>4.2</ele>
<time>2011-04-30T00:53:50Z</time>
<desc>lat.=21.125664, lon.=106.455559, Alt.=-7.495670m. Speed=65.987999m/h.</desc>
<speed>18.330000</speed>
</trkpt>
<trkpt lat="21.124294" lon="106.458038">
<ele>6.7</ele>
<time>2011-04-30T00:54:10Z</time>
<desc>lat.=21.124294, lon.=106.458038, Alt.=-11.828987m. Speed=53.855999m/h.</desc>
<speed>14.960000</speed>
</trkpt>
<trkpt lat="21.123819" lon="106.458549">
<ele>7.1</ele>
<time>2011-04-30T00:54:15Z</time>
<desc>lat.=21.123819, lon.=106.458549, Alt.=-12.063118m. Speed=55.116001m/h.</desc>
<speed>15.310000</speed>
</trkpt>
<trkpt lat="21.122160" lon="106.459541">
<ele>6.8</ele>
<time>2011-04-30T00:54:30Z</time>
<desc>lat.=21.122160, lon.=106.459541, Alt.=-6.868107m. Speed=50.543999m/h.</desc>
<speed>14.040000</speed>
</trkpt>
<trkpt lat="21.121107" lon="106.460449">
<ele>5.8</ele>
<time>2011-04-30T00:54:40Z</time>
<desc>lat.=21.121107, lon.=106.460449, Alt.=-3.385897m. Speed=50.292000m/h.</desc>
<speed>13.970000</speed>
</trkpt>
<trkpt lat="21.118919" lon="106.464294">
<ele>4.8</ele>
<time>2011-04-30T00:55:10Z</time>
<desc>lat.=21.118919, lon.=106.464294, Alt.=5.179142m. Speed=50.868000m/h.</desc>
<speed>14.130000</speed>
</trkpt>
<trkpt lat="21.118164" lon="106.465355">
<ele>6.0</ele>
<time>2011-04-30T00:55:20Z</time>
<desc>lat.=21.118164, lon.=106.465355, Alt.=6.704533m. Speed=45.287998m/h.</desc>
<speed>12.579999</speed>
</trkpt>
<trkpt lat="21.116558" lon="106.467155">
<ele>4.7</ele>
<time>2011-04-30T00:55:40Z</time>
<desc>lat.=21.116558, lon.=106.467155, Alt.=4.017155m. Speed=51.408001m/h.</desc>
<speed>14.280000</speed>
</trkpt>
<trkpt lat="21.106485" lon="106.476913">
<ele>6.1</ele>
<time>2011-04-30T00:57:25Z</time>
<desc>lat.=21.106485, lon.=106.476913, Alt.=-25.239517m. Speed=9.324000m/h.</desc>
<speed>2.590000</speed>
</trkpt>
<trkpt lat="21.106258" lon="106.476913">
<ele>5.8</ele>
<time>2011-04-30T00:58:30Z</time>
<desc>lat.=21.106258, lon.=106.476913, Alt.=-23.984634m. Speed=0.108000m/h.</desc>
<speed>0.030000</speed>
</trkpt>
<trkpt lat="21.106180" lon="106.477158">
<ele>5.8</ele>
<time>2011-04-30T01:03:20Z</time>
<desc>lat.=21.106180, lon.=106.477158, Alt.=-4.501896m. Speed=26.388000m/h.</desc>
<speed>7.330000</speed>
</trkpt>
<trkpt lat="21.104500" lon="106.478989">
<ele>7.3</ele>
<time>2011-04-30T01:03:40Z</time>
<desc>lat.=21.104500, lon.=106.478989, Alt.=-8.840218m. Speed=51.408001m/h.</desc>
<speed>14.280000</speed>
</trkpt>
<trkpt lat="21.094749" lon="106.488747">
<ele>8.5</ele>
<time>2011-04-30T01:05:05Z</time>
<desc>lat.=21.094749, lon.=106.488747, Alt.=-28.114517m. Speed=40.824001m/h.</desc>
<speed>11.340000</speed>
</trkpt>
<trkpt lat="21.094145" lon="106.489449">
<ele>9.8</ele>
<time>2011-04-30T01:05:15Z</time>
<desc>lat.=21.094145, lon.=106.489449, Alt.=-20.575455m. Speed=35.495998m/h.</desc>
<speed>9.860000</speed>
</trkpt>
<trkpt lat="21.092148" lon="106.492981">
<ele>4.0</ele>
<time>2011-04-30T01:05:45Z</time>
<desc>lat.=21.092148, lon.=106.492981, Alt.=11.085823m. Speed=41.939999m/h.</desc>
<speed>11.650000</speed>
</trkpt>
<trkpt lat="21.091749" lon="106.493462">
<ele>8.1</ele>
<time>2011-04-30T01:05:50Z</time>
<desc>lat.=21.091749, lon.=106.493462, Alt.=9.706184m. Speed=50.292000m/h.</desc>
<speed>13.970000</speed>
</trkpt>
<trkpt lat="21.089182" lon="106.495201">
<ele>5.3</ele>
<time>2011-04-30T01:06:25Z</time>
<desc>lat.=21.089182, lon.=106.495201, Alt.=0.522866m. Speed=41.256001m/h.</desc>
<speed>11.460000</speed>
</trkpt>
<trkpt lat="21.086901" lon="106.497086">
<ele>7.7</ele>
<time>2011-04-30T01:06:55Z</time>
<desc>lat.=21.086901, lon.=106.497086, Alt.=-7.387760m. Speed=43.344002m/h.</desc>
<speed>12.040000</speed>
</trkpt>
<trkpt lat="21.086498" lon="106.498215">
<ele>3.8</ele>
<time>2011-04-30T01:07:05Z</time>
<desc>lat.=21.086498, lon.=106.498215, Alt.=-8.199104m. Speed=41.436001m/h.</desc>
<speed>11.510000</speed>
</trkpt>
<trkpt lat="21.086370" lon="106.505188">
<ele>5.0</ele>
<time>2011-04-30T01:08:05Z</time>
<desc>lat.=21.086370, lon.=106.505188, Alt.=-6.563663m. Speed=60.911999m/h.</desc>
<speed>16.920000</speed>
</trkpt>
<trkpt lat="21.088797" lon="106.517220">
<ele>3.3</ele>
<time>2011-04-30T01:09:10Z</time>
<desc>lat.=21.088797, lon.=106.517220, Alt.=-11.767220m. Speed=59.976002m/h.</desc>
<speed>16.660000</speed>
</trkpt>
<trkpt lat="21.088808" lon="106.517929">
<ele>3.6</ele>
<time>2011-04-30T01:09:15Z</time>
<desc>lat.=21.088808, lon.=106.517929, Alt.=-10.976692m. Speed=46.584000m/h.</desc>
<speed>12.940000</speed>
</trkpt>
<trkpt lat="21.088654" lon="106.518478">
<ele>5.5</ele>
<time>2011-04-30T01:09:20Z</time>
<desc>lat.=21.088654, lon.=106.518478, Alt.=-9.715706m. Speed=37.908001m/h.</desc>
<speed>10.530000</speed>
</trkpt>
<trkpt lat="21.087801" lon="106.520142">
<ele>6.1</ele>
<time>2011-04-30T01:10:50Z</time>
<desc>lat.=21.087801, lon.=106.520142, Alt.=-1.765580m. Speed=13.176000m/h.</desc>
<speed>3.660000</speed>
</trkpt>
<trkpt lat="21.084200" lon="106.525681">
<ele>8.8</ele>
<time>2011-04-30T01:11:35Z</time>
<desc>lat.=21.084200, lon.=106.525681, Alt.=-0.409916m. Speed=71.748001m/h.</desc>
<speed>19.930000</speed>
</trkpt>
<trkpt lat="21.083498" lon="106.526283">
<ele>13.9</ele>
<time>2011-04-30T01:11:40Z</time>
<desc>lat.=21.083498, lon.=106.526283, Alt.=0.428189m. Speed=67.248001m/h.</desc>
<speed>18.680000</speed>
</trkpt>
<trkpt lat="21.074329" lon="106.529785">
<ele>4.1</ele>
<time>2011-04-30T01:12:40Z</time>
<desc>lat.=21.074329, lon.=106.529785, Alt.=-14.519905m. Speed=47.484001m/h.</desc>
<speed>13.190000</speed>
</trkpt>
<trkpt lat="21.073620" lon="106.530304">
<ele>6.2</ele>
<time>2011-04-30T01:12:50Z</time>
<desc>lat.=21.073620, lon.=106.530304, Alt.=-15.490364m. Speed=31.176001m/h.</desc>
<speed>8.660000</speed>
</trkpt>
<trkpt lat="21.073458" lon="106.531258">
<ele>7.4</ele>
<time>2011-04-30T01:13:00Z</time>
<desc>lat.=21.073458, lon.=106.531258, Alt.=-9.746712m. Speed=37.439999m/h.</desc>
<speed>10.400000</speed>
</trkpt>
<trkpt lat="21.073479" lon="106.532288">
<ele>10.6</ele>
<time>2011-04-30T01:13:10Z</time>
<desc>lat.=21.073479, lon.=106.532288, Alt.=-0.620095m. Speed=38.124001m/h.</desc>
<speed>10.590000</speed>
</trkpt>
<trkpt lat="21.074877" lon="106.540230">
<ele>5.4</ele>
<time>2011-04-30T01:14:15Z</time>
<desc>lat.=21.074877, lon.=106.540230, Alt.=-6.200748m. Speed=60.551998m/h.</desc>
<speed>16.819999</speed>
</trkpt>
<trkpt lat="21.074768" lon="106.541733">
<ele>6.0</ele>
<time>2011-04-30T01:14:25Z</time>
<desc>lat.=21.074768, lon.=106.541733, Alt.=-4.784122m. Speed=53.712002m/h.</desc>
<speed>14.920001</speed>
</trkpt>
<trkpt lat="21.072166" lon="106.551018">
<ele>5.2</ele>
<time>2011-04-30T01:15:30Z</time>
<desc>lat.=21.072166, lon.=106.551018, Alt.=6.050480m. Speed=56.304001m/h.</desc>
<speed>15.640000</speed>
</trkpt>
<trkpt lat="21.062273" lon="106.578697">
<ele>7.8</ele>
<time>2011-04-30T01:19:45Z</time>
<desc>lat.=21.062273, lon.=106.578697, Alt.=11.095345m. Speed=64.620003m/h.</desc>
<speed>17.950001</speed>
</trkpt>
<trkpt lat="21.060930" lon="106.585114">
<ele>6.3</ele>
<time>2011-04-30T01:21:00Z</time>
<desc>lat.=21.060930, lon.=106.585114, Alt.=-1.529283m. Speed=35.532001m/h.</desc>
<speed>9.870000</speed>
</trkpt>
<trkpt lat="21.059662" lon="106.589592">
<ele>8.4</ele>
<time>2011-04-30T01:21:50Z</time>
<desc>lat.=21.059662, lon.=106.589592, Alt.=7.797794m. Speed=40.428001m/h.</desc>
<speed>11.230000</speed>
</trkpt>
<trkpt lat="21.059361" lon="106.591110">
<ele>8.7</ele>
<time>2011-04-30T01:22:30Z</time>
<desc>lat.=21.059361, lon.=106.591110, Alt.=17.585709m. Speed=2.016000m/h.</desc>
<speed>0.560000</speed>
</trkpt>
<trkpt lat="21.058151" lon="106.594009">
<ele>9.1</ele>
<time>2011-04-30T01:23:35Z</time>
<desc>lat.=21.058151, lon.=106.594009, Alt.=35.802277m. Speed=14.364000m/h.</desc>
<speed>3.990000</speed>
</trkpt>
<trkpt lat="21.056078" lon="106.600845">
<ele>7.3</ele>
<time>2011-04-30T01:27:00Z</time>
<desc>lat.=21.056078, lon.=106.600845, Alt.=33.267120m. Speed=6.264000m/h.</desc>
<speed>1.740000</speed>
</trkpt>
<trkpt lat="21.055630" lon="106.601776">
<ele>9.0</ele>
<time>2011-04-30T01:28:10Z</time>
<desc>lat.=21.055630, lon.=106.601776, Alt.=35.216339m. Speed=5.472000m/h.</desc>
<speed>1.520000</speed>
</trkpt>
<trkpt lat="21.054003" lon="106.607849">
<ele>8.3</ele>
<time>2011-04-30T01:30:20Z</time>
<desc>lat.=21.054003, lon.=106.607849, Alt.=-10.486946m. Speed=27.072001m/h.</desc>
<speed>7.520000</speed>
</trkpt>
<trkpt lat="21.053629" lon="106.608833">
<ele>11.6</ele>
<time>2011-04-30T01:30:35Z</time>
<desc>lat.=21.053629, lon.=106.608833, Alt.=3.560274m. Speed=24.228001m/h.</desc>
<speed>6.730000</speed>
</trkpt>
<trkpt lat="21.052904" lon="106.612518">
<ele>10.3</ele>
<time>2011-04-30T01:31:15Z</time>
<desc>lat.=21.052904, lon.=106.612518, Alt.=20.639908m. Speed=29.736000m/h.</desc>
<speed>8.260000</speed>
</trkpt>
<trkpt lat="21.051563" lon="106.618050">
<ele>7.6</ele>
<time>2011-04-30T01:32:20Z</time>
<desc>lat.=21.051563, lon.=106.618050, Alt.=-7.162296m. Speed=25.559999m/h.</desc>
<speed>7.100000</speed>
</trkpt>
<trkpt lat="21.051727" lon="106.621231">
<ele>10.6</ele>
<time>2011-04-30T01:33:00Z</time>
<desc>lat.=21.051727, lon.=106.621231, Alt.=5.195499m. Speed=1.224000m/h.</desc>
<speed>0.340000</speed>
</trkpt>
<trkpt lat="21.052628" lon="106.628281">
<ele>4.2</ele>
<time>2011-04-30T01:34:35Z</time>
<desc>lat.=21.052628, lon.=106.628281, Alt.=9.105598m. Speed=42.731998m/h.</desc>
<speed>11.870000</speed>
</trkpt>
<trkpt lat="21.053177" lon="106.634407">
<ele>8.9</ele>
<time>2011-04-30T01:35:40Z</time>
<desc>lat.=21.053177, lon.=106.634407, Alt.=-10.613411m. Speed=44.568001m/h.</desc>
<speed>12.380000</speed>
</trkpt>
<trkpt lat="21.054174" lon="106.640579">
<ele>12.9</ele>
<time>2011-04-30T01:36:40Z</time>
<desc>lat.=21.054174, lon.=106.640579, Alt.=4.220646m. Speed=34.164001m/h.</desc>
<speed>9.490000</speed>
</trkpt>
<trkpt lat="21.054296" lon="106.642052">
<ele>7.3</ele>
<time>2011-04-30T01:36:55Z</time>
<desc>lat.=21.054296, lon.=106.642052, Alt.=15.599251m. Speed=34.740002m/h.</desc>
<speed>9.650000</speed>
</trkpt>
<trkpt lat="21.052717" lon="106.649971">
<ele>8.6</ele>
<time>2011-04-30T01:38:00Z</time>
<desc>lat.=21.052717, lon.=106.649971, Alt.=7.617496m. Speed=48.096001m/h.</desc>
<speed>13.360000</speed>
</trkpt>
<trkpt lat="21.052086" lon="106.655121">
<ele>7.6</ele>
<time>2011-04-30T01:38:35Z</time>
<desc>lat.=21.052086, lon.=106.655121, Alt.=-5.254704m. Speed=56.231998m/h.</desc>
<speed>15.620000</speed>
</trkpt>
<trkpt lat="21.052013" lon="106.655899">
<ele>7.6</ele>
<time>2011-04-30T01:38:40Z</time>
<desc>lat.=21.052013, lon.=106.655899, Alt.=-6.074894m. Speed=58.608002m/h.</desc>
<speed>16.280000</speed>
</trkpt>
<trkpt lat="21.052240" lon="106.660561">
<ele>5.4</ele>
<time>2011-04-30T01:39:20Z</time>
<desc>lat.=21.052240, lon.=106.660561, Alt.=15.053841m. Speed=46.980000m/h.</desc>
<speed>13.050000</speed>
</trkpt>
<trkpt lat="21.051325" lon="106.672508">
<ele>9.3</ele>
<time>2011-04-30T01:40:45Z</time>
<desc>lat.=21.051325, lon.=106.672508, Alt.=-11.048958m. Speed=46.080002m/h.</desc>
<speed>12.800001</speed>
</trkpt>
<trkpt lat="21.050928" lon="106.673714">
<ele>6.9</ele>
<time>2011-04-30T01:40:55Z</time>
<desc>lat.=21.050928, lon.=106.673714, Alt.=-11.804085m. Speed=47.700001m/h.</desc>
<speed>13.250000</speed>
</trkpt>
<trkpt lat="21.048664" lon="106.677773">
<ele>8.8</ele>
<time>2011-04-30T01:41:40Z</time>
<desc>lat.=21.048664, lon.=106.677773, Alt.=0.871071m. Speed=34.812000m/h.</desc>
<speed>9.670000</speed>
</trkpt>
<trkpt lat="21.048307" lon="106.678680">
<ele>8.7</ele>
<time>2011-04-30T01:41:50Z</time>
<desc>lat.=21.048307, lon.=106.678680, Alt.=2.796785m. Speed=36.720001m/h.</desc>
<speed>10.200000</speed>
</trkpt>
<trkpt lat="21.044434" lon="106.705650">
<ele>8.8</ele>
<time>2011-04-30T01:45:25Z</time>
<desc>lat.=21.044434, lon.=106.705650, Alt.=-3.044527m. Speed=67.968002m/h.</desc>
<speed>18.880001</speed>
</trkpt>
<trkpt lat="21.042360" lon="106.714035">
<ele>9.5</ele>
<time>2011-04-30T01:46:30Z</time>
<desc>lat.=21.042360, lon.=106.714035, Alt.=-6.846867m. Speed=25.704000m/h.</desc>
<speed>7.140000</speed>
</trkpt>
<trkpt lat="21.040695" lon="106.722702">
<ele>6.9</ele>
<time>2011-04-30T01:47:45Z</time>
<desc>lat.=21.040695, lon.=106.722702, Alt.=-15.016975m. Speed=44.675999m/h.</desc>
<speed>12.410000</speed>
</trkpt>
<trkpt lat="21.038363" lon="106.731293">
<ele>10.5</ele>
<time>2011-04-30T01:49:10Z</time>
<desc>lat.=21.038363, lon.=106.731293, Alt.=-3.596163m. Speed=25.667999m/h.</desc>
<speed>7.130000</speed>
</trkpt>
<trkpt lat="21.037401" lon="106.735382">
<ele>9.2</ele>
<time>2011-04-30T01:49:50Z</time>
<desc>lat.=21.037401, lon.=106.735382, Alt.=-10.786018m. Speed=38.304001m/h.</desc>
<speed>10.640000</speed>
</trkpt>
<trkpt lat="21.037092" lon="106.736382">
<ele>8.4</ele>
<time>2011-04-30T01:50:00Z</time>
<desc>lat.=21.037092, lon.=106.736382, Alt.=-12.825081m. Speed=40.175999m/h.</desc>
<speed>11.160000</speed>
</trkpt>
<trkpt lat="21.036146" lon="106.737518">
<ele>6.1</ele>
<time>2011-04-30T01:50:20Z</time>
<desc>lat.=21.036146, lon.=106.737518, Alt.=-16.122818m. Speed=19.080000m/h.</desc>
<speed>5.300000</speed>
</trkpt>
<trkpt lat="21.035614" lon="106.738426">
<ele>7.6</ele>
<time>2011-04-30T01:50:35Z</time>
<desc>lat.=21.035614, lon.=106.738426, Alt.=-16.033951m. Speed=24.660000m/h.</desc>
<speed>6.850000</speed>
</trkpt>
<trkpt lat="21.035545" lon="106.738808">
<ele>8.1</ele>
<time>2011-04-30T01:50:55Z</time>
<desc>lat.=21.035545, lon.=106.738808, Alt.=-5.773746m. Speed=14.580000m/h.</desc>
<speed>4.050000</speed>
</trkpt>
<trkpt lat="21.035261" lon="106.745369">
<ele>7.8</ele>
<time>2011-04-30T01:52:10Z</time>
<desc>lat.=21.035261, lon.=106.745369, Alt.=4.116398m. Speed=35.928001m/h.</desc>
<speed>9.980000</speed>
</trkpt>
<trkpt lat="21.034838" lon="106.748909">
<ele>8.3</ele>
<time>2011-04-30T01:53:20Z</time>
<desc>lat.=21.034838, lon.=106.748909, Alt.=22.724380m. Speed=18.360001m/h.</desc>
<speed>5.100000</speed>
</trkpt>
<trkpt lat="21.034409" lon="106.751152">
<ele>7.1</ele>
<time>2011-04-30T01:53:55Z</time>
<desc>lat.=21.034409, lon.=106.751152, Alt.=22.114517m. Speed=5.976000m/h.</desc>
<speed>1.660000</speed>
</trkpt>
<trkpt lat="21.034153" lon="106.755569">
<ele>8.1</ele>
<time>2011-04-30T01:55:10Z</time>
<desc>lat.=21.034153, lon.=106.755569, Alt.=7.745548m. Speed=51.624001m/h.</desc>
<speed>14.340000</speed>
</trkpt>
<trkpt lat="21.033342" lon="106.762131">
<ele>13.6</ele>
<time>2011-04-30T01:56:10Z</time>
<desc>lat.=21.033342, lon.=106.762131, Alt.=31.619400m. Speed=27.035999m/h.</desc>
<speed>7.510000</speed>
</trkpt>
<trkpt lat="21.033432" lon="106.763611">
<ele>12.0</ele>
<time>2011-04-30T01:56:25Z</time>
<desc>lat.=21.033432, lon.=106.763611, Alt.=49.026886m. Speed=28.296000m/h.</desc>
<speed>7.860000</speed>
</trkpt>
<trkpt lat="21.034512" lon="106.769073">
<ele>13.9</ele>
<time>2011-04-30T01:58:00Z</time>
<desc>lat.=21.034512, lon.=106.769073, Alt.=45.679230m. Speed=1.764000m/h.</desc>
<speed>0.490000</speed>
</trkpt>
<trkpt lat="21.034323" lon="106.771317">
<ele>15.2</ele>
<time>2011-04-30T01:58:45Z</time>
<desc>lat.=21.034323, lon.=106.771317, Alt.=32.794464m. Speed=25.704000m/h.</desc>
<speed>7.140000</speed>
</trkpt>
<trkpt lat="21.034271" lon="106.774826">
<ele>13.3</ele>
<time>2011-04-30T01:59:40Z</time>
<desc>lat.=21.034271, lon.=106.774826, Alt.=28.382584m. Speed=22.032000m/h.</desc>
<speed>6.120000</speed>
</trkpt>
<trkpt lat="21.033901" lon="106.776421">
<ele>11.0</ele>
<time>2011-04-30T02:00:05Z</time>
<desc>lat.=21.033901, lon.=106.776421, Alt.=24.279068m. Speed=19.799999m/h.</desc>
<speed>5.500000</speed>
</trkpt>
<trkpt lat="21.033810" lon="106.777977">
<ele>14.0</ele>
<time>2011-04-30T02:00:25Z</time>
<desc>lat.=21.033810, lon.=106.777977, Alt.=30.528091m. Speed=28.728001m/h.</desc>
<speed>7.980000</speed>
</trkpt>
<trkpt lat="21.036022" lon="106.782646">
<ele>15.0</ele>
<time>2011-04-30T02:01:40Z</time>
<desc>lat.=21.036022, lon.=106.782646, Alt.=60.964386m. Speed=16.632000m/h.</desc>
<speed>4.620000</speed>
</trkpt>
<trkpt lat="21.036125" lon="106.783043">
<ele>14.3</ele>
<time>2011-04-30T02:01:45Z</time>
<desc>lat.=21.036125, lon.=106.783043, Alt.=63.394073m. Speed=30.312000m/h.</desc>
<speed>8.420000</speed>
</trkpt>
<trkpt lat="21.035934" lon="106.784019">
<ele>8.6</ele>
<time>2011-04-30T02:01:55Z</time>
<desc>lat.=21.035934, lon.=106.784019, Alt.=68.803772m. Speed=33.840000m/h.</desc>
<speed>9.400000</speed>
</trkpt>
<trkpt lat="21.034962" lon="106.785896">
<ele>16.0</ele>
<time>2011-04-30T02:02:20Z</time>
<desc>lat.=21.034962, lon.=106.785896, Alt.=64.788147m. Speed=26.568001m/h.</desc>
<speed>7.380000</speed>
</trkpt>
<trkpt lat="21.034601" lon="106.787468">
<ele>27.2</ele>
<time>2011-04-30T02:02:45Z</time>
<desc>lat.=21.034601, lon.=106.787468, Alt.=76.381897m. Speed=30.996000m/h.</desc>
<speed>8.610000</speed>
</trkpt>
<trkpt lat="21.033966" lon="106.788261">
<ele>17.7</ele>
<time>2011-04-30T02:02:55Z</time>
<desc>lat.=21.033966, lon.=106.788261, Alt.=77.774475m. Speed=35.532001m/h.</desc>
<speed>9.870000</speed>
</trkpt>
<trkpt lat="21.032106" lon="106.789970">
<ele>12.6</ele>
<time>2011-04-30T02:03:25Z</time>
<desc>lat.=21.032106, lon.=106.789970, Alt.=58.575714m. Speed=12.528000m/h.</desc>
<speed>3.480000</speed>
</trkpt>
<trkpt lat="21.031397" lon="106.793259">
<ele>13.0</ele>
<time>2011-04-30T02:04:20Z</time>
<desc>lat.=21.031397, lon.=106.793259, Alt.=50.524933m. Speed=20.340000m/h.</desc>
<speed>5.650000</speed>
</trkpt>
<trkpt lat="21.030939" lon="106.794540">
<ele>13.9</ele>
<time>2011-04-30T02:04:35Z</time>
<desc>lat.=21.030939, lon.=106.794540, Alt.=32.664581m. Speed=34.992001m/h.</desc>
<speed>9.720000</speed>
</trkpt>
<trkpt lat="21.028126" lon="106.800377">
<ele>9.2</ele>
<time>2011-04-30T02:05:50Z</time>
<desc>lat.=21.028126, lon.=106.800377, Alt.=3.477327m. Speed=14.076000m/h.</desc>
<speed>3.910000</speed>
</trkpt>
<trkpt lat="21.023647" lon="106.809074">
<ele>12.5</ele>
<time>2011-04-30T02:08:00Z</time>
<desc>lat.=21.023647, lon.=106.809074, Alt.=16.781509m. Speed=39.672001m/h.</desc>
<speed>11.020000</speed>
</trkpt>
<trkpt lat="21.020081" lon="106.813385">
<ele>12.5</ele>
<time>2011-04-30T02:09:10Z</time>
<desc>lat.=21.020081, lon.=106.813385, Alt.=14.909309m. Speed=25.020000m/h.</desc>
<speed>6.950000</speed>
</trkpt>
<trkpt lat="21.018015" lon="106.817482">
<ele>10.4</ele>
<time>2011-04-30T02:09:45Z</time>
<desc>lat.=21.018015, lon.=106.817482, Alt.=20.541275m. Speed=48.060001m/h.</desc>
<speed>13.350000</speed>
</trkpt>
<trkpt lat="21.016113" lon="106.822227">
<ele>12.4</ele>
<time>2011-04-30T02:10:30Z</time>
<desc>lat.=21.016113, lon.=106.822227, Alt.=11.519417m. Speed=33.119999m/h.</desc>
<speed>9.200000</speed>
</trkpt>
<trkpt lat="21.014503" lon="106.828064">
<ele>11.8</ele>
<time>2011-04-30T02:11:25Z</time>
<desc>lat.=21.014503, lon.=106.828064, Alt.=-3.945955m. Speed=29.664000m/h.</desc>
<speed>8.240000</speed>
</trkpt>
<trkpt lat="21.014124" lon="106.828987">
<ele>12.2</ele>
<time>2011-04-30T02:11:45Z</time>
<desc>lat.=21.014124, lon.=106.828987, Alt.=6.329533m. Speed=12.636000m/h.</desc>
<speed>3.510000</speed>
</trkpt>
<trkpt lat="21.012213" lon="106.831062">
<ele>10.5</ele>
<time>2011-04-30T02:12:20Z</time>
<desc>lat.=21.012213, lon.=106.831062, Alt.=1.739823m. Speed=46.728001m/h.</desc>
<speed>12.980000</speed>
</trkpt>
<trkpt lat="21.011242" lon="106.833801">
<ele>10.8</ele>
<time>2011-04-30T02:12:40Z</time>
<desc>lat.=21.011242, lon.=106.833801, Alt.=5.505924m. Speed=50.903999m/h.</desc>
<speed>14.140000</speed>
</trkpt>
<trkpt lat="21.010435" lon="106.834610">
<ele>11.1</ele>
<time>2011-04-30T02:12:50Z</time>
<desc>lat.=21.010435, lon.=106.834610, Alt.=9.248665m. Speed=35.172001m/h.</desc>
<speed>9.770000</speed>
</trkpt>
<trkpt lat="21.008232" lon="106.836052">
<ele>8.2</ele>
<time>2011-04-30T02:13:15Z</time>
<desc>lat.=21.008232, lon.=106.836052, Alt.=4.157536m. Speed=38.844002m/h.</desc>
<speed>10.790000</speed>
</trkpt>
<trkpt lat="21.007898" lon="106.836487">
<ele>8.9</ele>
<time>2011-04-30T02:13:20Z</time>
<desc>lat.=21.007898, lon.=106.836487, Alt.=3.011080m. Speed=39.383999m/h.</desc>
<speed>10.940000</speed>
</trkpt>
<trkpt lat="21.006599" lon="106.840424">
<ele>6.9</ele>
<time>2011-04-30T02:14:00Z</time>
<desc>lat.=21.006599, lon.=106.840424, Alt.=5.357609m. Speed=38.807999m/h.</desc>
<speed>10.780000</speed>
</trkpt>
<trkpt lat="21.005650" lon="106.845459">
<ele>11.5</ele>
<time>2011-04-30T02:14:55Z</time>
<desc>lat.=21.005650, lon.=106.845459, Alt.=-5.205753m. Speed=22.752001m/h.</desc>
<speed>6.320000</speed>
</trkpt>
<trkpt lat="21.004501" lon="106.850380">
<ele>11.9</ele>
<time>2011-04-30T02:16:00Z</time>
<desc>lat.=21.004501, lon.=106.850380, Alt.=23.427505m. Speed=24.695999m/h.</desc>
<speed>6.860000</speed>
</trkpt>
<trkpt lat="21.003933" lon="106.853874">
<ele>11.2</ele>
<time>2011-04-30T02:18:40Z</time>
<desc>lat.=21.003933, lon.=106.853874, Alt.=22.356705m. Speed=18.000000m/h.</desc>
<speed>5.000000</speed>
</trkpt>
<trkpt lat="21.005810" lon="106.857018">
<ele>12.9</ele>
<time>2011-04-30T02:19:25Z</time>
<desc>lat.=21.005810, lon.=106.857018, Alt.=8.937141m. Speed=33.228001m/h.</desc>
<speed>9.230000</speed>
</trkpt>
<trkpt lat="21.009983" lon="106.863113">
<ele>17.6</ele>
<time>2011-04-30T02:20:45Z</time>
<desc>lat.=21.009983, lon.=106.863113, Alt.=-13.463753m. Speed=41.976002m/h.</desc>
<speed>11.660000</speed>
</trkpt>
<trkpt lat="21.010616" lon="106.864479">
<ele>21.8</ele>
<time>2011-04-30T02:21:00Z</time>
<desc>lat.=21.010616, lon.=106.864479, Alt.=-10.307014m. Speed=35.243999m/h.</desc>
<speed>9.790000</speed>
</trkpt>
<trkpt lat="21.010857" lon="106.865562">
<ele>18.6</ele>
<time>2011-04-30T02:21:10Z</time>
<desc>lat.=21.010857, lon.=106.865562, Alt.=-8.969612m. Speed=36.180000m/h.</desc>
<speed>10.050000</speed>
</trkpt>
<trkpt lat="21.009296" lon="106.873199">
<ele>15.3</ele>
<time>2011-04-30T02:22:10Z</time>
<desc>lat.=21.009296, lon.=106.873199, Alt.=-0.756630m. Speed=52.416000m/h.</desc>
<speed>14.560000</speed>
</trkpt>
<trkpt lat="21.007702" lon="106.877426">
<ele>16.0</ele>
<time>2011-04-30T02:22:40Z</time>
<desc>lat.=21.007702, lon.=106.877426, Alt.=-0.320629m. Speed=55.584000m/h.</desc>
<speed>15.440000</speed>
</trkpt>
<trkpt lat="21.006474" lon="106.879044">
<ele>15.0</ele>
<time>2011-04-30T02:22:55Z</time>
<desc>lat.=21.006474, lon.=106.879044, Alt.=0.025124m. Speed=55.223999m/h.</desc>
<speed>15.340000</speed>
</trkpt>
<trkpt lat="21.005739" lon="106.880280">
<ele>15.8</ele>
<time>2011-04-30T02:23:05Z</time>
<desc>lat.=21.005739, lon.=106.880280, Alt.=-2.115755m. Speed=47.916000m/h.</desc>
<speed>13.310000</speed>
</trkpt>
<trkpt lat="21.004929" lon="106.882706">
<ele>15.8</ele>
<time>2011-04-30T02:23:25Z</time>
<desc>lat.=21.004929, lon.=106.882706, Alt.=-3.308870m. Speed=40.608002m/h.</desc>
<speed>11.280000</speed>
</trkpt>
<trkpt lat="21.004347" lon="106.883705">
<ele>10.1</ele>
<time>2011-04-30T02:23:35Z</time>
<desc>lat.=21.004347, lon.=106.883705, Alt.=-2.796663m. Speed=50.004002m/h.</desc>
<speed>13.890000</speed>
</trkpt>
<trkpt lat="21.002542" lon="106.884949">
<ele>10.6</ele>
<time>2011-04-30T02:23:50Z</time>
<desc>lat.=21.002542, lon.=106.884949, Alt.=-3.592440m. Speed=56.520000m/h.</desc>
<speed>15.700000</speed>
</trkpt>
<trkpt lat="21.001329" lon="106.885567">
<ele>8.7</ele>
<time>2011-04-30T02:24:10Z</time>
<desc>lat.=21.001329, lon.=106.885567, Alt.=0.469677m. Speed=8.172000m/h.</desc>
<speed>2.270000</speed>
</trkpt>
<trkpt lat="21.000134" lon="106.885857">
<ele>9.2</ele>
<time>2011-04-30T02:24:40Z</time>
<desc>lat.=21.000134, lon.=106.885857, Alt.=7.802677m. Speed=32.652000m/h.</desc>
<speed>9.070000</speed>
</trkpt>
<trkpt lat="20.999781" lon="106.886200">
<ele>9.4</ele>
<time>2011-04-30T02:24:45Z</time>
<desc>lat.=20.999781, lon.=106.886200, Alt.=9.294807m. Speed=34.776001m/h.</desc>
<speed>9.660000</speed>
</trkpt>
<trkpt lat="20.994526" lon="106.893593">
<ele>4.3</ele>
<time>2011-04-30T02:26:00Z</time>
<desc>lat.=20.994526, lon.=106.893593, Alt.=-1.883073m. Speed=47.916000m/h.</desc>
<speed>13.310000</speed>
</trkpt>
<trkpt lat="20.992617" lon="106.896042">
<ele>7.3</ele>
<time>2011-04-30T02:26:25Z</time>
<desc>lat.=20.992617, lon.=106.896042, Alt.=-7.245548m. Speed=47.627998m/h.</desc>
<speed>13.230000</speed>
</trkpt>
<trkpt lat="20.990404" lon="106.898338">
<ele>9.8</ele>
<time>2011-04-30T02:26:50Z</time>
<desc>lat.=20.990404, lon.=106.898338, Alt.=-11.663704m. Speed=37.080002m/h.</desc>
<speed>10.300001</speed>
</trkpt>
<trkpt lat="20.988207" lon="106.901871">
<ele>10.2</ele>
<time>2011-04-30T02:27:20Z</time>
<desc>lat.=20.988207, lon.=106.901871, Alt.=-18.511978m. Speed=45.216000m/h.</desc>
<speed>12.560000</speed>
</trkpt>
<trkpt lat="20.985029" lon="106.904961">
<ele>12.9</ele>
<time>2011-04-30T02:28:05Z</time>
<desc>lat.=20.985029, lon.=106.904961, Alt.=-16.149673m. Speed=38.195999m/h.</desc>
<speed>10.610000</speed>
</trkpt>
<trkpt lat="20.984232" lon="106.906456">
<ele>13.3</ele>
<time>2011-04-30T02:28:25Z</time>
<desc>lat.=20.984232, lon.=106.906456, Alt.=-14.039680m. Speed=30.420000m/h.</desc>
<speed>8.450000</speed>
</trkpt>
<trkpt lat="20.983891" lon="106.907928">
<ele>10.8</ele>
<time>2011-04-30T02:28:40Z</time>
<desc>lat.=20.983891, lon.=106.907928, Alt.=-10.811165m. Speed=36.000000m/h.</desc>
<speed>10.000000</speed>
</trkpt>
<trkpt lat="20.983812" lon="106.909470">
<ele>10.3</ele>
<time>2011-04-30T02:28:55Z</time>
<desc>lat.=20.983812, lon.=106.909470, Alt.=-10.830208m. Speed=44.316002m/h.</desc>
<speed>12.310001</speed>
</trkpt>
<trkpt lat="20.984106" lon="106.912521">
<ele>8.7</ele>
<time>2011-04-30T02:29:15Z</time>
<desc>lat.=20.984106, lon.=106.912521, Alt.=-11.249641m. Speed=63.540001m/h.</desc>
<speed>17.650000</speed>
</trkpt>
<trkpt lat="20.984034" lon="106.913994">
<ele>10.9</ele>
<time>2011-04-30T02:29:25Z</time>
<desc>lat.=20.984034, lon.=106.913994, Alt.=-10.786018m. Speed=51.264000m/h.</desc>
<speed>14.240000</speed>
</trkpt>
<trkpt lat="20.983662" lon="106.915283">
<ele>11.8</ele>
<time>2011-04-30T02:29:35Z</time>
<desc>lat.=20.983662, lon.=106.915283, Alt.=-11.912727m. Speed=49.391998m/h.</desc>
<speed>13.720000</speed>
</trkpt>
<trkpt lat="20.983011" lon="106.916496">
<ele>11.9</ele>
<time>2011-04-30T02:29:45Z</time>
<desc>lat.=20.983011, lon.=106.916496, Alt.=-12.740120m. Speed=51.228001m/h.</desc>
<speed>14.230000</speed>
</trkpt>
<trkpt lat="20.980356" lon="106.919716">
<ele>13.5</ele>
<time>2011-04-30T02:30:20Z</time>
<desc>lat.=20.980356, lon.=106.919716, Alt.=-13.912727m. Speed=44.604000m/h.</desc>
<speed>12.390000</speed>
</trkpt>
<trkpt lat="20.978210" lon="106.923706">
<ele>16.3</ele>
<time>2011-04-30T02:31:10Z</time>
<desc>lat.=20.978210, lon.=106.923706, Alt.=-22.223892m. Speed=38.015999m/h.</desc>
<speed>10.560000</speed>
</trkpt>
<trkpt lat="20.977331" lon="106.925064">
<ele>17.5</ele>
<time>2011-04-30T02:31:25Z</time>
<desc>lat.=20.977331, lon.=106.925064, Alt.=-20.922134m. Speed=37.584000m/h.</desc>
<speed>10.440000</speed>
</trkpt>
<trkpt lat="20.973444" lon="106.928551">
<ele>10.9</ele>
<time>2011-04-30T02:32:15Z</time>
<desc>lat.=20.973444, lon.=106.928551, Alt.=-4.812443m. Speed=57.023998m/h.</desc>
<speed>15.840000</speed>
</trkpt>
<trkpt lat="20.965570" lon="106.938736">
<ele>13.0</ele>
<time>2011-04-30T02:34:20Z</time>
<desc>lat.=20.965570, lon.=106.938736, Alt.=-1.402299m. Speed=7.308000m/h.</desc>
<speed>2.030000</speed>
</trkpt>
<trkpt lat="20.964521" lon="106.940315">
<ele>9.5</ele>
<time>2011-04-30T02:35:55Z</time>
<desc>lat.=20.964521, lon.=106.940315, Alt.=4.496037m. Speed=0.936000m/h.</desc>
<speed>0.260000</speed>
</trkpt>
<trkpt lat="20.963707" lon="106.942810">
<ele>8.7</ele>
<time>2011-04-30T02:36:50Z</time>
<desc>lat.=20.963707, lon.=106.942810, Alt.=-2.468294m. Speed=38.916000m/h.</desc>
<speed>10.810000</speed>
</trkpt>
<trkpt lat="20.963058" lon="106.943817">
<ele>7.5</ele>
<time>2011-04-30T02:37:00Z</time>
<desc>lat.=20.963058, lon.=106.943817, Alt.=-2.066133m. Speed=43.740002m/h.</desc>
<speed>12.150000</speed>
</trkpt>
<trkpt lat="20.961123" lon="106.945831">
<ele>7.5</ele>
<time>2011-04-30T02:37:30Z</time>
<desc>lat.=20.961123, lon.=106.945831, Alt.=-4.050358m. Speed=34.848000m/h.</desc>
<speed>9.680000</speed>
</trkpt>
<trkpt lat="20.959484" lon="106.946800">
<ele>7.1</ele>
<time>2011-04-30T02:37:50Z</time>
<desc>lat.=20.959484, lon.=106.946800, Alt.=-2.225069m. Speed=31.860001m/h.</desc>
<speed>8.850000</speed>
</trkpt>
<trkpt lat="20.958481" lon="106.947670">
<ele>6.6</ele>
<time>2011-04-30T02:38:05Z</time>
<desc>lat.=20.958481, lon.=106.947670, Alt.=-5.935978m. Speed=32.832001m/h.</desc>
<speed>9.120000</speed>
</trkpt>
<trkpt lat="20.957912" lon="106.948891">
<ele>7.3</ele>
<time>2011-04-30T02:38:20Z</time>
<desc>lat.=20.957912, lon.=106.948891, Alt.=-4.111759m. Speed=35.784000m/h.</desc>
<speed>9.940000</speed>
</trkpt>
<trkpt lat="20.957712" lon="106.952332">
<ele>8.3</ele>
<time>2011-04-30T02:38:55Z</time>
<desc>lat.=20.957712, lon.=106.952332, Alt.=-10.200081m. Speed=41.256001m/h.</desc>
<speed>11.460000</speed>
</trkpt>
<trkpt lat="20.956343" lon="106.959076">
<ele>10.8</ele>
<time>2011-04-30T02:39:50Z</time>
<desc>lat.=20.956343, lon.=106.959076, Alt.=-15.524300m. Speed=47.484001m/h.</desc>
<speed>13.190000</speed>
</trkpt>
<trkpt lat="20.956324" lon="106.959763">
<ele>8.9</ele>
<time>2011-04-30T02:39:55Z</time>
<desc>lat.=20.956324, lon.=106.959763, Alt.=-17.336197m. Speed=50.147999m/h.</desc>
<speed>13.930000</speed>
</trkpt>
<trkpt lat="20.956892" lon="106.962570">
<ele>6.0</ele>
<time>2011-04-30T02:40:20Z</time>
<desc>lat.=20.956892, lon.=106.962570, Alt.=-24.595963m. Speed=40.355999m/h.</desc>
<speed>11.210000</speed>
</trkpt>
<trkpt lat="20.956850" lon="106.963753">
<ele>8.5</ele>
<time>2011-04-30T02:40:30Z</time>
<desc>lat.=20.956850, lon.=106.963753, Alt.=-21.011490m. Speed=43.271999m/h.</desc>
<speed>12.020000</speed>
</trkpt>
<trkpt lat="20.954844" lon="106.971481">
<ele>11.0</ele>
<time>2011-04-30T02:41:30Z</time>
<desc>lat.=20.954844, lon.=106.971481, Alt.=-6.498966m. Speed=45.360001m/h.</desc>
<speed>12.600000</speed>
</trkpt>
<trkpt lat="20.955397" lon="106.977844">
<ele>6.2</ele>
<time>2011-04-30T02:42:20Z</time>
<desc>lat.=20.955397, lon.=106.977844, Alt.=-13.438362m. Speed=38.340000m/h.</desc>
<speed>10.650000</speed>
</trkpt>
<trkpt lat="20.954908" lon="106.981613">
<ele>6.5</ele>
<time>2011-04-30T02:43:05Z</time>
<desc>lat.=20.954908, lon.=106.981613, Alt.=-17.520279m. Speed=28.656000m/h.</desc>
<speed>7.960000</speed>
</trkpt>
<trkpt lat="20.956097" lon="106.983604">
<ele>6.8</ele>
<time>2011-04-30T02:43:30Z</time>
<desc>lat.=20.956097, lon.=106.983604, Alt.=-10.624641m. Speed=35.459999m/h.</desc>
<speed>9.850000</speed>
</trkpt>
<trkpt lat="20.958555" lon="106.986420">
<ele>4.1</ele>
<time>2011-04-30T02:44:05Z</time>
<desc>lat.=20.958555, lon.=106.986420, Alt.=-0.432118m. Speed=38.807999m/h.</desc>
<speed>10.780000</speed>
</trkpt>
<trkpt lat="20.960337" lon="106.989059">
<ele>3.7</ele>
<time>2011-04-30T02:44:40Z</time>
<desc>lat.=20.960337, lon.=106.989059, Alt.=-7.896915m. Speed=43.164001m/h.</desc>
<speed>11.990000</speed>
</trkpt>
<trkpt lat="20.961149" lon="106.989975">
<ele>3.2</ele>
<time>2011-04-30T02:44:50Z</time>
<desc>lat.=20.961149, lon.=106.989975, Alt.=-9.086311m. Speed=52.596001m/h.</desc>
<speed>14.610000</speed>
</trkpt>
<trkpt lat="20.962368" lon="106.990936">
<ele>3.0</ele>
<time>2011-04-30T02:45:00Z</time>
<desc>lat.=20.962368, lon.=106.990936, Alt.=-8.524544m. Speed=60.624001m/h.</desc>
<speed>16.840000</speed>
</trkpt>
<trkpt lat="20.966055" lon="106.992409">
<ele>6.6</ele>
<time>2011-04-30T02:45:25Z</time>
<desc>lat.=20.966055, lon.=106.992409, Alt.=-15.221809m. Speed=56.448002m/h.</desc>
<speed>15.680001</speed>
</trkpt>
<trkpt lat="20.966677" lon="106.992851">
<ele>5.5</ele>
<time>2011-04-30T02:45:30Z</time>
<desc>lat.=20.966677, lon.=106.992851, Alt.=-15.035042m. Speed=59.939999m/h.</desc>
<speed>16.650000</speed>
</trkpt>
<trkpt lat="20.967173" lon="106.993477">
<ele>6.7</ele>
<time>2011-04-30T02:45:35Z</time>
<desc>lat.=20.967173, lon.=106.993477, Alt.=-14.760384m. Speed=60.119999m/h.</desc>
<speed>16.700000</speed>
</trkpt>
<trkpt lat="20.967905" lon="106.994919">
<ele>5.9</ele>
<time>2011-04-30T02:45:45Z</time>
<desc>lat.=20.967905, lon.=106.994919, Alt.=-15.077766m. Speed=59.652000m/h.</desc>
<speed>16.570000</speed>
</trkpt>
<trkpt lat="20.968449" lon="106.995468">
<ele>6.4</ele>
<time>2011-04-30T02:45:50Z</time>
<desc>lat.=20.968449, lon.=106.995468, Alt.=-14.714241m. Speed=55.043999m/h.</desc>
<speed>15.290000</speed>
</trkpt>
<trkpt lat="20.970535" lon="106.995865">
<ele>5.5</ele>
<time>2011-04-30T02:46:05Z</time>
<desc>lat.=20.970535, lon.=106.995865, Alt.=-15.447639m. Speed=56.124001m/h.</desc>
<speed>15.590000</speed>
</trkpt>
<trkpt lat="20.971033" lon="106.996330">
<ele>4.5</ele>
<time>2011-04-30T02:46:10Z</time>
<desc>lat.=20.971033, lon.=106.996330, Alt.=-16.034439m. Speed=51.875999m/h.</desc>
<speed>14.410000</speed>
</trkpt>
<trkpt lat="20.971369" lon="106.997658">
<ele>5.0</ele>
<time>2011-04-30T02:46:20Z</time>
<desc>lat.=20.971369, lon.=106.997658, Alt.=-16.406509m. Speed=52.307999m/h.</desc>
<speed>14.530000</speed>
</trkpt>
<trkpt lat="20.972260" lon="107.007027">
<ele>6.8</ele>
<time>2011-04-30T02:47:15Z</time>
<desc>lat.=20.972260, lon.=107.007027, Alt.=-14.237434m. Speed=67.391998m/h.</desc>
<speed>18.720000</speed>
</trkpt>
<trkpt lat="20.972044" lon="107.008797">
<ele>5.3</ele>
<time>2011-04-30T02:47:25Z</time>
<desc>lat.=20.972044, lon.=107.008797, Alt.=-16.365494m. Speed=67.463997m/h.</desc>
<speed>18.739999</speed>
</trkpt>
<trkpt lat="20.971556" lon="107.011070">
<ele>5.7</ele>
<time>2011-04-30T02:47:40Z</time>
<desc>lat.=20.971556, lon.=107.011070, Alt.=-16.831802m. Speed=47.375999m/h.</desc>
<speed>13.160000</speed>
</trkpt>
<trkpt lat="20.971523" lon="107.012375">
<ele>5.6</ele>
<time>2011-04-30T02:47:50Z</time>
<desc>lat.=20.971523, lon.=107.012375, Alt.=-20.385513m. Speed=47.051998m/h.</desc>
<speed>13.069999</speed>
</trkpt>
<trkpt lat="20.972267" lon="107.014442">
<ele>5.0</ele>
<time>2011-04-30T02:48:20Z</time>
<desc>lat.=20.972267, lon.=107.014442, Alt.=-13.462776m. Speed=7.884000m/h.</desc>
<speed>2.190000</speed>
</trkpt>
<trkpt lat="20.975739" lon="107.022057">
<ele>6.9</ele>
<time>2011-04-30T02:51:00Z</time>
<desc>lat.=20.975739, lon.=107.022057, Alt.=-1.897904m. Speed=45.180000m/h.</desc>
<speed>12.550000</speed>
</trkpt>
<trkpt lat="20.976206" lon="107.023453">
<ele>7.8</ele>
<time>2011-04-30T02:51:25Z</time>
<desc>lat.=20.976206, lon.=107.023453, Alt.=2.181063m. Speed=33.768002m/h.</desc>
<speed>9.380000</speed>
</trkpt>
<trkpt lat="20.976044" lon="107.024612">
<ele>9.2</ele>
<time>2011-04-30T02:51:35Z</time>
<desc>lat.=20.976044, lon.=107.024612, Alt.=-0.313389m. Speed=48.852001m/h.</desc>
<speed>13.570000</speed>
</trkpt>
<trkpt lat="20.975140" lon="107.026947">
<ele>7.9</ele>
<time>2011-04-30T02:51:55Z</time>
<desc>lat.=20.975140, lon.=107.026947, Alt.=0.510506m. Speed=46.728001m/h.</desc>
<speed>12.980000</speed>
</trkpt>
<trkpt lat="20.973120" lon="107.028740">
<ele>6.7</ele>
<time>2011-04-30T02:52:15Z</time>
<desc>lat.=20.973120, lon.=107.028740, Alt.=0.843377m. Speed=53.891998m/h.</desc>
<speed>14.970000</speed>
</trkpt>
<trkpt lat="20.971302" lon="107.031151">
<ele>5.8</ele>
<time>2011-04-30T02:52:35Z</time>
<desc>lat.=20.971302, lon.=107.031151, Alt.=-2.084627m. Speed=58.068001m/h.</desc>
<speed>16.130000</speed>
</trkpt>
<trkpt lat="20.970556" lon="107.032555">
<ele>10.8</ele>
<time>2011-04-30T02:52:45Z</time>
<desc>lat.=20.970556, lon.=107.032555, Alt.=-5.540104m. Speed=61.667999m/h.</desc>
<speed>17.130000</speed>
</trkpt>
<trkpt lat="20.970453" lon="107.033310">
<ele>14.0</ele>
<time>2011-04-30T02:52:50Z</time>
<desc>lat.=20.970453, lon.=107.033310, Alt.=-3.283907m. Speed=52.992001m/h.</desc>
<speed>14.720000</speed>
</trkpt>
<trkpt lat="20.970623" lon="107.034622">
<ele>14.2</ele>
<time>2011-04-30T02:53:00Z</time>
<desc>lat.=20.970623, lon.=107.034622, Alt.=-2.299776m. Speed=49.032001m/h.</desc>
<speed>13.620000</speed>
</trkpt>
<trkpt lat="20.970480" lon="107.037521">
<ele>3.9</ele>
<time>2011-04-30T02:53:20Z</time>
<desc>lat.=20.970480, lon.=107.037521, Alt.=-7.075748m. Speed=50.976002m/h.</desc>
<speed>14.160000</speed>
</trkpt>
<trkpt lat="20.971245" lon="107.046059">
<ele>5.6</ele>
<time>2011-04-30T02:54:20Z</time>
<desc>lat.=20.971245, lon.=107.046059, Alt.=-14.652718m. Speed=42.084000m/h.</desc>
<speed>11.690000</speed>
</trkpt>
<trkpt lat="20.970774" lon="107.048187">
<ele>8.3</ele>
<time>2011-04-30T02:55:10Z</time>
<desc>lat.=20.970774, lon.=107.048187, Alt.=-8.668587m. Speed=27.684000m/h.</desc>
<speed>7.690000</speed>
</trkpt>
<trkpt lat="20.970398" lon="107.049164">
<ele>7.2</ele>
<time>2011-04-30T02:55:20Z</time>
<desc>lat.=20.970398, lon.=107.049164, Alt.=-3.314058m. Speed=42.444000m/h.</desc>
<speed>11.790000</speed>
</trkpt>
<trkpt lat="20.969601" lon="107.050323">
<ele>8.2</ele>
<time>2011-04-30T02:55:30Z</time>
<desc>lat.=20.969601, lon.=107.050323, Alt.=-4.887394m. Speed=58.355999m/h.</desc>
<speed>16.210000</speed>
</trkpt>
<trkpt lat="20.967710" lon="107.052124">
<ele>11.7</ele>
<time>2011-04-30T02:55:45Z</time>
<desc>lat.=20.967710, lon.=107.052124, Alt.=0.921471m. Speed=68.183998m/h.</desc>
<speed>18.939999</speed>
</trkpt>
<trkpt lat="20.963432" lon="107.058044">
<ele>28.9</ele>
<time>2011-04-30T02:56:35Z</time>
<desc>lat.=20.963432, lon.=107.058044, Alt.=16.864517m. Speed=4.932000m/h.</desc>
<speed>1.370000</speed>
</trkpt>
<trkpt lat="20.963182" lon="107.058220">
<ele>32.9</ele>
<time>2011-04-30T03:04:20Z</time>
<desc>lat.=20.963182, lon.=107.058220, Alt.=18.982193m. Speed=0.576000m/h.</desc>
<speed>0.160000</speed>
</trkpt>
<trkpt lat="20.963377" lon="107.058083">
<ele>30.2</ele>
<time>2011-04-30T03:08:25Z</time>
<desc>lat.=20.963377, lon.=107.058083, Alt.=18.678482m. Speed=4.824000m/h.</desc>
<speed>1.340000</speed>
</trkpt>
<trkpt lat="20.963346" lon="107.058479">
<ele>29.5</ele>
<time>2011-04-30T03:09:05Z</time>
<desc>lat.=20.963346, lon.=107.058479, Alt.=24.505142m. Speed=0.684000m/h.</desc>
<speed>0.190000</speed>
</trkpt>
<trkpt lat="20.963522" lon="107.058563">
<ele>28.5</ele>
<time>2011-04-30T03:09:25Z</time>
<desc>lat.=20.963522, lon.=107.058563, Alt.=22.530533m. Speed=3.816000m/h.</desc>
<speed>1.060000</speed>
</trkpt>
<trkpt lat="20.963562" lon="107.058792">
<ele>27.5</ele>
<time>2011-04-30T03:09:40Z</time>
<desc>lat.=20.963562, lon.=107.058792, Alt.=24.394791m. Speed=5.364000m/h.</desc>
<speed>1.490000</speed>
</trkpt>
<trkpt lat="20.962984" lon="107.059624">
<ele>29.3</ele>
<time>2011-04-30T03:10:55Z</time>
<desc>lat.=20.962984, lon.=107.059624, Alt.=26.485611m. Speed=4.500000m/h.</desc>
<speed>1.250000</speed>
</trkpt>
<trkpt lat="20.962969" lon="107.060501">
<ele>30.7</ele>
<time>2011-04-30T03:12:00Z</time>
<desc>lat.=20.962969, lon.=107.060501, Alt.=40.045441m. Speed=4.464000m/h.</desc>
<speed>1.240000</speed>
</trkpt>
<trkpt lat="20.962564" lon="107.060669">
<ele>29.1</ele>
<time>2011-04-30T03:12:35Z</time>
<desc>lat.=20.962564, lon.=107.060669, Alt.=37.908722m. Speed=3.636000m/h.</desc>
<speed>1.010000</speed>
</trkpt>
<trkpt lat="20.961689" lon="107.060570">
<ele>37.2</ele>
<time>2011-04-30T03:13:40Z</time>
<desc>lat.=20.961689, lon.=107.060570, Alt.=40.110870m. Speed=4.680000m/h.</desc>
<speed>1.300000</speed>
</trkpt>
<trkpt lat="20.961439" lon="107.060677">
<ele>33.6</ele>
<time>2011-04-30T03:14:00Z</time>
<desc>lat.=20.961439, lon.=107.060677, Alt.=36.210480m. Speed=5.292000m/h.</desc>
<speed>1.470000</speed>
</trkpt>
<trkpt lat="20.961029" lon="107.060226">
<ele>25.9</ele>
<time>2011-04-30T03:16:20Z</time>
<desc>lat.=20.961029, lon.=107.060226, Alt.=31.611099m. Speed=0.000000m/h.</desc>
<speed>0.000000</speed>
</trkpt>
<trkpt lat="20.960831" lon="107.060364">
<ele>24.5</ele>
<time>2011-04-30T03:17:00Z</time>
<desc>lat.=20.960831, lon.=107.060364, Alt.=28.337173m. Speed=2.340000m/h.</desc>
<speed>0.650000</speed>
</trkpt>
<trkpt lat="20.960918" lon="107.060760">
<ele>22.9</ele>
<time>2011-04-30T03:17:25Z</time>
<desc>lat.=20.960918, lon.=107.060760, Alt.=30.106216m. Speed=4.932000m/h.</desc>
<speed>1.370000</speed>
</trkpt>
<trkpt lat="20.960627" lon="107.061172">
<ele>15.8</ele>
<time>2011-04-30T03:18:05Z</time>
<desc>lat.=20.960627, lon.=107.061172, Alt.=27.253189m. Speed=3.132000m/h.</desc>
<speed>0.870000</speed>
</trkpt>
<trkpt lat="20.960573" lon="107.061562">
<ele>13.6</ele>
<time>2011-04-30T03:18:30Z</time>
<desc>lat.=20.960573, lon.=107.061562, Alt.=24.275162m. Speed=5.508000m/h.</desc>
<speed>1.530000</speed>
</trkpt>
<trkpt lat="20.960863" lon="107.062149">
<ele>15.5</ele>
<time>2011-04-30T03:19:30Z</time>
<desc>lat.=20.960863, lon.=107.062149, Alt.=43.094269m. Speed=2.196000m/h.</desc>
<speed>0.610000</speed>
</trkpt>
<trkpt lat="20.960926" lon="107.062904">
<ele>8.3</ele>
<time>2011-04-30T03:20:20Z</time>
<desc>lat.=20.960926, lon.=107.062904, Alt.=50.654816m. Speed=4.860000m/h.</desc>
<speed>1.350000</speed>
</trkpt>
<trkpt lat="20.961065" lon="107.063110">
<ele>4.3</ele>
<time>2011-04-30T03:20:30Z</time>
<desc>lat.=20.961065, lon.=107.063110, Alt.=47.597198m. Speed=4.572000m/h.</desc>
<speed>1.270000</speed>
</trkpt>
<trkpt lat="20.960903" lon="107.063423">
<ele>2.7</ele>
<time>2011-04-30T03:20:50Z</time>
<desc>lat.=20.960903, lon.=107.063423, Alt.=29.281998m. Speed=3.312000m/h.</desc>
<speed>0.920000</speed>
</trkpt>
<trkpt lat="20.960567" lon="107.063538">
<ele>1.8</ele>
<time>2011-04-30T03:21:15Z</time>
<desc>lat.=20.960567, lon.=107.063538, Alt.=13.518929m. Speed=4.716000m/h.</desc>
<speed>1.310000</speed>
</trkpt>
<trkpt lat="20.960163" lon="107.062706">
<ele>2.8</ele>
<time>2011-04-30T03:22:30Z</time>
<desc>lat.=20.960163, lon.=107.062706, Alt.=10.357796m. Speed=5.364000m/h.</desc>
<speed>1.490000</speed>
</trkpt>
<trkpt lat="20.959988" lon="107.061714">
<ele>3.7</ele>
<time>2011-04-30T03:23:50Z</time>
<desc>lat.=20.959988, lon.=107.061714, Alt.=-0.745232m. Speed=5.904000m/h.</desc>
<speed>1.640000</speed>
</trkpt>
<trkpt lat="20.959707" lon="107.061691">
<ele>1.4</ele>
<time>2011-04-30T03:24:20Z</time>
<desc>lat.=20.959707, lon.=107.061691, Alt.=0.874093m. Speed=4.896000m/h.</desc>
<speed>1.360000</speed>
</trkpt>
<trkpt lat="20.958731" lon="107.059929">
<ele>3.1</ele>
<time>2011-04-30T03:29:45Z</time>
<desc>lat.=20.958731, lon.=107.059929, Alt.=-0.648049m. Speed=2.340000m/h.</desc>
<speed>0.650000</speed>
</trkpt>
<trkpt lat="20.957874" lon="107.059120">
<ele>0.0</ele>
<time>2011-04-30T03:32:15Z</time>
<desc>lat.=20.957874, lon.=107.059120, Alt.=-2.131868m. Speed=0.612000m/h.</desc>
<speed>0.170000</speed>
</trkpt>
<trkpt lat="20.957067" lon="107.057968">
<ele>1.6</ele>
<time>2011-04-30T03:34:40Z</time>
<desc>lat.=20.957067, lon.=107.057968, Alt.=-3.635836m. Speed=4.356000m/h.</desc>
<speed>1.210000</speed>
</trkpt>
<trkpt lat="20.956646" lon="107.056808">
<ele>1.6</ele>
<time>2011-04-30T03:36:45Z</time>
<desc>lat.=20.956646, lon.=107.056808, Alt.=-0.893288m. Speed=4.716000m/h.</desc>
<speed>1.310000</speed>
</trkpt>
<trkpt lat="20.956167" lon="107.054665">
<ele>2.4</ele>
<time>2011-04-30T03:42:30Z</time>
<desc>lat.=20.956167, lon.=107.054665, Alt.=-0.481457m. Speed=3.816000m/h.</desc>
<speed>1.060000</speed>
</trkpt>
<trkpt lat="20.956154" lon="107.053146">
<ele>2.0</ele>
<time>2011-04-30T03:44:45Z</time>
<desc>lat.=20.956154, lon.=107.053146, Alt.=-0.055829m. Speed=4.392000m/h.</desc>
<speed>1.220000</speed>
</trkpt>
<trkpt lat="20.956499" lon="107.050529">
<ele>3.9</ele>
<time>2011-04-30T03:48:40Z</time>
<desc>lat.=20.956499, lon.=107.050529, Alt.=-0.696053m. Speed=3.996000m/h.</desc>
<speed>1.110000</speed>
</trkpt>
<trkpt lat="20.956318" lon="107.050064">
<ele>6.1</ele>
<time>2011-04-30T03:51:55Z</time>
<desc>lat.=20.956318, lon.=107.050064, Alt.=4.147648m. Speed=0.180000m/h.</desc>
<speed>0.050000</speed>
</trkpt>
<trkpt lat="20.956928" lon="107.049995">
<ele>5.5</ele>
<time>2011-04-30T03:53:35Z</time>
<desc>lat.=20.956928, lon.=107.049995, Alt.=5.408024m. Speed=3.492000m/h.</desc>
<speed>0.970000</speed>
</trkpt>
<trkpt lat="20.957153" lon="107.050232">
<ele>12.7</ele>
<time>2011-04-30T03:54:10Z</time>
<desc>lat.=20.957153, lon.=107.050232, Alt.=5.637394m. Speed=0.144000m/h.</desc>
<speed>0.040000</speed>
</trkpt>
<trkpt lat="20.957081" lon="107.050453">
<ele>16.2</ele>
<time>2011-04-30T03:54:45Z</time>
<desc>lat.=20.957081, lon.=107.050453, Alt.=7.814152m. Speed=3.240000m/h.</desc>
<speed>0.900000</speed>
</trkpt>
<trkpt lat="20.957352" lon="107.050583">
<ele>13.9</ele>
<time>2011-04-30T03:56:45Z</time>
<desc>lat.=20.957352, lon.=107.050583, Alt.=37.544464m. Speed=0.504000m/h.</desc>
<speed>0.140000</speed>
</trkpt>
<trkpt lat="20.957560" lon="107.050499">
<ele>10.8</ele>
<time>2011-04-30T03:58:00Z</time>
<desc>lat.=20.957560, lon.=107.050499, Alt.=52.058136m. Speed=1.368000m/h.</desc>
<speed>0.380000</speed>
</trkpt>
<trkpt lat="20.957310" lon="107.050468">
<ele>13.0</ele>
<time>2011-04-30T03:59:05Z</time>
<desc>lat.=20.957310, lon.=107.050468, Alt.=57.227081m. Speed=1.404000m/h.</desc>
<speed>0.390000</speed>
</trkpt>
<trkpt lat="20.957397" lon="107.050804">
<ele>15.3</ele>
<time>2011-04-30T03:59:47Z</time>
<desc>lat.=20.957397, lon.=107.050804, Alt.=52.041534m. Speed=0.180000m/h.</desc>
<speed>0.050000</speed>
</trkpt>
<trkpt lat="20.957319" lon="107.050400">
<ele>12.0</ele>
<time>2011-04-30T04:00:39Z</time>
<desc>lat.=20.957319, lon.=107.050400, Alt.=68.938538m. Speed=0.900000m/h.</desc>
<speed>0.250000</speed>
</trkpt>
<trkpt lat="20.957396" lon="107.050339">
<ele>10.4</ele>
<time>2011-04-30T04:01:04Z</time>
<desc>lat.=20.957396, lon.=107.050339, Alt.=63.382355m. Speed=0.360000m/h.</desc>
<speed>0.100000</speed>
</trkpt>
<trkpt lat="20.957363" lon="107.050522">
<ele>12.9</ele>
<time>2011-04-30T04:01:54Z</time>
<desc>lat.=20.957363, lon.=107.050522, Alt.=57.990753m. Speed=1.908000m/h.</desc>
<speed>0.530000</speed>
</trkpt>
<trkpt lat="20.957546" lon="107.050652">
<ele>11.8</ele>
<time>2011-04-30T04:02:34Z</time>
<desc>lat.=20.957546, lon.=107.050652, Alt.=54.195831m. Speed=1.404000m/h.</desc>
<speed>0.390000</speed>
</trkpt>
<trkpt lat="20.957584" lon="107.050323">
<ele>9.9</ele>
<time>2011-04-30T04:03:04Z</time>
<desc>lat.=20.957584, lon.=107.050323, Alt.=51.416534m. Speed=1.944000m/h.</desc>
<speed>0.540000</speed>
</trkpt>
<trkpt lat="20.957376" lon="107.050537">
<ele>13.0</ele>
<time>2011-04-30T04:04:19Z</time>
<desc>lat.=20.957376, lon.=107.050537, Alt.=50.295441m. Speed=1.440000m/h.</desc>
<speed>0.400000</speed>
</trkpt>
<trkpt lat="20.957066" lon="107.050568">
<ele>16.1</ele>
<time>2011-04-30T04:05:09Z</time>
<desc>lat.=20.957066, lon.=107.050568, Alt.=48.489777m. Speed=3.636000m/h.</desc>
<speed>1.010000</speed>
</trkpt>
<trkpt lat="20.957399" lon="107.050285">
<ele>10.5</ele>
<time>2011-04-30T04:05:47Z</time>
<desc>lat.=20.957399, lon.=107.050285, Alt.=54.332550m. Speed=0.936000m/h.</desc>
<speed>0.260000</speed>
</trkpt>
<trkpt lat="20.957502" lon="107.050430">
<ele>10.8</ele>
<time>2011-04-30T04:08:22Z</time>
<desc>lat.=20.957502, lon.=107.050430, Alt.=45.567902m. Speed=0.648000m/h.</desc>
<speed>0.180000</speed>
</trkpt>
<trkpt lat="20.957401" lon="107.050453">
<ele>11.7</ele>
<time>2011-04-30T04:08:52Z</time>
<desc>lat.=20.957401, lon.=107.050453, Alt.=45.779816m. Speed=1.152000m/h.</desc>
<speed>0.320000</speed>
</trkpt>
<trkpt lat="20.957436" lon="107.050255">
<ele>11.1</ele>
<time>2011-04-30T04:09:42Z</time>
<desc>lat.=20.957436, lon.=107.050255, Alt.=44.971222m. Speed=0.576000m/h.</desc>
<speed>0.160000</speed>
</trkpt>
<trkpt lat="20.957367" lon="107.050461">
<ele>12.1</ele>
<time>2011-04-30T04:10:12Z</time>
<desc>lat.=20.957367, lon.=107.050461, Alt.=44.326691m. Speed=3.384000m/h.</desc>
<speed>0.940000</speed>
</trkpt>
<trkpt lat="20.957489" lon="107.050255">
<ele>11.3</ele>
<time>2011-04-30T04:10:57Z</time>
<desc>lat.=20.957489, lon.=107.050255, Alt.=43.774933m. Speed=2.052000m/h.</desc>
<speed>0.570000</speed>
</trkpt>
<trkpt lat="20.957380" lon="107.050171">
<ele>11.9</ele>
<time>2011-04-30T04:11:17Z</time>
<desc>lat.=20.957380, lon.=107.050171, Alt.=44.277863m. Speed=1.044000m/h.</desc>
<speed>0.290000</speed>
</trkpt>
<trkpt lat="20.957554" lon="107.050453">
<ele>10.6</ele>
<time>2011-04-30T04:12:42Z</time>
<desc>lat.=20.957554, lon.=107.050453, Alt.=45.302277m. Speed=0.864000m/h.</desc>
<speed>0.240000</speed>
</trkpt>
<trkpt lat="20.957476" lon="107.050186">
<ele>12.6</ele>
<time>2011-04-30T04:13:42Z</time>
<desc>lat.=20.957476, lon.=107.050186, Alt.=47.857941m. Speed=1.152000m/h.</desc>
<speed>0.320000</speed>
</trkpt>
<trkpt lat="20.957384" lon="107.050186">
<ele>11.7</ele>
<time>2011-04-30T04:14:02Z</time>
<desc>lat.=20.957384, lon.=107.050186, Alt.=49.386261m. Speed=1.188000m/h.</desc>
<speed>0.330000</speed>
</trkpt>
<trkpt lat="20.957462" lon="107.050346">
<ele>10.3</ele>
<time>2011-04-30T04:15:47Z</time>
<desc>lat.=20.957462, lon.=107.050346, Alt.=53.395050m. Speed=1.224000m/h.</desc>
<speed>0.340000</speed>
</trkpt>
<trkpt lat="20.957355" lon="107.050430">
<ele>11.8</ele>
<time>2011-04-30T04:16:12Z</time>
<desc>lat.=20.957355, lon.=107.050430, Alt.=51.371613m. Speed=1.548000m/h.</desc>
<speed>0.430000</speed>
</trkpt>
<trkpt lat="20.957335" lon="107.050308">
<ele>10.8</ele>
<time>2011-04-30T04:16:52Z</time>
<desc>lat.=20.957335, lon.=107.050308, Alt.=44.545441m. Speed=0.720000m/h.</desc>
<speed>0.200000</speed>
</trkpt>
<trkpt lat="20.957365" lon="107.050407">
<ele>11.4</ele>
<time>2011-04-30T04:17:02Z</time>
<desc>lat.=20.957365, lon.=107.050407, Alt.=43.291534m. Speed=1.296000m/h.</desc>
<speed>0.360000</speed>
</trkpt>
<trkpt lat="20.957499" lon="107.050285">
<ele>10.7</ele>
<time>2011-04-30T04:17:27Z</time>
<desc>lat.=20.957499, lon.=107.050285, Alt.=40.814972m. Speed=0.936000m/h.</desc>
<speed>0.260000</speed>
</trkpt>
<trkpt lat="20.957163" lon="107.050529">
<ele>15.5</ele>
<time>2011-04-30T04:19:01Z</time>
<desc>lat.=20.957163, lon.=107.050529, Alt.=43.060089m. Speed=1.224000m/h.</desc>
<speed>0.340000</speed>
</trkpt>
<trkpt lat="20.957405" lon="107.050323">
<ele>10.2</ele>
<time>2011-04-30T04:23:21Z</time>
<desc>lat.=20.957405, lon.=107.050323, Alt.=44.843292m. Speed=1.296000m/h.</desc>
<speed>0.360000</speed>
</trkpt>
<trkpt lat="20.957285" lon="107.050575">
<ele>14.5</ele>
<time>2011-04-30T04:24:56Z</time>
<desc>lat.=20.957285, lon.=107.050575, Alt.=42.411652m. Speed=1.116000m/h.</desc>
<speed>0.310000</speed>
</trkpt>
<trkpt lat="20.957417" lon="107.050346">
<ele>10.4</ele>
<time>2011-04-30T04:26:46Z</time>
<desc>lat.=20.957417, lon.=107.050346, Alt.=40.772003m. Speed=3.276000m/h.</desc>
<speed>0.910000</speed>
</trkpt>
<trkpt lat="20.957191" lon="107.050148">
<ele>11.2</ele>
<time>2011-04-30T04:28:21Z</time>
<desc>lat.=20.957191, lon.=107.050148, Alt.=35.982941m. Speed=0.324000m/h.</desc>
<speed>0.090000</speed>
</trkpt>
<trkpt lat="20.956964" lon="107.050232">
<ele>10.9</ele>
<time>2011-04-30T04:29:16Z</time>
<desc>lat.=20.956964, lon.=107.050232, Alt.=37.285675m. Speed=1.296000m/h.</desc>
<speed>0.360000</speed>
</trkpt>
<trkpt lat="20.957117" lon="107.050018">
<ele>7.5</ele>
<time>2011-04-30T04:29:51Z</time>
<desc>lat.=20.957117, lon.=107.050018, Alt.=37.172394m. Speed=1.836000m/h.</desc>
<speed>0.510000</speed>
</trkpt>
<trkpt lat="20.957109" lon="107.050316">
<ele>15.4</ele>
<time>2011-04-30T04:30:19Z</time>
<desc>lat.=20.957109, lon.=107.050316, Alt.=36.753448m. Speed=0.972000m/h.</desc>
<speed>0.270000</speed>
</trkpt>
<trkpt lat="20.957088" lon="107.049858">
<ele>5.3</ele>
<time>2011-04-30T04:31:19Z</time>
<desc>lat.=20.957088, lon.=107.049858, Alt.=32.137238m. Speed=2.196000m/h.</desc>
<speed>0.610000</speed>
</trkpt>
<trkpt lat="20.956722" lon="107.050003">
<ele>5.5</ele>
<time>2011-04-30T04:34:06Z</time>
<desc>lat.=20.956722, lon.=107.050003, Alt.=38.263214m. Speed=0.468000m/h.</desc>
<speed>0.130000</speed>
</trkpt>
<trkpt lat="20.956713" lon="107.050407">
<ele>6.7</ele>
<time>2011-04-30T04:34:41Z</time>
<desc>lat.=20.956713, lon.=107.050407, Alt.=36.994659m. Speed=2.952000m/h.</desc>
<speed>0.820000</speed>
</trkpt>
<trkpt lat="20.957964" lon="107.049736">
<ele>27.8</ele>
<time>2011-04-30T04:49:36Z</time>
<desc>lat.=20.957964, lon.=107.049736, Alt.=24.267349m. Speed=2.988000m/h.</desc>
<speed>0.830000</speed>
</trkpt>
<trkpt lat="20.957367" lon="107.050323">
<ele>10.2</ele>
<time>2011-04-30T05:01:29Z</time>
<desc>lat.=20.957367, lon.=107.050323, Alt.=32.926300m. Speed=4.824000m/h.</desc>
<speed>1.340000</speed>
</trkpt>
<trkpt lat="20.957443" lon="107.050873">
<ele>14.8</ele>
<time>2011-04-30T05:02:14Z</time>
<desc>lat.=20.957443, lon.=107.050873, Alt.=36.822784m. Speed=2.916000m/h.</desc>
<speed>0.810000</speed>
</trkpt>
<trkpt lat="20.957506" lon="107.049530">
<ele>16.4</ele>
<time>2011-04-30T05:02:34Z</time>
<desc>lat.=20.957506, lon.=107.049530, Alt.=34.439972m. Speed=5.724000m/h.</desc>
<speed>1.590000</speed>
</trkpt>
<trkpt lat="20.957613" lon="107.049583">
<ele>18.6</ele>
<time>2011-04-30T05:02:44Z</time>
<desc>lat.=20.957613, lon.=107.049583, Alt.=33.175323m. Speed=4.464000m/h.</desc>
<speed>1.240000</speed>
</trkpt>
<trkpt lat="20.957260" lon="107.050423">
<ele>13.3</ele>
<time>2011-04-30T05:02:59Z</time>
<desc>lat.=20.957260, lon.=107.050423, Alt.=36.361847m. Speed=21.420000m/h.</desc>
<speed>5.950000</speed>
</trkpt>
<trkpt lat="20.957308" lon="107.050186">
<ele>11.6</ele>
<time>2011-04-30T05:03:09Z</time>
<desc>lat.=20.957308, lon.=107.050186, Alt.=41.456573m. Speed=4.536000m/h.</desc>
<speed>1.260000</speed>
</trkpt>
<trkpt lat="20.958218" lon="107.047600">
<ele>20.6</ele>
<time>2011-04-30T05:03:34Z</time>
<desc>lat.=20.958218, lon.=107.047600, Alt.=47.718292m. Speed=39.276001m/h.</desc>
<speed>10.910000</speed>
</trkpt>
<trkpt lat="20.959093" lon="107.044304">
<ele>92.5</ele>
<time>2011-04-30T05:03:54Z</time>
<desc>lat.=20.959093, lon.=107.044304, Alt.=52.686066m. Speed=57.636002m/h.</desc>
<speed>16.010000</speed>
</trkpt>
<trkpt lat="20.957142" lon="107.050056">
<ele>8.9</ele>
<time>2011-04-30T05:05:15Z</time>
<desc>lat.=20.957142, lon.=107.050056, Alt.=33.663605m. Speed=0.504000m/h.</desc>
<speed>0.140000</speed>
</trkpt>
<trkpt lat="20.956718" lon="107.049950">
<ele>5.2</ele>
<time>2011-04-30T05:06:20Z</time>
<desc>lat.=20.956718, lon.=107.049950, Alt.=42.119659m. Speed=2.772000m/h.</desc>
<speed>0.770000</speed>
</trkpt>
<trkpt lat="20.956282" lon="107.050262">
<ele>5.4</ele>
<time>2011-04-30T05:07:20Z</time>
<desc>lat.=20.956282, lon.=107.050262, Alt.=24.775162m. Speed=2.808000m/h.</desc>
<speed>0.780000</speed>
</trkpt>
<trkpt lat="20.956087" lon="107.050125">
<ele>5.8</ele>
<time>2011-04-30T05:08:10Z</time>
<desc>lat.=20.956087, lon.=107.050125, Alt.=18.625748m. Speed=1.404000m/h.</desc>
<speed>0.390000</speed>
</trkpt>
<trkpt lat="20.955942" lon="107.049698">
<ele>4.4</ele>
<time>2011-04-30T05:09:15Z</time>
<desc>lat.=20.955942, lon.=107.049698, Alt.=12.890999m. Speed=3.672000m/h.</desc>
<speed>1.020000</speed>
</trkpt>
<trkpt lat="20.955500" lon="107.049622">
<ele>4.8</ele>
<time>2011-04-30T05:11:40Z</time>
<desc>lat.=20.955500, lon.=107.049622, Alt.=9.835823m. Speed=4.284000m/h.</desc>
<speed>1.190000</speed>
</trkpt>
<trkpt lat="20.955366" lon="107.049225">
<ele>4.8</ele>
<time>2011-04-30T05:12:50Z</time>
<desc>lat.=20.955366, lon.=107.049225, Alt.=2.924044m. Speed=0.756000m/h.</desc>
<speed>0.210000</speed>
</trkpt>
<trkpt lat="20.954964" lon="107.049332">
<ele>1.5</ele>
<time>2011-04-30T05:13:40Z</time>
<desc>lat.=20.954964, lon.=107.049332, Alt.=12.772591m. Speed=3.456000m/h.</desc>
<speed>0.960000</speed>
</trkpt>
<trkpt lat="20.954859" lon="107.048798">
<ele>1.0</ele>
<time>2011-04-30T05:14:40Z</time>
<desc>lat.=20.954859, lon.=107.048798, Alt.=3.742464m. Speed=3.636000m/h.</desc>
<speed>1.010000</speed>
</trkpt>
<trkpt lat="20.954361" lon="107.047882">
<ele>1.0</ele>
<time>2011-04-30T05:20:05Z</time>
<desc>lat.=20.954361, lon.=107.047882, Alt.=7.540958m. Speed=2.628000m/h.</desc>
<speed>0.730000</speed>
</trkpt>
<trkpt lat="20.952600" lon="107.048790">
<ele>0.0</ele>
<time>2011-04-30T05:23:00Z</time>
<desc>lat.=20.952600, lon.=107.048790, Alt.=0.911858m. Speed=1.656000m/h.</desc>
<speed>0.460000</speed>
</trkpt>
<trkpt lat="20.954283" lon="107.047821">
<ele>0.0</ele>
<time>2011-04-30T05:33:10Z</time>
<desc>lat.=20.954283, lon.=107.047821, Alt.=-1.572801m. Speed=3.888000m/h.</desc>
<speed>1.080000</speed>
</trkpt>
<trkpt lat="20.954227" lon="107.047676">
<ele>1.3</ele>
<time>2011-04-30T05:34:15Z</time>
<desc>lat.=20.954227, lon.=107.047676, Alt.=1.154069m. Speed=3.348000m/h.</desc>
<speed>0.930000</speed>
</trkpt>
<trkpt lat="20.954668" lon="107.047577">
<ele>6.3</ele>
<time>2011-04-30T05:36:20Z</time>
<desc>lat.=20.954668, lon.=107.047577, Alt.=4.137394m. Speed=4.140000m/h.</desc>
<speed>1.150000</speed>
</trkpt>
<trkpt lat="20.955263" lon="107.048714">
<ele>4.9</ele>
<time>2011-04-30T05:39:15Z</time>
<desc>lat.=20.955263, lon.=107.048714, Alt.=9.691292m. Speed=1.116000m/h.</desc>
<speed>0.310000</speed>
</trkpt>
<trkpt lat="20.955109" lon="107.048653">
<ele>3.8</ele>
<time>2011-04-30T05:39:30Z</time>
<desc>lat.=20.955109, lon.=107.048653, Alt.=7.130436m. Speed=0.288000m/h.</desc>
<speed>0.080000</speed>
</trkpt>
<trkpt lat="20.955090" lon="107.048775">
<ele>3.5</ele>
<time>2011-04-30T05:39:40Z</time>
<desc>lat.=20.955090, lon.=107.048775, Alt.=5.020817m. Speed=2.304000m/h.</desc>
<speed>0.640000</speed>
</trkpt>
<trkpt lat="20.955164" lon="107.048607">
<ele>4.2</ele>
<time>2011-04-30T05:41:00Z</time>
<desc>lat.=20.955164, lon.=107.048607, Alt.=1.735765m. Speed=1.440000m/h.</desc>
<speed>0.400000</speed>
</trkpt>
<trkpt lat="20.955076" lon="107.048813">
<ele>3.2</ele>
<time>2011-04-30T05:41:40Z</time>
<desc>lat.=20.955076, lon.=107.048813, Alt.=0.793496m. Speed=1.764000m/h.</desc>
<speed>0.490000</speed>
</trkpt>
<trkpt lat="20.955130" lon="107.048599">
<ele>3.9</ele>
<time>2011-04-30T05:42:45Z</time>
<desc>lat.=20.955130, lon.=107.048599, Alt.=-4.309147m. Speed=0.540000m/h.</desc>
<speed>0.150000</speed>
</trkpt>
<trkpt lat="20.955133" lon="107.048874">
<ele>3.9</ele>
<time>2011-04-30T05:44:30Z</time>
<desc>lat.=20.955133, lon.=107.048874, Alt.=-7.186222m. Speed=0.936000m/h.</desc>
<speed>0.260000</speed>
</trkpt>
<trkpt lat="20.955404" lon="107.048683">
<ele>6.3</ele>
<time>2011-04-30T05:45:35Z</time>
<desc>lat.=20.955404, lon.=107.048683, Alt.=-0.251866m. Speed=0.576000m/h.</desc>
<speed>0.160000</speed>
</trkpt>
<trkpt lat="20.956160" lon="107.049545">
<ele>4.9</ele>
<time>2011-04-30T05:46:25Z</time>
<desc>lat.=20.956160, lon.=107.049545, Alt.=-1.223008m. Speed=29.916000m/h.</desc>
<speed>8.310000</speed>
</trkpt>
<trkpt lat="20.956400" lon="107.050613">
<ele>3.3</ele>
<time>2011-04-30T05:46:35Z</time>
<desc>lat.=20.956400, lon.=107.050613, Alt.=-1.638932m. Speed=46.043999m/h.</desc>
<speed>12.790000</speed>
</trkpt>
<trkpt lat="20.956177" lon="107.054649">
<ele>2.5</ele>
<time>2011-04-30T05:47:00Z</time>
<desc>lat.=20.956177, lon.=107.054649, Alt.=-2.825533m. Speed=58.212002m/h.</desc>
<speed>16.170001</speed>
</trkpt>
<trkpt lat="20.956907" lon="107.057503">
<ele>1.3</ele>
<time>2011-04-30T05:47:40Z</time>
<desc>lat.=20.956907, lon.=107.057503, Alt.=-8.996712m. Speed=0.252000m/h.</desc>
<speed>0.070000</speed>
</trkpt>
<trkpt lat="20.956810" lon="107.057976">
<ele>0.0</ele>
<time>2011-04-30T05:51:55Z</time>
<desc>lat.=20.956810, lon.=107.057976, Alt.=-3.650972m. Speed=2.160000m/h.</desc>
<speed>0.600000</speed>
</trkpt>
<trkpt lat="20.956945" lon="107.057961">
<ele>0.9</ele>
<time>2011-04-30T05:52:45Z</time>
<desc>lat.=20.956945, lon.=107.057961, Alt.=-5.925358m. Speed=2.268000m/h.</desc>
<speed>0.630000</speed>
</trkpt>
<trkpt lat="20.956823" lon="107.057770">
<ele>0.2</ele>
<time>2011-04-30T05:53:25Z</time>
<desc>lat.=20.956823, lon.=107.057770, Alt.=-6.033634m. Speed=1.296000m/h.</desc>
<speed>0.360000</speed>
</trkpt>
<trkpt lat="20.956816" lon="107.058090">
<ele>0.0</ele>
<time>2011-04-30T05:54:45Z</time>
<desc>lat.=20.956816, lon.=107.058090, Alt.=-5.705997m. Speed=1.656000m/h.</desc>
<speed>0.460000</speed>
</trkpt>
<trkpt lat="20.956944" lon="107.057976">
<ele>0.8</ele>
<time>2011-04-30T05:55:05Z</time>
<desc>lat.=20.956944, lon.=107.057976, Alt.=-5.107121m. Speed=1.260000m/h.</desc>
<speed>0.350000</speed>
</trkpt>
<trkpt lat="20.956787" lon="107.057755">
<ele>0.0</ele>
<time>2011-04-30T05:57:35Z</time>
<desc>lat.=20.956787, lon.=107.057755, Alt.=-3.078829m. Speed=2.304000m/h.</desc>
<speed>0.640000</speed>
</trkpt>
<trkpt lat="20.957005" lon="107.057976">
<ele>1.2</ele>
<time>2011-04-30T06:00:00Z</time>
<desc>lat.=20.957005, lon.=107.057976, Alt.=3.980501m. Speed=1.548000m/h.</desc>
<speed>0.430000</speed>
</trkpt>
<trkpt lat="20.956898" lon="107.057892">
<ele>0.7</ele>
<time>2011-04-30T06:00:25Z</time>
<desc>lat.=20.956898, lon.=107.057892, Alt.=8.096077m. Speed=2.088000m/h.</desc>
<speed>0.580000</speed>
</trkpt>
<trkpt lat="20.957045" lon="107.057800">
<ele>2.1</ele>
<time>2011-04-30T06:01:10Z</time>
<desc>lat.=20.957045, lon.=107.057800, Alt.=12.407600m. Speed=1.080000m/h.</desc>
<speed>0.300000</speed>
</trkpt>
<trkpt lat="20.956909" lon="107.057915">
<ele>0.8</ele>
<time>2011-04-30T06:01:30Z</time>
<desc>lat.=20.956909, lon.=107.057915, Alt.=11.508919m. Speed=1.836000m/h.</desc>
<speed>0.510000</speed>
</trkpt>
<trkpt lat="20.956781" lon="107.057724">
<ele>0.0</ele>
<time>2011-04-30T06:02:15Z</time>
<desc>lat.=20.956781, lon.=107.057724, Alt.=10.403938m. Speed=2.448000m/h.</desc>
<speed>0.680000</speed>
</trkpt>
<trkpt lat="20.956886" lon="107.057991">
<ele>0.5</ele>
<time>2011-04-30T06:03:10Z</time>
<desc>lat.=20.956886, lon.=107.057991, Alt.=13.122932m. Speed=5.220000m/h.</desc>
<speed>1.450000</speed>
</trkpt>
<trkpt lat="20.956972" lon="107.057892">
<ele>1.3</ele>
<time>2011-04-30T06:03:15Z</time>
<desc>lat.=20.956972, lon.=107.057892, Alt.=13.011116m. Speed=5.904000m/h.</desc>
<speed>1.640000</speed>
</trkpt>
<trkpt lat="20.956602" lon="107.057953">
<ele>0.0</ele>
<time>2011-04-30T06:03:35Z</time>
<desc>lat.=20.956602, lon.=107.057953, Alt.=13.957893m. Speed=9.072000m/h.</desc>
<speed>2.520000</speed>
</trkpt>
<trkpt lat="20.956656" lon="107.058121">
<ele>0.0</ele>
<time>2011-04-30T06:03:45Z</time>
<desc>lat.=20.956656, lon.=107.058121, Alt.=8.962288m. Speed=1.620000m/h.</desc>
<speed>0.450000</speed>
</trkpt>
<trkpt lat="20.956858" lon="107.058067">
<ele>0.2</ele>
<time>2011-04-30T06:04:20Z</time>
<desc>lat.=20.956858, lon.=107.058067, Alt.=8.414436m. Speed=3.240000m/h.</desc>
<speed>0.900000</speed>
</trkpt>
<trkpt lat="20.956745" lon="107.057678">
<ele>0.0</ele>
<time>2011-04-30T06:04:45Z</time>
<desc>lat.=20.956745, lon.=107.057678, Alt.=17.261002m. Speed=1.908000m/h.</desc>
<speed>0.530000</speed>
</trkpt>
<trkpt lat="20.956732" lon="107.058121">
<ele>0.0</ele>
<time>2011-04-30T06:07:00Z</time>
<desc>lat.=20.956732, lon.=107.058121, Alt.=6.564030m. Speed=12.456000m/h.</desc>
<speed>3.460000</speed>
</trkpt>
<trkpt lat="20.956678" lon="107.057945">
<ele>0.0</ele>
<time>2011-04-30T06:07:30Z</time>
<desc>lat.=20.956678, lon.=107.057945, Alt.=2.961336m. Speed=1.944000m/h.</desc>
<speed>0.540000</speed>
</trkpt>
<trkpt lat="20.956345" lon="107.057968">
<ele>0.0</ele>
<time>2011-04-30T06:08:25Z</time>
<desc>lat.=20.956345, lon.=107.057968, Alt.=-12.927376m. Speed=2.628000m/h.</desc>
<speed>0.730000</speed>
</trkpt>
<trkpt lat="20.955719" lon="107.057098">
<ele>0.0</ele>
<time>2011-04-30T06:09:25Z</time>
<desc>lat.=20.955719, lon.=107.057098, Alt.=-1.855851m. Speed=6.876000m/h.</desc>
<speed>1.910000</speed>
</trkpt>
<trkpt lat="20.954624" lon="107.056412">
<ele>0.0</ele>
<time>2011-04-30T06:10:30Z</time>
<desc>lat.=20.954624, lon.=107.056412, Alt.=-4.182926m. Speed=7.920000m/h.</desc>
<speed>2.200000</speed>
</trkpt>
<trkpt lat="20.952066" lon="107.054070">
<ele>0.0</ele>
<time>2011-04-30T06:13:15Z</time>
<desc>lat.=20.952066, lon.=107.054070, Alt.=-6.331120m. Speed=7.848000m/h.</desc>
<speed>2.180000</speed>
</trkpt>
<trkpt lat="20.948563" lon="107.051231">
<ele>0.0</ele>
<time>2011-04-30T06:16:50Z</time>
<desc>lat.=20.948563, lon.=107.051231, Alt.=-3.949984m. Speed=8.352000m/h.</desc>
<speed>2.320000</speed>
</trkpt>
<trkpt lat="20.947151" lon="107.049736">
<ele>0.0</ele>
<time>2011-04-30T06:18:25Z</time>
<desc>lat.=20.947151, lon.=107.049736, Alt.=-7.239445m. Speed=8.424000m/h.</desc>
<speed>2.340000</speed>
</trkpt>
<trkpt lat="20.941889" lon="107.045021">
<ele>0.0</ele>
<time>2011-04-30T06:24:00Z</time>
<desc>lat.=20.941889, lon.=107.045021, Alt.=-1.421342m. Speed=7.956000m/h.</desc>
<speed>2.210000</speed>
</trkpt>
<trkpt lat="20.937986" lon="107.042084">
<ele>0.0</ele>
<time>2011-04-30T06:27:55Z</time>
<desc>lat.=20.937986, lon.=107.042084, Alt.=6.028751m. Speed=7.992000m/h.</desc>
<speed>2.220000</speed>
</trkpt>
<trkpt lat="20.933073" lon="107.037834">
<ele>0.0</ele>
<time>2011-04-30T06:33:10Z</time>
<desc>lat.=20.933073, lon.=107.037834, Alt.=2.510469m. Speed=8.244000m/h.</desc>
<speed>2.290000</speed>
</trkpt>
<trkpt lat="20.931473" lon="107.037071">
<ele>0.0</ele>
<time>2011-04-30T06:34:35Z</time>
<desc>lat.=20.931473, lon.=107.037071, Alt.=-0.519753m. Speed=7.920000m/h.</desc>
<speed>2.200000</speed>
</trkpt>
<trkpt lat="20.927387" lon="107.033340">
<ele>0.0</ele>
<time>2011-04-30T06:39:00Z</time>
<desc>lat.=20.927387, lon.=107.033340, Alt.=4.954288m. Speed=8.028000m/h.</desc>
<speed>2.230000</speed>
</trkpt>
<trkpt lat="20.923904" lon="107.030609">
<ele>0.0</ele>
<time>2011-04-30T06:42:45Z</time>
<desc>lat.=20.923904, lon.=107.030609, Alt.=4.281925m. Speed=7.848000m/h.</desc>
<speed>2.180000</speed>
</trkpt>
<trkpt lat="20.917595" lon="107.023651">
<ele>0.0</ele>
<time>2011-04-30T06:50:25Z</time>
<desc>lat.=20.917595, lon.=107.023651, Alt.=8.248177m. Speed=7.992000m/h.</desc>
<speed>2.220000</speed>
</trkpt>
<trkpt lat="20.915974" lon="107.022293">
<ele>0.0</ele>
<time>2011-04-30T06:52:05Z</time>
<desc>lat.=20.915974, lon.=107.022293, Alt.=10.793098m. Speed=8.532000m/h.</desc>
<speed>2.370000</speed>
</trkpt>
<trkpt lat="20.914970" lon="107.020760">
<ele>0.0</ele>
<time>2011-04-30T06:53:25Z</time>
<desc>lat.=20.914970, lon.=107.020760, Alt.=8.794075m. Speed=8.676000m/h.</desc>
<speed>2.410000</speed>
</trkpt>
<trkpt lat="20.914106" lon="107.019989">
<ele>0.0</ele>
<time>2011-04-30T06:54:20Z</time>
<desc>lat.=20.914106, lon.=107.019989, Alt.=10.522835m. Speed=7.668000m/h.</desc>
<speed>2.130000</speed>
</trkpt>
<trkpt lat="20.912678" lon="107.017929">
<ele>0.0</ele>
<time>2011-04-30T06:57:10Z</time>
<desc>lat.=20.912678, lon.=107.017929, Alt.=9.861946m. Speed=2.160000m/h.</desc>
<speed>0.600000</speed>
</trkpt>
<trkpt lat="20.912609" lon="107.017464">
<ele>18.6</ele>
<time>2011-04-30T06:59:55Z</time>
<desc>lat.=20.912609, lon.=107.017464, Alt.=10.297493m. Speed=1.944000m/h.</desc>
<speed>0.540000</speed>
</trkpt>
<trkpt lat="20.912775" lon="107.017456">
<ele>12.5</ele>
<time>2011-04-30T07:01:40Z</time>
<desc>lat.=20.912775, lon.=107.017456, Alt.=22.364029m. Speed=0.576000m/h.</desc>
<speed>0.160000</speed>
</trkpt>
<trkpt lat="20.912752" lon="107.017319">
<ele>20.4</ele>
<time>2011-04-30T07:02:50Z</time>
<desc>lat.=20.912752, lon.=107.017319, Alt.=23.293228m. Speed=1.512000m/h.</desc>
<speed>0.420000</speed>
</trkpt>
<trkpt lat="20.912518" lon="107.017174">
<ele>38.5</ele>
<time>2011-04-30T07:04:55Z</time>
<desc>lat.=20.912518, lon.=107.017174, Alt.=40.534698m. Speed=1.692000m/h.</desc>
<speed>0.470000</speed>
</trkpt>
<trkpt lat="20.911943" lon="107.017647">
<ele>22.0</ele>
<time>2011-04-30T07:33:40Z</time>
<desc>lat.=20.911943, lon.=107.017647, Alt.=39.422394m. Speed=1.692000m/h.</desc>
<speed>0.470000</speed>
</trkpt>
<trkpt lat="20.912037" lon="107.017624">
<ele>22.6</ele>
<time>2011-04-30T07:33:50Z</time>
<desc>lat.=20.912037, lon.=107.017624, Alt.=36.648956m. Speed=1.332000m/h.</desc>
<speed>0.370000</speed>
</trkpt>
<trkpt lat="20.911905" lon="107.017525">
<ele>29.7</ele>
<time>2011-04-30T07:33:55Z</time>
<desc>lat.=20.911905, lon.=107.017525, Alt.=31.122330m. Speed=2.016000m/h.</desc>
<speed>0.560000</speed>
</trkpt>
<trkpt lat="20.911642" lon="107.018379">
<ele>10.1</ele>
<time>2011-04-30T07:36:50Z</time>
<desc>lat.=20.911642, lon.=107.018379, Alt.=32.455597m. Speed=2.592000m/h.</desc>
<speed>0.720000</speed>
</trkpt>
<trkpt lat="20.911055" lon="107.018478">
<ele>29.2</ele>
<time>2011-04-30T07:38:00Z</time>
<desc>lat.=20.911055, lon.=107.018478, Alt.=21.843521m. Speed=1.296000m/h.</desc>
<speed>0.360000</speed>
</trkpt>
<trkpt lat="20.910995" lon="107.018867">
<ele>17.2</ele>
<time>2011-04-30T07:39:10Z</time>
<desc>lat.=20.910995, lon.=107.018867, Alt.=23.152115m. Speed=1.332000m/h.</desc>
<speed>0.370000</speed>
</trkpt>
<trkpt lat="20.911110" lon="107.018921">
<ele>11.2</ele>
<time>2011-04-30T07:39:20Z</time>
<desc>lat.=20.911110, lon.=107.018921, Alt.=21.356216m. Speed=1.980000m/h.</desc>
<speed>0.550000</speed>
</trkpt>
<trkpt lat="20.911188" lon="107.018723">
<ele>14.3</ele>
<time>2011-04-30T07:39:40Z</time>
<desc>lat.=20.911188, lon.=107.018723, Alt.=24.207779m. Speed=4.464000m/h.</desc>
<speed>1.240000</speed>
</trkpt>
<trkpt lat="20.911427" lon="107.018646">
<ele>9.4</ele>
<time>2011-04-30T07:41:00Z</time>
<desc>lat.=20.911427, lon.=107.018646, Alt.=37.696808m. Speed=1.116000m/h.</desc>
<speed>0.310000</speed>
</trkpt>
<trkpt lat="20.911505" lon="107.019119">
<ele>0.8</ele>
<time>2011-04-30T07:43:20Z</time>
<desc>lat.=20.911505, lon.=107.019119, Alt.=31.966080m. Speed=0.504000m/h.</desc>
<speed>0.140000</speed>
</trkpt>
<trkpt lat="20.911497" lon="107.018890">
<ele>3.2</ele>
<time>2011-04-30T07:45:15Z</time>
<desc>lat.=20.911497, lon.=107.018890, Alt.=14.509895m. Speed=0.108000m/h.</desc>
<speed>0.030000</speed>
</trkpt>
<trkpt lat="20.913424" lon="107.019348">
<ele>0.0</ele>
<time>2011-04-30T07:48:15Z</time>
<desc>lat.=20.913424, lon.=107.019348, Alt.=-23.269302m. Speed=8.388000m/h.</desc>
<speed>2.330000</speed>
</trkpt>
<trkpt lat="20.914265" lon="107.019203">
<ele>0.0</ele>
<time>2011-04-30T07:48:55Z</time>
<desc>lat.=20.914265, lon.=107.019203, Alt.=-25.979263m. Speed=8.568000m/h.</desc>
<speed>2.380000</speed>
</trkpt>
<trkpt lat="20.914558" lon="107.018990">
<ele>0.0</ele>
<time>2011-04-30T07:49:10Z</time>
<desc>lat.=20.914558, lon.=107.018990, Alt.=-31.406509m. Speed=8.316000m/h.</desc>
<speed>2.310000</speed>
</trkpt>
<trkpt lat="20.915033" lon="107.018356">
<ele>0.0</ele>
<time>2011-04-30T07:49:50Z</time>
<desc>lat.=20.915033, lon.=107.018356, Alt.=-26.981216m. Speed=7.740000m/h.</desc>
<speed>2.150000</speed>
</trkpt>
<trkpt lat="20.915073" lon="107.017303">
<ele>0.0</ele>
<time>2011-04-30T07:50:40Z</time>
<desc>lat.=20.915073, lon.=107.017303, Alt.=-17.499771m. Speed=7.848000m/h.</desc>
<speed>2.180000</speed>
</trkpt>
<trkpt lat="20.914707" lon="107.016586">
<ele>0.1</ele>
<time>2011-04-30T07:51:20Z</time>
<desc>lat.=20.914707, lon.=107.016586, Alt.=-15.294075m. Speed=7.560000m/h.</desc>
<speed>2.100000</speed>
</trkpt>
<trkpt lat="20.914053" lon="107.016090">
<ele>1.6</ele>
<time>2011-04-30T07:52:00Z</time>
<desc>lat.=20.914053, lon.=107.016090, Alt.=-12.832161m. Speed=8.532000m/h.</desc>
<speed>2.370000</speed>
</trkpt>
<trkpt lat="20.908627" lon="107.013725">
<ele>0.5</ele>
<time>2011-04-30T07:56:20Z</time>
<desc>lat.=20.908627, lon.=107.013725, Alt.=-16.588638m. Speed=9.252000m/h.</desc>
<speed>2.570000</speed>
</trkpt>
<trkpt lat="20.905678" lon="107.014130">
<ele>1.5</ele>
<time>2011-04-30T07:58:25Z</time>
<desc>lat.=20.905678, lon.=107.014130, Alt.=1.318986m. Speed=10.404000m/h.</desc>
<speed>2.890000</speed>
</trkpt>
<trkpt lat="20.904091" lon="107.015083">
<ele>0.0</ele>
<time>2011-04-30T07:59:45Z</time>
<desc>lat.=20.904091, lon.=107.015083, Alt.=2.195162m. Speed=9.288000m/h.</desc>
<speed>2.580000</speed>
</trkpt>
<trkpt lat="20.902843" lon="107.016426">
<ele>0.0</ele>
<time>2011-04-30T08:11:50Z</time>
<desc>lat.=20.902843, lon.=107.016426, Alt.=-4.446720m. Speed=6.336000m/h.</desc>
<speed>1.760000</speed>
</trkpt>
<trkpt lat="20.902580" lon="107.016548">
<ele>0.0</ele>
<time>2011-04-30T08:12:05Z</time>
<desc>lat.=20.902580, lon.=107.016548, Alt.=-10.806526m. Speed=7.704000m/h.</desc>
<speed>2.140000</speed>
</trkpt>
<trkpt lat="20.899847" lon="107.016823">
<ele>0.0</ele>
<time>2011-04-30T08:13:55Z</time>
<desc>lat.=20.899847, lon.=107.016823, Alt.=-9.801888m. Speed=10.476000m/h.</desc>
<speed>2.910000</speed>
</trkpt>
<trkpt lat="20.897749" lon="107.016754">
<ele>0.0</ele>
<time>2011-04-30T08:15:15Z</time>
<desc>lat.=20.897749, lon.=107.016754, Alt.=-21.624771m. Speed=10.224000m/h.</desc>
<speed>2.840000</speed>
</trkpt>
<trkpt lat="20.896599" lon="107.016945">
<ele>1.0</ele>
<time>2011-04-30T08:16:00Z</time>
<desc>lat.=20.896599, lon.=107.016945, Alt.=-25.738052m. Speed=10.116000m/h.</desc>
<speed>2.810000</speed>
</trkpt>
<trkpt lat="20.895555" lon="107.017342">
<ele>0.0</ele>
<time>2011-04-30T08:16:40Z</time>
<desc>lat.=20.895555, lon.=107.017342, Alt.=-14.315804m. Speed=10.908000m/h.</desc>
<speed>3.030000</speed>
</trkpt>
<trkpt lat="20.894417" lon="107.018311">
<ele>0.0</ele>
<time>2011-04-30T08:17:35Z</time>
<desc>lat.=20.894417, lon.=107.018311, Alt.=-12.055061m. Speed=10.728000m/h.</desc>
<speed>2.980000</speed>
</trkpt>
<trkpt lat="20.893175" lon="107.020638">
<ele>0.0</ele>
<time>2011-04-30T08:19:10Z</time>
<desc>lat.=20.893175, lon.=107.020638, Alt.=-16.653091m. Speed=9.576000m/h.</desc>
<speed>2.660000</speed>
</trkpt>
<trkpt lat="20.893272" lon="107.021194">
<ele>0.0</ele>
<time>2011-04-30T08:19:35Z</time>
<desc>lat.=20.893272, lon.=107.021194, Alt.=-20.516373m. Speed=8.856000m/h.</desc>
<speed>2.460000</speed>
</trkpt>
<trkpt lat="20.893652" lon="107.021667">
<ele>0.0</ele>
<time>2011-04-30T08:20:00Z</time>
<desc>lat.=20.893652, lon.=107.021667, Alt.=-18.550552m. Speed=9.828000m/h.</desc>
<speed>2.730000</speed>
</trkpt>
<trkpt lat="20.895306" lon="107.022942">
<ele>0.0</ele>
<time>2011-04-30T08:21:25Z</time>
<desc>lat.=20.895306, lon.=107.022942, Alt.=-17.886490m. Speed=10.080000m/h.</desc>
<speed>2.800000</speed>
</trkpt>
<trkpt lat="20.903173" lon="107.026588">
<ele>0.0</ele>
<time>2011-04-30T08:27:15Z</time>
<desc>lat.=20.903173, lon.=107.026588, Alt.=-24.181412m. Speed=9.504000m/h.</desc>
<speed>2.640000</speed>
</trkpt>
<trkpt lat="20.912415" lon="107.031471">
<ele>0.0</ele>
<time>2011-04-30T08:34:30Z</time>
<desc>lat.=20.912415, lon.=107.031471, Alt.=-19.459732m. Speed=9.432000m/h.</desc>
<speed>2.620000</speed>
</trkpt>
<trkpt lat="20.915354" lon="107.033272">
<ele>0.0</ele>
<time>2011-04-30T08:36:55Z</time>
<desc>lat.=20.915354, lon.=107.033272, Alt.=-16.713638m. Speed=9.216000m/h.</desc>
<speed>2.560000</speed>
</trkpt>
<trkpt lat="20.916182" lon="107.033989">
<ele>0.0</ele>
<time>2011-04-30T08:37:40Z</time>
<desc>lat.=20.916182, lon.=107.033989, Alt.=-14.638069m. Speed=8.712000m/h.</desc>
<speed>2.420000</speed>
</trkpt>
<trkpt lat="20.920799" lon="107.036949">
<ele>0.0</ele>
<time>2011-04-30T08:41:25Z</time>
<desc>lat.=20.920799, lon.=107.036949, Alt.=-18.337173m. Speed=9.720000m/h.</desc>
<speed>2.700000</speed>
</trkpt>
<trkpt lat="20.925125" lon="107.039955">
<ele>0.0</ele>
<time>2011-04-30T08:44:55Z</time>
<desc>lat.=20.925125, lon.=107.039955, Alt.=-19.967545m. Speed=9.828000m/h.</desc>
<speed>2.730000</speed>
</trkpt>
<trkpt lat="20.926807" lon="107.040817">
<ele>0.0</ele>
<time>2011-04-30T08:46:10Z</time>
<desc>lat.=20.926807, lon.=107.040817, Alt.=-14.601692m. Speed=9.972000m/h.</desc>
<speed>2.770000</speed>
</trkpt>
<trkpt lat="20.933054" lon="107.044655">
<ele>0.0</ele>
<time>2011-04-30T08:51:05Z</time>
<desc>lat.=20.933054, lon.=107.044655, Alt.=-19.296646m. Speed=9.576000m/h.</desc>
<speed>2.660000</speed>
</trkpt>
<trkpt lat="20.945848" lon="107.051247">
<ele>0.0</ele>
<time>2011-04-30T09:00:45Z</time>
<desc>lat.=20.945848, lon.=107.051247, Alt.=-23.896255m. Speed=9.792000m/h.</desc>
<speed>2.720000</speed>
</trkpt>
<trkpt lat="20.951675" lon="107.053749">
<ele>0.0</ele>
<time>2011-04-30T09:05:00Z</time>
<desc>lat.=20.951675, lon.=107.053749, Alt.=-4.211369m. Speed=9.216000m/h.</desc>
<speed>2.560000</speed>
</trkpt>
<trkpt lat="20.954012" lon="107.054520">
<ele>0.0</ele>
<time>2011-04-30T09:06:55Z</time>
<desc>lat.=20.954012, lon.=107.054520, Alt.=-10.912971m. Speed=6.588000m/h.</desc>
<speed>1.830000</speed>
</trkpt>
<trkpt lat="20.955257" lon="107.056015">
<ele>0.0</ele>
<time>2011-04-30T09:08:45Z</time>
<desc>lat.=20.955257, lon.=107.056015, Alt.=-11.028206m. Speed=4.068000m/h.</desc>
<speed>1.130000</speed>
</trkpt>
<trkpt lat="20.955580" lon="107.056015">
<ele>0.0</ele>
<time>2011-04-30T09:09:10Z</time>
<desc>lat.=20.955580, lon.=107.056015, Alt.=-9.948372m. Speed=4.932000m/h.</desc>
<speed>1.370000</speed>
</trkpt>
<trkpt lat="20.956341" lon="107.055542">
<ele>1.2</ele>
<time>2011-04-30T09:12:00Z</time>
<desc>lat.=20.956341, lon.=107.055542, Alt.=-7.135197m. Speed=0.540000m/h.</desc>
<speed>0.150000</speed>
</trkpt>
<trkpt lat="20.956656" lon="107.056931">
<ele>1.3</ele>
<time>2011-04-30T09:22:05Z</time>
<desc>lat.=20.956656, lon.=107.056931, Alt.=-2.514193m. Speed=0.180000m/h.</desc>
<speed>0.050000</speed>
</trkpt>
<trkpt lat="20.956800" lon="107.056557">
<ele>4.0</ele>
<time>2011-04-30T09:24:05Z</time>
<desc>lat.=20.956800, lon.=107.056557, Alt.=1.515580m. Speed=0.288000m/h.</desc>
<speed>0.080000</speed>
</trkpt>
<trkpt lat="20.956591" lon="107.056534">
<ele>0.9</ele>
<time>2011-04-30T09:25:25Z</time>
<desc>lat.=20.956591, lon.=107.056534, Alt.=5.756046m. Speed=0.216000m/h.</desc>
<speed>0.060000</speed>
</trkpt>
<trkpt lat="20.956068" lon="107.054428">
<ele>1.2</ele>
<time>2011-04-30T09:31:05Z</time>
<desc>lat.=20.956068, lon.=107.054428, Alt.=24.476334m. Speed=1.728000m/h.</desc>
<speed>0.480000</speed>
</trkpt>
<trkpt lat="20.956442" lon="107.050537">
<ele>3.8</ele>
<time>2011-04-30T09:37:15Z</time>
<desc>lat.=20.956442, lon.=107.050537, Alt.=17.082779m. Speed=3.168000m/h.</desc>
<speed>0.880000</speed>
</trkpt>
<trkpt lat="20.956303" lon="107.050293">
<ele>5.2</ele>
<time>2011-04-30T09:38:30Z</time>
<desc>lat.=20.956303, lon.=107.050293, Alt.=18.863052m. Speed=0.036000m/h.</desc>
<speed>0.010000</speed>
</trkpt>
<trkpt lat="20.956400" lon="107.050285">
<ele>4.9</ele>
<time>2011-04-30T09:42:45Z</time>
<desc>lat.=20.956400, lon.=107.050285, Alt.=15.782356m. Speed=0.360000m/h.</desc>
<speed>0.100000</speed>
</trkpt>
<trkpt lat="20.956110" lon="107.050087">
<ele>6.0</ele>
<time>2011-04-30T09:45:10Z</time>
<desc>lat.=20.956110, lon.=107.050087, Alt.=16.280045m. Speed=0.936000m/h.</desc>
<speed>0.260000</speed>
</trkpt>
<trkpt lat="20.955969" lon="107.049759">
<ele>4.8</ele>
<time>2011-04-30T09:46:45Z</time>
<desc>lat.=20.955969, lon.=107.049759, Alt.=16.032486m. Speed=1.548000m/h.</desc>
<speed>0.430000</speed>
</trkpt>
<trkpt lat="20.955664" lon="107.049767">
<ele>5.0</ele>
<time>2011-04-30T09:47:40Z</time>
<desc>lat.=20.955664, lon.=107.049767, Alt.=15.673225m. Speed=1.584000m/h.</desc>
<speed>0.440000</speed>
</trkpt>
<trkpt lat="20.955429" lon="107.049538">
<ele>4.8</ele>
<time>2011-04-30T09:48:55Z</time>
<desc>lat.=20.955429, lon.=107.049538, Alt.=13.283089m. Speed=0.144000m/h.</desc>
<speed>0.040000</speed>
</trkpt>
<trkpt lat="20.955372" lon="107.049232">
<ele>4.8</ele>
<time>2011-04-30T09:50:20Z</time>
<desc>lat.=20.955372, lon.=107.049232, Alt.=8.378548m. Speed=0.936000m/h.</desc>
<speed>0.260000</speed>
</trkpt>
<trkpt lat="20.955511" lon="107.049263">
<ele>5.8</ele>
<time>2011-04-30T09:52:45Z</time>
<desc>lat.=20.955511, lon.=107.049263, Alt.=5.010685m. Speed=0.072000m/h.</desc>
<speed>0.020000</speed>
</trkpt>
<trkpt lat="20.955589" lon="107.049095">
<ele>5.9</ele>
<time>2011-04-30T09:55:35Z</time>
<desc>lat.=20.955589, lon.=107.049095, Alt.=14.285530m. Speed=0.216000m/h.</desc>
<speed>0.060000</speed>
</trkpt>
<trkpt lat="20.955259" lon="107.049202">
<ele>4.5</ele>
<time>2011-04-30T10:00:00Z</time>
<desc>lat.=20.955259, lon.=107.049202, Alt.=11.538948m. Speed=0.252000m/h.</desc>
<speed>0.070000</speed>
</trkpt>
<trkpt lat="20.955475" lon="107.048988">
<ele>5.1</ele>
<time>2011-04-30T10:03:45Z</time>
<desc>lat.=20.955475, lon.=107.048988, Alt.=11.432503m. Speed=0.072000m/h.</desc>
<speed>0.020000</speed>
</trkpt>
<trkpt lat="20.955130" lon="107.049316">
<ele>3.9</ele>
<time>2011-04-30T10:09:45Z</time>
<desc>lat.=20.955130, lon.=107.049316, Alt.=19.084244m. Speed=0.324000m/h.</desc>
<speed>0.090000</speed>
</trkpt>
<trkpt lat="20.955229" lon="107.049171">
<ele>4.4</ele>
<time>2011-04-30T10:14:15Z</time>
<desc>lat.=20.955229, lon.=107.049171, Alt.=16.721939m. Speed=0.828000m/h.</desc>
<speed>0.230000</speed>
</trkpt>
<trkpt lat="20.955114" lon="107.049278">
<ele>3.8</ele>
<time>2011-04-30T10:15:15Z</time>
<desc>lat.=20.955114, lon.=107.049278, Alt.=17.770279m. Speed=0.180000m/h.</desc>
<speed>0.050000</speed>
</trkpt>
<trkpt lat="20.955217" lon="107.049156">
<ele>4.4</ele>
<time>2011-04-30T10:16:40Z</time>
<desc>lat.=20.955217, lon.=107.049156, Alt.=18.309341m. Speed=1.188000m/h.</desc>
<speed>0.330000</speed>
</trkpt>
<trkpt lat="20.955057" lon="107.049095">
<ele>2.9</ele>
<time>2011-04-30T10:18:10Z</time>
<desc>lat.=20.955057, lon.=107.049095, Alt.=24.029556m. Speed=1.620000m/h.</desc>
<speed>0.450000</speed>
</trkpt>
<trkpt lat="20.955120" lon="107.049019">
<ele>3.8</ele>
<time>2011-04-30T10:18:50Z</time>
<desc>lat.=20.955120, lon.=107.049019, Alt.=25.206802m. Speed=1.548000m/h.</desc>
<speed>0.430000</speed>
</trkpt>
<trkpt lat="20.955467" lon="107.049332">
<ele>5.2</ele>
<time>2011-04-30T10:20:30Z</time>
<desc>lat.=20.955467, lon.=107.049332, Alt.=37.559113m. Speed=0.756000m/h.</desc>
<speed>0.210000</speed>
</trkpt>
<trkpt lat="20.955435" lon="107.049606">
<ele>4.7</ele>
<time>2011-04-30T10:21:40Z</time>
<desc>lat.=20.955435, lon.=107.049606, Alt.=31.332291m. Speed=4.356000m/h.</desc>
<speed>1.210000</speed>
</trkpt>
<trkpt lat="20.955959" lon="107.049469">
<ele>5.0</ele>
<time>2011-04-30T10:22:40Z</time>
<desc>lat.=20.955959, lon.=107.049469, Alt.=27.770767m. Speed=2.412000m/h.</desc>
<speed>0.670000</speed>
</trkpt>
<trkpt lat="20.956152" lon="107.049751">
<ele>5.5</ele>
<time>2011-04-30T10:23:15Z</time>
<desc>lat.=20.956152, lon.=107.049751, Alt.=35.683136m. Speed=4.896000m/h.</desc>
<speed>1.360000</speed>
</trkpt>
<trkpt lat="20.956964" lon="107.049957">
<ele>4.8</ele>
<time>2011-04-30T10:24:15Z</time>
<desc>lat.=20.956964, lon.=107.049957, Alt.=40.085480m. Speed=4.536000m/h.</desc>
<speed>1.260000</speed>
</trkpt>
<trkpt lat="20.957157" lon="107.050354">
<ele>14.6</ele>
<time>2011-04-30T10:25:00Z</time>
<desc>lat.=20.957157, lon.=107.050354, Alt.=39.132355m. Speed=0.252000m/h.</desc>
<speed>0.070000</speed>
</trkpt>
<trkpt lat="20.957142" lon="107.050652">
<ele>16.4</ele>
<time>2011-04-30T10:25:30Z</time>
<desc>lat.=20.957142, lon.=107.050652, Alt.=39.561066m. Speed=3.780000m/h.</desc>
<speed>1.050000</speed>
</trkpt>
<trkpt lat="20.956970" lon="107.050583">
<ele>12.8</ele>
<time>2011-04-30T10:25:47Z</time>
<desc>lat.=20.956970, lon.=107.050583, Alt.=41.620636m. Speed=0.324000m/h.</desc>
<speed>0.090000</speed>
</trkpt>
<trkpt lat="20.957008" lon="107.050705">
<ele>14.0</ele>
<time>2011-04-30T10:25:52Z</time>
<desc>lat.=20.957008, lon.=107.050705, Alt.=46.028839m. Speed=1.908000m/h.</desc>
<speed>0.530000</speed>
</trkpt>
<trkpt lat="20.957405" lon="107.050362">
<ele>10.6</ele>
<time>2011-04-30T10:26:07Z</time>
<desc>lat.=20.957405, lon.=107.050362, Alt.=53.259308m. Speed=0.504000m/h.</desc>
<speed>0.140000</speed>
</trkpt>
<trkpt lat="20.957352" lon="107.050522">
<ele>13.1</ele>
<time>2011-04-30T10:26:27Z</time>
<desc>lat.=20.957352, lon.=107.050522, Alt.=53.616730m. Speed=3.564000m/h.</desc>
<speed>0.990000</speed>
</trkpt>
<trkpt lat="20.957392" lon="107.050301">
<ele>10.3</ele>
<time>2011-04-30T10:27:37Z</time>
<desc>lat.=20.957392, lon.=107.050301, Alt.=52.913605m. Speed=0.000000m/h.</desc>
<speed>0.000000</speed>
</trkpt>
<trkpt lat="20.957481" lon="107.050240">
<ele>11.5</ele>
<time>2011-04-30T10:28:07Z</time>
<desc>lat.=20.957481, lon.=107.050240, Alt.=52.023956m. Speed=1.548000m/h.</desc>
<speed>0.430000</speed>
</trkpt>
<trkpt lat="20.957415" lon="107.050507">
<ele>12.2</ele>
<time>2011-04-30T10:28:52Z</time>
<desc>lat.=20.957415, lon.=107.050507, Alt.=51.094269m. Speed=0.936000m/h.</desc>
<speed>0.260000</speed>
</trkpt>
<trkpt lat="20.957415" lon="107.050316">
<ele>10.1</ele>
<time>2011-04-30T10:29:52Z</time>
<desc>lat.=20.957415, lon.=107.050316, Alt.=50.691925m. Speed=0.432000m/h.</desc>
<speed>0.120000</speed>
</trkpt>
<trkpt lat="20.957527" lon="107.050323">
<ele>10.0</ele>
<time>2011-04-30T10:30:12Z</time>
<desc>lat.=20.957527, lon.=107.050323, Alt.=51.991730m. Speed=0.936000m/h.</desc>
<speed>0.260000</speed>
</trkpt>
<trkpt lat="20.957371" lon="107.050346">
<ele>10.5</ele>
<time>2011-04-30T10:31:37Z</time>
<desc>lat.=20.957371, lon.=107.050346, Alt.=53.420441m. Speed=1.692000m/h.</desc>
<speed>0.470000</speed>
</trkpt>
<trkpt lat="20.957504" lon="107.050491">
<ele>11.2</ele>
<time>2011-04-30T10:33:17Z</time>
<desc>lat.=20.957504, lon.=107.050491, Alt.=55.480988m. Speed=2.340000m/h.</desc>
<speed>0.650000</speed>
</trkpt>
<trkpt lat="20.957500" lon="107.050270">
<ele>11.0</ele>
<time>2011-04-30T10:35:07Z</time>
<desc>lat.=20.957500, lon.=107.050270, Alt.=46.346222m. Speed=0.864000m/h.</desc>
<speed>0.240000</speed>
</trkpt>
<trkpt lat="20.957447" lon="107.050484">
<ele>11.7</ele>
<time>2011-04-30T10:38:32Z</time>
<desc>lat.=20.957447, lon.=107.050484, Alt.=51.417511m. Speed=0.036000m/h.</desc>
<speed>0.010000</speed>
</trkpt>
<trkpt lat="20.957497" lon="107.050285">
<ele>10.7</ele>
<time>2011-04-30T10:39:22Z</time>
<desc>lat.=20.957497, lon.=107.050285, Alt.=51.265167m. Speed=0.432000m/h.</desc>
<speed>0.120000</speed>
</trkpt>
<trkpt lat="20.957155" lon="107.050606">
<ele>16.1</ele>
<time>2011-04-30T10:48:02Z</time>
<desc>lat.=20.957155, lon.=107.050606, Alt.=54.780792m. Speed=2.340000m/h.</desc>
<speed>0.650000</speed>
</trkpt>
<trkpt lat="20.957365" lon="107.050529">
<ele>13.0</ele>
<time>2011-04-30T10:48:37Z</time>
<desc>lat.=20.957365, lon.=107.050529, Alt.=54.209503m. Speed=0.864000m/h.</desc>
<speed>0.240000</speed>
</trkpt>
<trkpt lat="20.957411" lon="107.050240">
<ele>11.2</ele>
<time>2011-04-30T10:49:52Z</time>
<desc>lat.=20.957411, lon.=107.050240, Alt.=54.051300m. Speed=1.800000m/h.</desc>
<speed>0.500000</speed>
</trkpt>
<trkpt lat="20.957407" lon="107.050598">
<ele>13.3</ele>
<time>2011-04-30T10:51:47Z</time>
<desc>lat.=20.957407, lon.=107.050598, Alt.=64.471741m. Speed=0.864000m/h.</desc>
<speed>0.240000</speed>
</trkpt>
<trkpt lat="20.957424" lon="107.050316">
<ele>10.1</ele>
<time>2011-04-30T10:54:07Z</time>
<desc>lat.=20.957424, lon.=107.050316, Alt.=77.120178m. Speed=1.296000m/h.</desc>
<speed>0.360000</speed>
</trkpt>
<trkpt lat="20.957235" lon="107.050606">
<ele>15.3</ele>
<time>2011-04-30T10:56:37Z</time>
<desc>lat.=20.957235, lon.=107.050606, Alt.=76.799866m. Speed=2.232000m/h.</desc>
<speed>0.620000</speed>
</trkpt>
<trkpt lat="20.957474" lon="107.050346">
<ele>10.3</ele>
<time>2011-04-30T11:00:47Z</time>
<desc>lat.=20.957474, lon.=107.050346, Alt.=63.162628m. Speed=1.728000m/h.</desc>
<speed>0.480000</speed>
</trkpt>
<trkpt lat="20.957233" lon="107.050476">
<ele>14.2</ele>
<time>2011-04-30T11:01:33Z</time>
<desc>lat.=20.957233, lon.=107.050476, Alt.=62.022980m. Speed=4.320000m/h.</desc>
<speed>1.200000</speed>
</trkpt>
<trkpt lat="20.957062" lon="107.050217">
<ele>12.4</ele>
<time>2011-04-30T11:01:53Z</time>
<desc>lat.=20.957062, lon.=107.050217, Alt.=62.365753m. Speed=5.832000m/h.</desc>
<speed>1.620000</speed>
</trkpt>
<trkpt lat="20.957098" lon="107.050003">
<ele>6.6</ele>
<time>2011-04-30T11:02:08Z</time>
<desc>lat.=20.957098, lon.=107.050003, Alt.=49.576691m. Speed=4.752000m/h.</desc>
<speed>1.320000</speed>
</trkpt>
<trkpt lat="20.956470" lon="107.049934">
<ele>6.3</ele>
<time>2011-04-30T11:03:03Z</time>
<desc>lat.=20.956470, lon.=107.049934, Alt.=52.195831m. Speed=5.364000m/h.</desc>
<speed>1.490000</speed>
</trkpt>
<trkpt lat="20.956303" lon="107.049667">
<ele>5.8</ele>
<time>2011-04-30T11:03:28Z</time>
<desc>lat.=20.956303, lon.=107.049667, Alt.=45.933136m. Speed=5.400000m/h.</desc>
<speed>1.500000</speed>
</trkpt>
<trkpt lat="20.955687" lon="107.049782">
<ele>5.0</ele>
<time>2011-04-30T11:04:18Z</time>
<desc>lat.=20.955687, lon.=107.049782, Alt.=12.977913m. Speed=1.476000m/h.</desc>
<speed>0.410000</speed>
</trkpt>
<trkpt lat="20.955399" lon="107.049278">
<ele>4.8</ele>
<time>2011-04-30T11:05:08Z</time>
<desc>lat.=20.955399, lon.=107.049278, Alt.=13.833870m. Speed=3.276000m/h.</desc>
<speed>0.910000</speed>
</trkpt>
<trkpt lat="20.955528" lon="107.049042">
<ele>5.4</ele>
<time>2011-04-30T11:17:08Z</time>
<desc>lat.=20.955528, lon.=107.049042, Alt.=13.509407m. Speed=0.036000m/h.</desc>
<speed>0.010000</speed>
</trkpt>
<trkpt lat="20.955046" lon="107.049118">
<ele>2.8</ele>
<time>2011-04-30T11:18:23Z</time>
<desc>lat.=20.955046, lon.=107.049118, Alt.=10.198616m. Speed=4.032000m/h.</desc>
<speed>1.120000</speed>
</trkpt>
<trkpt lat="20.954884" lon="107.048309">
<ele>5.5</ele>
<time>2011-04-30T11:25:48Z</time>
<desc>lat.=20.954884, lon.=107.048309, Alt.=2.655123m. Speed=2.880000m/h.</desc>
<speed>0.800000</speed>
</trkpt>
<trkpt lat="20.954569" lon="107.047722">
<ele>5.2</ele>
<time>2011-04-30T11:27:23Z</time>
<desc>lat.=20.954569, lon.=107.047722, Alt.=3.534639m. Speed=3.636000m/h.</desc>
<speed>1.010000</speed>
</trkpt>
<trkpt lat="20.954329" lon="107.047752">
<ele>1.0</ele>
<time>2011-04-30T11:27:48Z</time>
<desc>lat.=20.954329, lon.=107.047752, Alt.=3.605257m. Speed=3.024000m/h.</desc>
<speed>0.840000</speed>
</trkpt>
<trkpt lat="20.954559" lon="107.047722">
<ele>5.1</ele>
<time>2011-04-30T11:29:48Z</time>
<desc>lat.=20.954559, lon.=107.047722, Alt.=7.468693m. Speed=0.000000m/h.</desc>
<speed>0.000000</speed>
</trkpt>
<trkpt lat="20.954672" lon="107.048370">
<ele>2.7</ele>
<time>2011-04-30T11:32:23Z</time>
<desc>lat.=20.954672, lon.=107.048370, Alt.=16.388443m. Speed=1.908000m/h.</desc>
<speed>0.530000</speed>
</trkpt>
<trkpt lat="20.955120" lon="107.048538">
<ele>3.9</ele>
<time>2011-04-30T11:41:28Z</time>
<desc>lat.=20.955120, lon.=107.048538, Alt.=4.032780m. Speed=0.036000m/h.</desc>
<speed>0.010000</speed>
</trkpt>
<trkpt lat="20.955032" lon="107.048820">
<ele>2.7</ele>
<time>2011-04-30T11:43:13Z</time>
<desc>lat.=20.955032, lon.=107.048820, Alt.=5.458317m. Speed=1.008000m/h.</desc>
<speed>0.280000</speed>
</trkpt>
<trkpt lat="20.955446" lon="107.049667">
<ele>4.6</ele>
<time>2011-04-30T11:46:48Z</time>
<desc>lat.=20.955446, lon.=107.049667, Alt.=6.108341m. Speed=1.872000m/h.</desc>
<speed>0.520000</speed>
</trkpt>
<trkpt lat="20.956030" lon="107.050148">
<ele>5.6</ele>
<time>2011-04-30T11:49:58Z</time>
<desc>lat.=20.956030, lon.=107.050148, Alt.=9.698128m. Speed=2.016000m/h.</desc>
<speed>0.560000</speed>
</trkpt>
<trkpt lat="20.955933" lon="107.050278">
<ele>4.3</ele>
<time>2011-04-30T12:09:18Z</time>
<desc>lat.=20.955933, lon.=107.050278, Alt.=1.445481m. Speed=0.036000m/h.</desc>
<speed>0.010000</speed>
</trkpt>
<trkpt lat="20.956072" lon="107.050125">
<ele>5.8</ele>
<time>2011-04-30T12:20:58Z</time>
<desc>lat.=20.956072, lon.=107.050125, Alt.=4.804386m. Speed=1.404000m/h.</desc>
<speed>0.390000</speed>
</trkpt>
<trkpt lat="20.955992" lon="107.049812">
<ele>5.4</ele>
<time>2011-04-30T12:21:53Z</time>
<desc>lat.=20.955992, lon.=107.049812, Alt.=7.866032m. Speed=0.072000m/h.</desc>
<speed>0.020000</speed>
</trkpt>
<trkpt lat="20.955858" lon="107.050026">
<ele>5.4</ele>
<time>2011-04-30T12:23:33Z</time>
<desc>lat.=20.955858, lon.=107.050026, Alt.=12.191292m. Speed=0.576000m/h.</desc>
<speed>0.160000</speed>
</trkpt>
<trkpt lat="20.955750" lon="107.049911">
<ele>5.2</ele>
<time>2011-04-30T12:42:53Z</time>
<desc>lat.=20.955750, lon.=107.049911, Alt.=8.517464m. Speed=2.952000m/h.</desc>
<speed>0.820000</speed>
</trkpt>
<trkpt lat="20.955839" lon="107.050217">
<ele>3.9</ele>
<time>2011-04-30T12:43:53Z</time>
<desc>lat.=20.955839, lon.=107.050217, Alt.=4.374943m. Speed=3.528000m/h.</desc>
<speed>0.980000</speed>
</trkpt>
<trkpt lat="20.956078" lon="107.050110">
<ele>5.9</ele>
<time>2011-04-30T12:48:43Z</time>
<desc>lat.=20.956078, lon.=107.050110, Alt.=6.118961m. Speed=2.052000m/h.</desc>
<speed>0.570000</speed>
</trkpt>
<trkpt lat="20.956053" lon="107.049980">
<ele>6.6</ele>
<time>2011-04-30T12:49:23Z</time>
<desc>lat.=20.956053, lon.=107.049980, Alt.=7.492252m. Speed=0.540000m/h.</desc>
<speed>0.150000</speed>
</trkpt>
<trkpt lat="20.955860" lon="107.049980">
<ele>5.8</ele>
<time>2011-04-30T13:05:48Z</time>
<desc>lat.=20.955860, lon.=107.049980, Alt.=5.636784m. Speed=4.176000m/h.</desc>
<speed>1.160000</speed>
</trkpt>
<trkpt lat="20.955879" lon="107.049728">
<ele>4.7</ele>
<time>2011-04-30T13:06:43Z</time>
<desc>lat.=20.955879, lon.=107.049728, Alt.=5.994205m. Speed=2.088000m/h.</desc>
<speed>0.580000</speed>
</trkpt>
<trkpt lat="20.955389" lon="107.049637">
<ele>4.5</ele>
<time>2011-04-30T13:09:28Z</time>
<desc>lat.=20.955389, lon.=107.049637, Alt.=-6.197941m. Speed=1.044000m/h.</desc>
<speed>0.290000</speed>
</trkpt>
<trkpt lat="20.955851" lon="107.049339">
<ele>6.8</ele>
<time>2011-04-30T13:33:08Z</time>
<desc>lat.=20.955851, lon.=107.049339, Alt.=-0.259991m. Speed=2.052000m/h.</desc>
<speed>0.570000</speed>
</trkpt>
<trkpt lat="20.957010" lon="107.050148">
<ele>9.6</ele>
<time>2011-04-30T13:36:03Z</time>
<desc>lat.=20.957010, lon.=107.050148, Alt.=30.018326m. Speed=1.764000m/h.</desc>
<speed>0.490000</speed>
</trkpt>
<trkpt lat="20.957256" lon="107.050171">
<ele>11.6</ele>
<time>2011-04-30T13:36:48Z</time>
<desc>lat.=20.957256, lon.=107.050171, Alt.=36.971222m. Speed=0.000000m/h.</desc>
<speed>0.000000</speed>
</trkpt>
<trkpt lat="20.957342" lon="107.050613">
<ele>14.4</ele>
<time>2011-04-30T13:39:18Z</time>
<desc>lat.=20.957342, lon.=107.050613, Alt.=28.458267m. Speed=4.068000m/h.</desc>
<speed>1.130000</speed>
</trkpt>
<trkpt lat="20.957207" lon="107.050652">
<ele>15.9</ele>
<time>2011-04-30T13:39:48Z</time>
<desc>lat.=20.957207, lon.=107.050652, Alt.=28.124283m. Speed=1.188000m/h.</desc>
<speed>0.330000</speed>
</trkpt>
<trkpt lat="20.957214" lon="107.050499">
<ele>14.7</ele>
<time>2011-04-30T13:41:23Z</time>
<desc>lat.=20.957214, lon.=107.050499, Alt.=28.971939m. Speed=1.512000m/h.</desc>
<speed>0.420000</speed>
</trkpt>
<trkpt lat="20.957266" lon="107.050621">
<ele>15.1</ele>
<time>2011-04-30T13:43:08Z</time>
<desc>lat.=20.957266, lon.=107.050621, Alt.=29.835709m. Speed=3.024000m/h.</desc>
<speed>0.840000</speed>
</trkpt>
<trkpt lat="20.960104" lon="107.050331">
<ele>20.6</ele>
<time>2011-04-30T13:44:20Z</time>
<desc>lat.=20.960104, lon.=107.050331, Alt.=29.373306m. Speed=0.936000m/h.</desc>
<speed>0.260000</speed>
</trkpt>
<trkpt lat="20.957525" lon="107.050301">
<ele>10.3</ele>
<time>2011-04-30T13:44:25Z</time>
<desc>lat.=20.957525, lon.=107.050301, Alt.=29.221451m. Speed=2.196000m/h.</desc>
<speed>0.610000</speed>
</trkpt>
<trkpt lat="20.957096" lon="107.050461">
<ele>16.1</ele>
<time>2011-04-30T13:44:35Z</time>
<desc>lat.=20.957096, lon.=107.050461, Alt.=28.865982m. Speed=4.032000m/h.</desc>
<speed>1.120000</speed>
</trkpt>
<trkpt lat="20.957067" lon="107.050621">
<ele>16.2</ele>
<time>2011-04-30T13:44:40Z</time>
<desc>lat.=20.957067, lon.=107.050621, Alt.=28.301041m. Speed=4.464000m/h.</desc>
<speed>1.240000</speed>
</trkpt>
<trkpt lat="20.957188" lon="107.050575">
<ele>15.5</ele>
<time>2011-04-30T13:44:50Z</time>
<desc>lat.=20.957188, lon.=107.050575, Alt.=28.218033m. Speed=0.792000m/h.</desc>
<speed>0.220000</speed>
</trkpt>
<trkpt lat="20.956974" lon="107.050293">
<ele>12.5</ele>
<time>2011-04-30T13:46:10Z</time>
<desc>lat.=20.956974, lon.=107.050293, Alt.=24.315689m. Speed=7.848000m/h.</desc>
<speed>2.180000</speed>
</trkpt>
<trkpt lat="20.957415" lon="107.049820">
<ele>15.4</ele>
<time>2011-04-30T13:46:40Z</time>
<desc>lat.=20.957415, lon.=107.049820, Alt.=11.328499m. Speed=5.940000m/h.</desc>
<speed>1.650000</speed>
</trkpt>
<trkpt lat="20.957603" lon="107.050308">
<ele>10.1</ele>
<time>2011-04-30T13:47:35Z</time>
<desc>lat.=20.957603, lon.=107.050308, Alt.=-3.816256m. Speed=6.480000m/h.</desc>
<speed>1.800000</speed>
</trkpt>
<trkpt lat="20.957468" lon="107.050568">
<ele>12.3</ele>
<time>2011-04-30T13:47:50Z</time>
<desc>lat.=20.957468, lon.=107.050568, Alt.=-0.506890m. Speed=4.824000m/h.</desc>
<speed>1.340000</speed>
</trkpt>
<trkpt lat="20.957357" lon="107.050514">
<ele>12.9</ele>
<time>2011-04-30T13:48:20Z</time>
<desc>lat.=20.957357, lon.=107.050514, Alt.=28.740005m. Speed=1.800000m/h.</desc>
<speed>0.500000</speed>
</trkpt>
<trkpt lat="20.957434" lon="107.050392">
<ele>10.8</ele>
<time>2011-04-30T13:48:55Z</time>
<desc>lat.=20.957434, lon.=107.050392, Alt.=35.790558m. Speed=0.756000m/h.</desc>
<speed>0.210000</speed>
</trkpt>
<trkpt lat="20.957216" lon="107.050461">
<ele>14.3</ele>
<time>2011-04-30T13:49:45Z</time>
<desc>lat.=20.957216, lon.=107.050461, Alt.=37.915558m. Speed=0.864000m/h.</desc>
<speed>0.240000</speed>
</trkpt>
<trkpt lat="20.957336" lon="107.050430">
<ele>12.1</ele>
<time>2011-04-30T13:50:55Z</time>
<desc>lat.=20.957336, lon.=107.050430, Alt.=39.125519m. Speed=0.648000m/h.</desc>
<speed>0.180000</speed>
</trkpt>
<trkpt lat="20.957136" lon="107.050751">
<ele>16.3</ele>
<time>2011-04-30T13:52:10Z</time>
<desc>lat.=20.957136, lon.=107.050751, Alt.=35.158722m. Speed=0.936000m/h.</desc>
<speed>0.260000</speed>
</trkpt>
<trkpt lat="20.957493" lon="107.050476">
<ele>11.2</ele>
<time>2011-04-30T13:54:35Z</time>
<desc>lat.=20.957493, lon.=107.050476, Alt.=33.884308m. Speed=0.648000m/h.</desc>
<speed>0.180000</speed>
</trkpt>
<trkpt lat="20.957361" lon="107.050560">
<ele>13.5</ele>
<time>2011-04-30T13:55:05Z</time>
<desc>lat.=20.957361, lon.=107.050560, Alt.=35.374542m. Speed=0.720000m/h.</desc>
<speed>0.200000</speed>
</trkpt>
<trkpt lat="20.957392" lon="107.050278">
<ele>10.6</ele>
<time>2011-04-30T13:56:55Z</time>
<desc>lat.=20.957392, lon.=107.050278, Alt.=40.635284m. Speed=0.756000m/h.</desc>
<speed>0.210000</speed>
</trkpt>
<trkpt lat="20.957422" lon="107.050423">
<ele>11.2</ele>
<time>2011-04-30T13:58:05Z</time>
<desc>lat.=20.957422, lon.=107.050423, Alt.=37.544464m. Speed=1.908000m/h.</desc>
<speed>0.530000</speed>
</trkpt>
<trkpt lat="20.957310" lon="107.050438">
<ele>12.6</ele>
<time>2011-04-30T13:58:45Z</time>
<desc>lat.=20.957310, lon.=107.050438, Alt.=36.308136m. Speed=0.648000m/h.</desc>
<speed>0.180000</speed>
</trkpt>
<trkpt lat="20.957439" lon="107.050476">
<ele>11.7</ele>
<time>2011-04-30T13:59:20Z</time>
<desc>lat.=20.957439, lon.=107.050476, Alt.=40.333527m. Speed=0.756000m/h.</desc>
<speed>0.210000</speed>
</trkpt>
<trkpt lat="20.957230" lon="107.050163">
<ele>11.5</ele>
<time>2011-04-30T13:59:55Z</time>
<desc>lat.=20.957230, lon.=107.050163, Alt.=39.846222m. Speed=1.584000m/h.</desc>
<speed>0.440000</speed>
</trkpt>
<trkpt lat="20.957218" lon="107.050697">
<ele>16.1</ele>
<time>2011-04-30T14:01:00Z</time>
<desc>lat.=20.957218, lon.=107.050697, Alt.=28.427505m. Speed=1.152000m/h.</desc>
<speed>0.320000</speed>
</trkpt>
<trkpt lat="20.957554" lon="107.050354">
<ele>10.1</ele>
<time>2011-04-30T14:01:45Z</time>
<desc>lat.=20.957554, lon.=107.050354, Alt.=27.105728m. Speed=0.720000m/h.</desc>
<speed>0.200000</speed>
</trkpt>
</trkseg>
</trk>
</gpx>